<?xml version="1.0" encoding="UTF-8" standalone="no" ?>
<gpx xmlns="http://www.topografix.com/GPX/1/1" xmlns:xsi="http://www.w3.org/2001/XMLSchema-instance" xsi:schemaLocation="http://www.topografix.com/GPX/1/1 http://www.topografix.com/GPX/1/1/gpx.xsd" version="1.1" creator="VisuGPX - https://www.visugpx.com">
  <metadata>
    <name>Thoissia - Ecuiria - Nantey</name>
    <desc><![CDATA[Une jolie sortie de 10km avec un peu de dénivelé !!!!]]></desc>
  </metadata>
  <trk>
    <name><![CDATA[28/02/2016 08:21:45]]></name>
    <trkseg>
      <trkpt lat="46.42283" lon="5.39578">
        <ele>477.40002441406</ele>
        <time>2016-02-28T07:21:45Z</time>
      </trkpt>
      <trkpt lat="46.42291" lon="5.39587">
        <ele>472.20001220703</ele>
        <time>2016-02-28T07:22:14Z</time>
      </trkpt>
      <trkpt lat="46.42288" lon="5.39582">
        <ele>473</ele>
        <time>2016-02-28T07:22:16Z</time>
      </trkpt>
      <trkpt lat="46.42283" lon="5.39572">
        <ele>471</ele>
        <time>2016-02-28T07:22:19Z</time>
      </trkpt>
      <trkpt lat="46.42279" lon="5.39565">
        <ele>469.59997558594</ele>
        <time>2016-02-28T07:22:21Z</time>
      </trkpt>
      <trkpt lat="46.42278" lon="5.39563">
        <ele>469.40002441406</ele>
        <time>2016-02-28T07:22:22Z</time>
      </trkpt>
      <trkpt lat="46.42271" lon="5.39539">
        <ele>469.59997558594</ele>
        <time>2016-02-28T07:22:29Z</time>
      </trkpt>
      <trkpt lat="46.4227" lon="5.39531">
        <ele>468.59997558594</ele>
        <time>2016-02-28T07:22:31Z</time>
      </trkpt>
      <trkpt lat="46.4227" lon="5.39512">
        <ele>468.59997558594</ele>
        <time>2016-02-28T07:22:36Z</time>
      </trkpt>
      <trkpt lat="46.42264" lon="5.39492">
        <ele>468</ele>
        <time>2016-02-28T07:22:43Z</time>
      </trkpt>
      <trkpt lat="46.42254" lon="5.39476">
        <ele>467.40002441406</ele>
        <time>2016-02-28T07:22:49Z</time>
      </trkpt>
      <trkpt lat="46.42249" lon="5.39453">
        <ele>466.79998779297</ele>
        <time>2016-02-28T07:22:56Z</time>
      </trkpt>
      <trkpt lat="46.42248" lon="5.39442">
        <ele>466.40002441406</ele>
        <time>2016-02-28T07:22:59Z</time>
      </trkpt>
      <trkpt lat="46.42247" lon="5.39439">
        <ele>466.20001220703</ele>
        <time>2016-02-28T07:23:00Z</time>
      </trkpt>
      <trkpt lat="46.42248" lon="5.39421">
        <ele>465.40002441406</ele>
        <time>2016-02-28T07:23:05Z</time>
      </trkpt>
      <trkpt lat="46.42252" lon="5.39411">
        <ele>466</ele>
        <time>2016-02-28T07:23:08Z</time>
      </trkpt>
      <trkpt lat="46.42258" lon="5.39398">
        <ele>466</ele>
        <time>2016-02-28T07:23:12Z</time>
      </trkpt>
      <trkpt lat="46.42272" lon="5.39377">
        <ele>465.40002441406</ele>
        <time>2016-02-28T07:23:20Z</time>
      </trkpt>
      <trkpt lat="46.42275" lon="5.39364">
        <ele>466.59997558594</ele>
        <time>2016-02-28T07:23:24Z</time>
      </trkpt>
      <trkpt lat="46.42276" lon="5.39361">
        <ele>466.79998779297</ele>
        <time>2016-02-28T07:23:25Z</time>
      </trkpt>
      <trkpt lat="46.42278" lon="5.39353">
        <ele>467.59997558594</ele>
        <time>2016-02-28T07:23:28Z</time>
      </trkpt>
      <trkpt lat="46.4228" lon="5.39345">
        <ele>468.40002441406</ele>
        <time>2016-02-28T07:23:31Z</time>
      </trkpt>
      <trkpt lat="46.4228" lon="5.39343">
        <ele>468.79998779297</ele>
        <time>2016-02-28T07:23:32Z</time>
      </trkpt>
      <trkpt lat="46.42281" lon="5.3934">
        <ele>470.20001220703</ele>
        <time>2016-02-28T07:23:34Z</time>
      </trkpt>
      <trkpt lat="46.42281" lon="5.39334">
        <ele>471.59997558594</ele>
        <time>2016-02-28T07:23:36Z</time>
      </trkpt>
      <trkpt lat="46.42282" lon="5.39331">
        <ele>472.40002441406</ele>
        <time>2016-02-28T07:23:37Z</time>
      </trkpt>
      <trkpt lat="46.42282" lon="5.39328">
        <ele>472.79998779297</ele>
        <time>2016-02-28T07:23:38Z</time>
      </trkpt>
      <trkpt lat="46.42284" lon="5.39318">
        <ele>473.79998779297</ele>
        <time>2016-02-28T07:23:41Z</time>
      </trkpt>
      <trkpt lat="46.42285" lon="5.39309">
        <ele>475</ele>
        <time>2016-02-28T07:23:44Z</time>
      </trkpt>
      <trkpt lat="46.42286" lon="5.39305">
        <ele>475.40002441406</ele>
        <time>2016-02-28T07:23:45Z</time>
      </trkpt>
      <trkpt lat="46.42287" lon="5.393">
        <ele>476.20001220703</ele>
        <time>2016-02-28T07:23:47Z</time>
      </trkpt>
      <trkpt lat="46.42287" lon="5.39292">
        <ele>477.40002441406</ele>
        <time>2016-02-28T07:23:50Z</time>
      </trkpt>
      <trkpt lat="46.42288" lon="5.39286">
        <ele>478.59997558594</ele>
        <time>2016-02-28T07:23:52Z</time>
      </trkpt>
      <trkpt lat="46.42288" lon="5.39275">
        <ele>480</ele>
        <time>2016-02-28T07:23:55Z</time>
      </trkpt>
      <trkpt lat="46.42289" lon="5.39267">
        <ele>481.20001220703</ele>
        <time>2016-02-28T07:23:58Z</time>
      </trkpt>
      <trkpt lat="46.42291" lon="5.39255">
        <ele>482.40002441406</ele>
        <time>2016-02-28T07:24:02Z</time>
      </trkpt>
      <trkpt lat="46.42291" lon="5.39249">
        <ele>482.79998779297</ele>
        <time>2016-02-28T07:24:04Z</time>
      </trkpt>
      <trkpt lat="46.4229" lon="5.39235">
        <ele>483.20001220703</ele>
        <time>2016-02-28T07:24:09Z</time>
      </trkpt>
      <trkpt lat="46.42285" lon="5.39233">
        <ele>483.40002441406</ele>
        <time>2016-02-28T07:24:13Z</time>
      </trkpt>
      <trkpt lat="46.42282" lon="5.3923">
        <ele>483.40002441406</ele>
        <time>2016-02-28T07:24:15Z</time>
      </trkpt>
      <trkpt lat="46.42279" lon="5.39228">
        <ele>483.59997558594</ele>
        <time>2016-02-28T07:24:17Z</time>
      </trkpt>
      <trkpt lat="46.42272" lon="5.39225">
        <ele>484.79998779297</ele>
        <time>2016-02-28T07:24:21Z</time>
      </trkpt>
      <trkpt lat="46.4227" lon="5.39222">
        <ele>484.79998779297</ele>
        <time>2016-02-28T07:24:23Z</time>
      </trkpt>
      <trkpt lat="46.42265" lon="5.39204">
        <ele>488.59997558594</ele>
        <time>2016-02-28T07:24:32Z</time>
      </trkpt>
      <trkpt lat="46.42265" lon="5.39198">
        <ele>489.79998779297</ele>
        <time>2016-02-28T07:24:34Z</time>
      </trkpt>
      <trkpt lat="46.42265" lon="5.39195">
        <ele>490.20001220703</ele>
        <time>2016-02-28T07:24:35Z</time>
      </trkpt>
      <trkpt lat="46.42265" lon="5.39185">
        <ele>491.20001220703</ele>
        <time>2016-02-28T07:24:38Z</time>
      </trkpt>
      <trkpt lat="46.42265" lon="5.39175">
        <ele>492.20001220703</ele>
        <time>2016-02-28T07:24:41Z</time>
      </trkpt>
      <trkpt lat="46.42265" lon="5.39169">
        <ele>492.40002441406</ele>
        <time>2016-02-28T07:24:43Z</time>
      </trkpt>
      <trkpt lat="46.42266" lon="5.39154">
        <ele>493.20001220703</ele>
        <time>2016-02-28T07:24:48Z</time>
      </trkpt>
      <trkpt lat="46.42266" lon="5.39152">
        <ele>493.40002441406</ele>
        <time>2016-02-28T07:24:49Z</time>
      </trkpt>
      <trkpt lat="46.42267" lon="5.39144">
        <ele>494.59997558594</ele>
        <time>2016-02-28T07:24:52Z</time>
      </trkpt>
      <trkpt lat="46.42267" lon="5.39139">
        <ele>495.59997558594</ele>
        <time>2016-02-28T07:24:54Z</time>
      </trkpt>
      <trkpt lat="46.42267" lon="5.39137">
        <ele>496</ele>
        <time>2016-02-28T07:24:55Z</time>
      </trkpt>
      <trkpt lat="46.42267" lon="5.39132">
        <ele>496.79998779297</ele>
        <time>2016-02-28T07:24:57Z</time>
      </trkpt>
      <trkpt lat="46.42267" lon="5.39127">
        <ele>497.79998779297</ele>
        <time>2016-02-28T07:24:59Z</time>
      </trkpt>
      <trkpt lat="46.42268" lon="5.39122">
        <ele>499.40002441406</ele>
        <time>2016-02-28T07:25:01Z</time>
      </trkpt>
      <trkpt lat="46.42268" lon="5.39117">
        <ele>501</ele>
        <time>2016-02-28T07:25:03Z</time>
      </trkpt>
      <trkpt lat="46.42269" lon="5.39112">
        <ele>502.20001220703</ele>
        <time>2016-02-28T07:25:05Z</time>
      </trkpt>
      <trkpt lat="46.42269" lon="5.39109">
        <ele>502.79998779297</ele>
        <time>2016-02-28T07:25:07Z</time>
      </trkpt>
      <trkpt lat="46.42269" lon="5.39104">
        <ele>503.40002441406</ele>
        <time>2016-02-28T07:25:09Z</time>
      </trkpt>
      <trkpt lat="46.42271" lon="5.39094">
        <ele>504.59997558594</ele>
        <time>2016-02-28T07:25:13Z</time>
      </trkpt>
      <trkpt lat="46.42272" lon="5.39093">
        <ele>504.79998779297</ele>
        <time>2016-02-28T07:25:14Z</time>
      </trkpt>
      <trkpt lat="46.42274" lon="5.39082">
        <ele>504.40002441406</ele>
        <time>2016-02-28T07:25:21Z</time>
      </trkpt>
      <trkpt lat="46.42275" lon="5.3905">
        <ele>508.40002441406</ele>
        <time>2016-02-28T07:25:43Z</time>
      </trkpt>
      <trkpt lat="46.42275" lon="5.39045">
        <ele>509.20001220703</ele>
        <time>2016-02-28T07:25:45Z</time>
      </trkpt>
      <trkpt lat="46.42276" lon="5.39043">
        <ele>509.59997558594</ele>
        <time>2016-02-28T07:25:46Z</time>
      </trkpt>
      <trkpt lat="46.42276" lon="5.3903">
        <ele>510.59997558594</ele>
        <time>2016-02-28T07:25:51Z</time>
      </trkpt>
      <trkpt lat="46.42276" lon="5.39028">
        <ele>510.79998779297</ele>
        <time>2016-02-28T07:25:52Z</time>
      </trkpt>
      <trkpt lat="46.42275" lon="5.39023">
        <ele>512</ele>
        <time>2016-02-28T07:25:54Z</time>
      </trkpt>
      <trkpt lat="46.42275" lon="5.39016">
        <ele>513</ele>
        <time>2016-02-28T07:25:57Z</time>
      </trkpt>
      <trkpt lat="46.42276" lon="5.39009">
        <ele>514</ele>
        <time>2016-02-28T07:26:00Z</time>
      </trkpt>
      <trkpt lat="46.42276" lon="5.39007">
        <ele>514.20001220703</ele>
        <time>2016-02-28T07:26:01Z</time>
      </trkpt>
      <trkpt lat="46.42277" lon="5.38997">
        <ele>515.59997558594</ele>
        <time>2016-02-28T07:26:04Z</time>
      </trkpt>
      <trkpt lat="46.42276" lon="5.38996">
        <ele>516</ele>
        <time>2016-02-28T07:26:05Z</time>
      </trkpt>
      <trkpt lat="46.42276" lon="5.38991">
        <ele>516.79998779297</ele>
        <time>2016-02-28T07:26:07Z</time>
      </trkpt>
      <trkpt lat="46.42276" lon="5.38985">
        <ele>518</ele>
        <time>2016-02-28T07:26:09Z</time>
      </trkpt>
      <trkpt lat="46.42277" lon="5.38979">
        <ele>518.59997558594</ele>
        <time>2016-02-28T07:26:11Z</time>
      </trkpt>
      <trkpt lat="46.42277" lon="5.3897">
        <ele>519</ele>
        <time>2016-02-28T07:26:14Z</time>
      </trkpt>
      <trkpt lat="46.42277" lon="5.38963">
        <ele>519.59997558594</ele>
        <time>2016-02-28T07:26:17Z</time>
      </trkpt>
      <trkpt lat="46.42277" lon="5.38957">
        <ele>520.20001220703</ele>
        <time>2016-02-28T07:26:19Z</time>
      </trkpt>
      <trkpt lat="46.42277" lon="5.38945">
        <ele>520.59997558594</ele>
        <time>2016-02-28T07:26:23Z</time>
      </trkpt>
      <trkpt lat="46.42276" lon="5.38938">
        <ele>521.20001220703</ele>
        <time>2016-02-28T07:26:26Z</time>
      </trkpt>
      <trkpt lat="46.42275" lon="5.38932">
        <ele>521.59997558594</ele>
        <time>2016-02-28T07:26:29Z</time>
      </trkpt>
      <trkpt lat="46.42274" lon="5.38926">
        <ele>522.40002441406</ele>
        <time>2016-02-28T07:26:32Z</time>
      </trkpt>
      <trkpt lat="46.42273" lon="5.38924">
        <ele>522.59997558594</ele>
        <time>2016-02-28T07:26:33Z</time>
      </trkpt>
      <trkpt lat="46.42273" lon="5.38918">
        <ele>523.40002441406</ele>
        <time>2016-02-28T07:26:37Z</time>
      </trkpt>
      <trkpt lat="46.42272" lon="5.38914">
        <ele>524.19995117188</ele>
        <time>2016-02-28T07:26:40Z</time>
      </trkpt>
      <trkpt lat="46.42271" lon="5.38897">
        <ele>524.40002441406</ele>
        <time>2016-02-28T07:26:49Z</time>
      </trkpt>
      <trkpt lat="46.4227" lon="5.38894">
        <ele>524.59997558594</ele>
        <time>2016-02-28T07:26:50Z</time>
      </trkpt>
      <trkpt lat="46.42266" lon="5.38877">
        <ele>525.40002441406</ele>
        <time>2016-02-28T07:26:55Z</time>
      </trkpt>
      <trkpt lat="46.42265" lon="5.38871">
        <ele>525.59997558594</ele>
        <time>2016-02-28T07:26:57Z</time>
      </trkpt>
      <trkpt lat="46.42264" lon="5.38869">
        <ele>525.80004882812</ele>
        <time>2016-02-28T07:26:58Z</time>
      </trkpt>
      <trkpt lat="46.42263" lon="5.38866">
        <ele>525.80004882812</ele>
        <time>2016-02-28T07:26:59Z</time>
      </trkpt>
      <trkpt lat="46.42261" lon="5.38859">
        <ele>526.80004882812</ele>
        <time>2016-02-28T07:27:03Z</time>
      </trkpt>
      <trkpt lat="46.42258" lon="5.38848">
        <ele>528</ele>
        <time>2016-02-28T07:27:07Z</time>
      </trkpt>
      <trkpt lat="46.42257" lon="5.38842">
        <ele>528.59997558594</ele>
        <time>2016-02-28T07:27:09Z</time>
      </trkpt>
      <trkpt lat="46.42255" lon="5.38836">
        <ele>529.19995117188</ele>
        <time>2016-02-28T07:27:11Z</time>
      </trkpt>
      <trkpt lat="46.42253" lon="5.38827">
        <ele>530.40002441406</ele>
        <time>2016-02-28T07:27:15Z</time>
      </trkpt>
      <trkpt lat="46.42251" lon="5.38824">
        <ele>530.80004882812</ele>
        <time>2016-02-28T07:27:16Z</time>
      </trkpt>
      <trkpt lat="46.4225" lon="5.3882">
        <ele>531.40002441406</ele>
        <time>2016-02-28T07:27:18Z</time>
      </trkpt>
      <trkpt lat="46.42248" lon="5.38814">
        <ele>532.19995117188</ele>
        <time>2016-02-28T07:27:20Z</time>
      </trkpt>
      <trkpt lat="46.42245" lon="5.38811">
        <ele>532.80004882812</ele>
        <time>2016-02-28T07:27:22Z</time>
      </trkpt>
      <trkpt lat="46.42245" lon="5.38809">
        <ele>533.19995117188</ele>
        <time>2016-02-28T07:27:23Z</time>
      </trkpt>
      <trkpt lat="46.42242" lon="5.38802">
        <ele>534</ele>
        <time>2016-02-28T07:27:26Z</time>
      </trkpt>
      <trkpt lat="46.42237" lon="5.38795">
        <ele>535.19995117188</ele>
        <time>2016-02-28T07:27:30Z</time>
      </trkpt>
      <trkpt lat="46.42228" lon="5.38784">
        <ele>535.59997558594</ele>
        <time>2016-02-28T07:27:36Z</time>
      </trkpt>
      <trkpt lat="46.42219" lon="5.38772">
        <ele>535.19995117188</ele>
        <time>2016-02-28T07:27:42Z</time>
      </trkpt>
      <trkpt lat="46.42218" lon="5.38764">
        <ele>535.40002441406</ele>
        <time>2016-02-28T07:27:45Z</time>
      </trkpt>
      <trkpt lat="46.42218" lon="5.38759">
        <ele>535.40002441406</ele>
        <time>2016-02-28T07:27:47Z</time>
      </trkpt>
      <trkpt lat="46.42218" lon="5.3875">
        <ele>536.40002441406</ele>
        <time>2016-02-28T07:27:50Z</time>
      </trkpt>
      <trkpt lat="46.42218" lon="5.38743">
        <ele>537.19995117188</ele>
        <time>2016-02-28T07:27:53Z</time>
      </trkpt>
      <trkpt lat="46.42219" lon="5.38739">
        <ele>537.59997558594</ele>
        <time>2016-02-28T07:27:55Z</time>
      </trkpt>
      <trkpt lat="46.42218" lon="5.38726">
        <ele>538.80004882812</ele>
        <time>2016-02-28T07:28:00Z</time>
      </trkpt>
      <trkpt lat="46.42216" lon="5.38716">
        <ele>539.59997558594</ele>
        <time>2016-02-28T07:28:05Z</time>
      </trkpt>
      <trkpt lat="46.42216" lon="5.38711">
        <ele>539.80004882812</ele>
        <time>2016-02-28T07:28:07Z</time>
      </trkpt>
      <trkpt lat="46.42215" lon="5.38701">
        <ele>540</ele>
        <time>2016-02-28T07:28:11Z</time>
      </trkpt>
      <trkpt lat="46.42216" lon="5.38694">
        <ele>541</ele>
        <time>2016-02-28T07:28:16Z</time>
      </trkpt>
      <trkpt lat="46.42216" lon="5.38691">
        <ele>541.59997558594</ele>
        <time>2016-02-28T07:28:18Z</time>
      </trkpt>
      <trkpt lat="46.42211" lon="5.38664">
        <ele>546.40002441406</ele>
        <time>2016-02-28T07:28:40Z</time>
      </trkpt>
      <trkpt lat="46.42209" lon="5.38659">
        <ele>547.40002441406</ele>
        <time>2016-02-28T07:28:42Z</time>
      </trkpt>
      <trkpt lat="46.42209" lon="5.38657">
        <ele>547.80004882812</ele>
        <time>2016-02-28T07:28:43Z</time>
      </trkpt>
      <trkpt lat="46.42207" lon="5.38648">
        <ele>549.19995117188</ele>
        <time>2016-02-28T07:28:46Z</time>
      </trkpt>
      <trkpt lat="46.42207" lon="5.38645">
        <ele>549.59997558594</ele>
        <time>2016-02-28T07:28:47Z</time>
      </trkpt>
      <trkpt lat="46.42206" lon="5.38641">
        <ele>550.40002441406</ele>
        <time>2016-02-28T07:28:49Z</time>
      </trkpt>
      <trkpt lat="46.42205" lon="5.3863">
        <ele>551.40002441406</ele>
        <time>2016-02-28T07:28:52Z</time>
      </trkpt>
      <trkpt lat="46.42205" lon="5.38627">
        <ele>551.59997558594</ele>
        <time>2016-02-28T07:28:53Z</time>
      </trkpt>
      <trkpt lat="46.42203" lon="5.38611">
        <ele>552.59997558594</ele>
        <time>2016-02-28T07:28:58Z</time>
      </trkpt>
      <trkpt lat="46.42203" lon="5.38608">
        <ele>552.80004882812</ele>
        <time>2016-02-28T07:28:59Z</time>
      </trkpt>
      <trkpt lat="46.42201" lon="5.38593">
        <ele>553.19995117188</ele>
        <time>2016-02-28T07:29:04Z</time>
      </trkpt>
      <trkpt lat="46.422" lon="5.38587">
        <ele>553.80004882812</ele>
        <time>2016-02-28T07:29:06Z</time>
      </trkpt>
      <trkpt lat="46.42198" lon="5.38572">
        <ele>554.40002441406</ele>
        <time>2016-02-28T07:29:11Z</time>
      </trkpt>
      <trkpt lat="46.42195" lon="5.38558">
        <ele>554.40002441406</ele>
        <time>2016-02-28T07:29:16Z</time>
      </trkpt>
      <trkpt lat="46.42194" lon="5.38546">
        <ele>555</ele>
        <time>2016-02-28T07:29:20Z</time>
      </trkpt>
      <trkpt lat="46.42193" lon="5.38534">
        <ele>554.59997558594</ele>
        <time>2016-02-28T07:29:24Z</time>
      </trkpt>
      <trkpt lat="46.42192" lon="5.38521">
        <ele>555.40002441406</ele>
        <time>2016-02-28T07:29:28Z</time>
      </trkpt>
      <trkpt lat="46.4219" lon="5.38504">
        <ele>556</ele>
        <time>2016-02-28T07:29:34Z</time>
      </trkpt>
      <trkpt lat="46.4219" lon="5.38501">
        <ele>556.19995117188</ele>
        <time>2016-02-28T07:29:35Z</time>
      </trkpt>
      <trkpt lat="46.42189" lon="5.38491">
        <ele>557.40002441406</ele>
        <time>2016-02-28T07:29:39Z</time>
      </trkpt>
      <trkpt lat="46.42187" lon="5.3848">
        <ele>558.40002441406</ele>
        <time>2016-02-28T07:29:43Z</time>
      </trkpt>
      <trkpt lat="46.42187" lon="5.38477">
        <ele>558.40002441406</ele>
        <time>2016-02-28T07:29:44Z</time>
      </trkpt>
      <trkpt lat="46.42186" lon="5.38466">
        <ele>559.59997558594</ele>
        <time>2016-02-28T07:29:49Z</time>
      </trkpt>
      <trkpt lat="46.42185" lon="5.38459">
        <ele>560.40002441406</ele>
        <time>2016-02-28T07:29:51Z</time>
      </trkpt>
      <trkpt lat="46.42183" lon="5.38455">
        <ele>560.80004882812</ele>
        <time>2016-02-28T07:29:53Z</time>
      </trkpt>
      <trkpt lat="46.42181" lon="5.38446">
        <ele>561.40002441406</ele>
        <time>2016-02-28T07:29:56Z</time>
      </trkpt>
      <trkpt lat="46.42182" lon="5.38439">
        <ele>561.40002441406</ele>
        <time>2016-02-28T07:30:00Z</time>
      </trkpt>
      <trkpt lat="46.42182" lon="5.38437">
        <ele>561.40002441406</ele>
        <time>2016-02-28T07:30:01Z</time>
      </trkpt>
      <trkpt lat="46.42182" lon="5.38429">
        <ele>562.19995117188</ele>
        <time>2016-02-28T07:30:04Z</time>
      </trkpt>
      <trkpt lat="46.42182" lon="5.38427">
        <ele>562.40002441406</ele>
        <time>2016-02-28T07:30:05Z</time>
      </trkpt>
      <trkpt lat="46.42182" lon="5.38424">
        <ele>562.80004882812</ele>
        <time>2016-02-28T07:30:06Z</time>
      </trkpt>
      <trkpt lat="46.42182" lon="5.38421">
        <ele>563.19995117188</ele>
        <time>2016-02-28T07:30:07Z</time>
      </trkpt>
      <trkpt lat="46.42184" lon="5.38415">
        <ele>564.59997558594</ele>
        <time>2016-02-28T07:30:10Z</time>
      </trkpt>
      <trkpt lat="46.42185" lon="5.3841">
        <ele>565.59997558594</ele>
        <time>2016-02-28T07:30:12Z</time>
      </trkpt>
      <trkpt lat="46.42187" lon="5.38402">
        <ele>566.80004882812</ele>
        <time>2016-02-28T07:30:15Z</time>
      </trkpt>
      <trkpt lat="46.42188" lon="5.38399">
        <ele>567.59997558594</ele>
        <time>2016-02-28T07:30:17Z</time>
      </trkpt>
      <trkpt lat="46.42188" lon="5.38397">
        <ele>568</ele>
        <time>2016-02-28T07:30:18Z</time>
      </trkpt>
      <trkpt lat="46.42188" lon="5.38394">
        <ele>568.19995117188</ele>
        <time>2016-02-28T07:30:19Z</time>
      </trkpt>
      <trkpt lat="46.42188" lon="5.38389">
        <ele>569</ele>
        <time>2016-02-28T07:30:21Z</time>
      </trkpt>
      <trkpt lat="46.42187" lon="5.38385">
        <ele>569.80004882812</ele>
        <time>2016-02-28T07:30:23Z</time>
      </trkpt>
      <trkpt lat="46.42187" lon="5.38383">
        <ele>570.40002441406</ele>
        <time>2016-02-28T07:30:24Z</time>
      </trkpt>
      <trkpt lat="46.42184" lon="5.38376">
        <ele>571.19995117188</ele>
        <time>2016-02-28T07:30:27Z</time>
      </trkpt>
      <trkpt lat="46.42182" lon="5.38369">
        <ele>572.40002441406</ele>
        <time>2016-02-28T07:30:31Z</time>
      </trkpt>
      <trkpt lat="46.42181" lon="5.38367">
        <ele>572.80004882812</ele>
        <time>2016-02-28T07:30:32Z</time>
      </trkpt>
      <trkpt lat="46.4218" lon="5.38361">
        <ele>573.80004882812</ele>
        <time>2016-02-28T07:30:35Z</time>
      </trkpt>
      <trkpt lat="46.4218" lon="5.38358">
        <ele>574.40002441406</ele>
        <time>2016-02-28T07:30:36Z</time>
      </trkpt>
      <trkpt lat="46.42179" lon="5.38355">
        <ele>575</ele>
        <time>2016-02-28T07:30:37Z</time>
      </trkpt>
      <trkpt lat="46.42177" lon="5.3835">
        <ele>576.40002441406</ele>
        <time>2016-02-28T07:30:40Z</time>
      </trkpt>
      <trkpt lat="46.42175" lon="5.38346">
        <ele>577.40002441406</ele>
        <time>2016-02-28T07:30:42Z</time>
      </trkpt>
      <trkpt lat="46.4217" lon="5.38333">
        <ele>580.80004882812</ele>
        <time>2016-02-28T07:30:55Z</time>
      </trkpt>
      <trkpt lat="46.42168" lon="5.38327">
        <ele>582.19995117188</ele>
        <time>2016-02-28T07:31:02Z</time>
      </trkpt>
      <trkpt lat="46.42165" lon="5.38319">
        <ele>583</ele>
        <time>2016-02-28T07:31:05Z</time>
      </trkpt>
      <trkpt lat="46.42164" lon="5.38317">
        <ele>583.40002441406</ele>
        <time>2016-02-28T07:31:06Z</time>
      </trkpt>
      <trkpt lat="46.42157" lon="5.3831">
        <ele>582.59997558594</ele>
        <time>2016-02-28T07:31:10Z</time>
      </trkpt>
      <trkpt lat="46.42153" lon="5.38306">
        <ele>582.19995117188</ele>
        <time>2016-02-28T07:31:13Z</time>
      </trkpt>
      <trkpt lat="46.42149" lon="5.38298">
        <ele>582.19995117188</ele>
        <time>2016-02-28T07:31:16Z</time>
      </trkpt>
      <trkpt lat="46.42144" lon="5.38278">
        <ele>583</ele>
        <time>2016-02-28T07:31:22Z</time>
      </trkpt>
      <trkpt lat="46.42143" lon="5.38266">
        <ele>583.40002441406</ele>
        <time>2016-02-28T07:31:26Z</time>
      </trkpt>
      <trkpt lat="46.42143" lon="5.38261">
        <ele>583.80004882812</ele>
        <time>2016-02-28T07:31:29Z</time>
      </trkpt>
      <trkpt lat="46.42145" lon="5.38246">
        <ele>584.40002441406</ele>
        <time>2016-02-28T07:31:35Z</time>
      </trkpt>
      <trkpt lat="46.42146" lon="5.38243">
        <ele>584.59997558594</ele>
        <time>2016-02-28T07:31:36Z</time>
      </trkpt>
      <trkpt lat="46.42148" lon="5.38225">
        <ele>585.40002441406</ele>
        <time>2016-02-28T07:31:43Z</time>
      </trkpt>
      <trkpt lat="46.42149" lon="5.38222">
        <ele>585.59997558594</ele>
        <time>2016-02-28T07:31:44Z</time>
      </trkpt>
      <trkpt lat="46.42153" lon="5.38209">
        <ele>585.80004882812</ele>
        <time>2016-02-28T07:31:49Z</time>
      </trkpt>
      <trkpt lat="46.42157" lon="5.38198">
        <ele>586.80004882812</ele>
        <time>2016-02-28T07:31:54Z</time>
      </trkpt>
      <trkpt lat="46.42159" lon="5.38192">
        <ele>587.19995117188</ele>
        <time>2016-02-28T07:31:57Z</time>
      </trkpt>
      <trkpt lat="46.42161" lon="5.38183">
        <ele>588</ele>
        <time>2016-02-28T07:32:01Z</time>
      </trkpt>
      <trkpt lat="46.42163" lon="5.38171">
        <ele>589</ele>
        <time>2016-02-28T07:32:05Z</time>
      </trkpt>
      <trkpt lat="46.42164" lon="5.38168">
        <ele>589.19995117188</ele>
        <time>2016-02-28T07:32:07Z</time>
      </trkpt>
      <trkpt lat="46.42165" lon="5.3816">
        <ele>589.59997558594</ele>
        <time>2016-02-28T07:32:11Z</time>
      </trkpt>
      <trkpt lat="46.42165" lon="5.3815">
        <ele>590.40002441406</ele>
        <time>2016-02-28T07:32:15Z</time>
      </trkpt>
      <trkpt lat="46.42165" lon="5.38139">
        <ele>590.80004882812</ele>
        <time>2016-02-28T07:32:19Z</time>
      </trkpt>
      <trkpt lat="46.42145" lon="5.38106">
        <ele>598</ele>
        <time>2016-02-28T07:32:53Z</time>
      </trkpt>
      <trkpt lat="46.42144" lon="5.38104">
        <ele>598.19995117188</ele>
        <time>2016-02-28T07:32:54Z</time>
      </trkpt>
      <trkpt lat="46.42125" lon="5.38084">
        <ele>609.59997558594</ele>
        <time>2016-02-28T07:33:16Z</time>
      </trkpt>
      <trkpt lat="46.42121" lon="5.38083">
        <ele>611</ele>
        <time>2016-02-28T07:33:18Z</time>
      </trkpt>
      <trkpt lat="46.42118" lon="5.38081">
        <ele>612.59997558594</ele>
        <time>2016-02-28T07:33:20Z</time>
      </trkpt>
      <trkpt lat="46.42114" lon="5.3808">
        <ele>614</ele>
        <time>2016-02-28T07:33:22Z</time>
      </trkpt>
      <trkpt lat="46.42112" lon="5.38079">
        <ele>615.19995117188</ele>
        <time>2016-02-28T07:33:23Z</time>
      </trkpt>
      <trkpt lat="46.4211" lon="5.38079">
        <ele>616.19995117188</ele>
        <time>2016-02-28T07:33:24Z</time>
      </trkpt>
      <trkpt lat="46.42109" lon="5.38078">
        <ele>617.19995117188</ele>
        <time>2016-02-28T07:33:25Z</time>
      </trkpt>
      <trkpt lat="46.42107" lon="5.38078">
        <ele>618.19995117188</ele>
        <time>2016-02-28T07:33:26Z</time>
      </trkpt>
      <trkpt lat="46.42105" lon="5.38079">
        <ele>620.19995117188</ele>
        <time>2016-02-28T07:33:28Z</time>
      </trkpt>
      <trkpt lat="46.42102" lon="5.38079">
        <ele>622</ele>
        <time>2016-02-28T07:33:30Z</time>
      </trkpt>
      <trkpt lat="46.4208" lon="5.38074">
        <ele>624.19995117188</ele>
        <time>2016-02-28T07:33:42Z</time>
      </trkpt>
      <trkpt lat="46.42062" lon="5.38071">
        <ele>623.19995117188</ele>
        <time>2016-02-28T07:33:49Z</time>
      </trkpt>
      <trkpt lat="46.42059" lon="5.38072">
        <ele>623.19995117188</ele>
        <time>2016-02-28T07:33:50Z</time>
      </trkpt>
      <trkpt lat="46.42045" lon="5.38064">
        <ele>622.80004882812</ele>
        <time>2016-02-28T07:33:57Z</time>
      </trkpt>
      <trkpt lat="46.42031" lon="5.38057">
        <ele>623.59997558594</ele>
        <time>2016-02-28T07:34:05Z</time>
      </trkpt>
      <trkpt lat="46.42019" lon="5.38055">
        <ele>623.40002441406</ele>
        <time>2016-02-28T07:34:11Z</time>
      </trkpt>
      <trkpt lat="46.42004" lon="5.3805">
        <ele>621.40002441406</ele>
        <time>2016-02-28T07:34:20Z</time>
      </trkpt>
      <trkpt lat="46.42002" lon="5.38047">
        <ele>621.59997558594</ele>
        <time>2016-02-28T07:34:22Z</time>
      </trkpt>
      <trkpt lat="46.42" lon="5.38045">
        <ele>621.59997558594</ele>
        <time>2016-02-28T07:34:24Z</time>
      </trkpt>
      <trkpt lat="46.41997" lon="5.38042">
        <ele>622.59997558594</ele>
        <time>2016-02-28T07:34:26Z</time>
      </trkpt>
      <trkpt lat="46.41997" lon="5.38041">
        <ele>623</ele>
        <time>2016-02-28T07:34:27Z</time>
      </trkpt>
      <trkpt lat="46.41995" lon="5.38035">
        <ele>623.80004882812</ele>
        <time>2016-02-28T07:34:29Z</time>
      </trkpt>
      <trkpt lat="46.41994" lon="5.38025">
        <ele>624.40002441406</ele>
        <time>2016-02-28T07:34:32Z</time>
      </trkpt>
      <trkpt lat="46.41994" lon="5.38023">
        <ele>624.80004882812</ele>
        <time>2016-02-28T07:34:33Z</time>
      </trkpt>
      <trkpt lat="46.41993" lon="5.38015">
        <ele>626</ele>
        <time>2016-02-28T07:34:36Z</time>
      </trkpt>
      <trkpt lat="46.41992" lon="5.38011">
        <ele>626.19995117188</ele>
        <time>2016-02-28T07:34:38Z</time>
      </trkpt>
      <trkpt lat="46.41989" lon="5.38005">
        <ele>627.40002441406</ele>
        <time>2016-02-28T07:34:41Z</time>
      </trkpt>
      <trkpt lat="46.41981" lon="5.37995">
        <ele>630.80004882812</ele>
        <time>2016-02-28T07:34:47Z</time>
      </trkpt>
      <trkpt lat="46.4198" lon="5.3799">
        <ele>632.59997558594</ele>
        <time>2016-02-28T07:34:49Z</time>
      </trkpt>
      <trkpt lat="46.4198" lon="5.37988">
        <ele>633.59997558594</ele>
        <time>2016-02-28T07:34:50Z</time>
      </trkpt>
      <trkpt lat="46.41979" lon="5.37986">
        <ele>634.80004882812</ele>
        <time>2016-02-28T07:34:51Z</time>
      </trkpt>
      <trkpt lat="46.41979" lon="5.37984">
        <ele>636</ele>
        <time>2016-02-28T07:34:52Z</time>
      </trkpt>
      <trkpt lat="46.41979" lon="5.37975">
        <ele>636.40002441406</ele>
        <time>2016-02-28T07:34:54Z</time>
      </trkpt>
      <trkpt lat="46.4198" lon="5.3796">
        <ele>637.19995117188</ele>
        <time>2016-02-28T07:34:58Z</time>
      </trkpt>
      <trkpt lat="46.41981" lon="5.37952">
        <ele>637.80004882812</ele>
        <time>2016-02-28T07:35:01Z</time>
      </trkpt>
      <trkpt lat="46.4198" lon="5.37946">
        <ele>638.19995117188</ele>
        <time>2016-02-28T07:35:03Z</time>
      </trkpt>
      <trkpt lat="46.4198" lon="5.37936">
        <ele>639.40002441406</ele>
        <time>2016-02-28T07:35:07Z</time>
      </trkpt>
      <trkpt lat="46.41981" lon="5.37933">
        <ele>639.80004882812</ele>
        <time>2016-02-28T07:35:08Z</time>
      </trkpt>
      <trkpt lat="46.41982" lon="5.37927">
        <ele>640.59997558594</ele>
        <time>2016-02-28T07:35:10Z</time>
      </trkpt>
      <trkpt lat="46.41984" lon="5.3792">
        <ele>641.40002441406</ele>
        <time>2016-02-28T07:35:13Z</time>
      </trkpt>
      <trkpt lat="46.41991" lon="5.37895">
        <ele>640.59997558594</ele>
        <time>2016-02-28T07:35:20Z</time>
      </trkpt>
      <trkpt lat="46.41998" lon="5.37887">
        <ele>639.59997558594</ele>
        <time>2016-02-28T07:35:26Z</time>
      </trkpt>
      <trkpt lat="46.42002" lon="5.37887">
        <ele>637.40002441406</ele>
        <time>2016-02-28T07:35:28Z</time>
      </trkpt>
      <trkpt lat="46.42005" lon="5.37888">
        <ele>635.59997558594</ele>
        <time>2016-02-28T07:35:29Z</time>
      </trkpt>
      <trkpt lat="46.42007" lon="5.37888">
        <ele>633.40002441406</ele>
        <time>2016-02-28T07:35:31Z</time>
      </trkpt>
      <trkpt lat="46.42008" lon="5.37888">
        <ele>631.80004882812</ele>
        <time>2016-02-28T07:35:32Z</time>
      </trkpt>
      <trkpt lat="46.4201" lon="5.37884">
        <ele>629.80004882812</ele>
        <time>2016-02-28T07:35:34Z</time>
      </trkpt>
      <trkpt lat="46.42012" lon="5.37882">
        <ele>628.59997558594</ele>
        <time>2016-02-28T07:35:35Z</time>
      </trkpt>
      <trkpt lat="46.42015" lon="5.37876">
        <ele>626.80004882812</ele>
        <time>2016-02-28T07:35:37Z</time>
      </trkpt>
      <trkpt lat="46.42016" lon="5.37871">
        <ele>625.19995117188</ele>
        <time>2016-02-28T07:35:39Z</time>
      </trkpt>
      <trkpt lat="46.42017" lon="5.37866">
        <ele>624</ele>
        <time>2016-02-28T07:35:41Z</time>
      </trkpt>
      <trkpt lat="46.42018" lon="5.37861">
        <ele>622.80004882812</ele>
        <time>2016-02-28T07:35:43Z</time>
      </trkpt>
      <trkpt lat="46.42019" lon="5.37855">
        <ele>621.80004882812</ele>
        <time>2016-02-28T07:35:45Z</time>
      </trkpt>
      <trkpt lat="46.4202" lon="5.37854">
        <ele>621.40002441406</ele>
        <time>2016-02-28T07:35:46Z</time>
      </trkpt>
      <trkpt lat="46.42021" lon="5.37851">
        <ele>620.59997558594</ele>
        <time>2016-02-28T07:35:48Z</time>
      </trkpt>
      <trkpt lat="46.42022" lon="5.37833">
        <ele>619.40002441406</ele>
        <time>2016-02-28T07:35:55Z</time>
      </trkpt>
      <trkpt lat="46.42026" lon="5.37819">
        <ele>618.40002441406</ele>
        <time>2016-02-28T07:36:00Z</time>
      </trkpt>
      <trkpt lat="46.42028" lon="5.37814">
        <ele>618</ele>
        <time>2016-02-28T07:36:02Z</time>
      </trkpt>
      <trkpt lat="46.42034" lon="5.37801">
        <ele>617</ele>
        <time>2016-02-28T07:36:06Z</time>
      </trkpt>
      <trkpt lat="46.42036" lon="5.37796">
        <ele>616.80004882812</ele>
        <time>2016-02-28T07:36:08Z</time>
      </trkpt>
      <trkpt lat="46.42039" lon="5.37787">
        <ele>616</ele>
        <time>2016-02-28T07:36:11Z</time>
      </trkpt>
      <trkpt lat="46.42043" lon="5.3778">
        <ele>615.40002441406</ele>
        <time>2016-02-28T07:36:15Z</time>
      </trkpt>
      <trkpt lat="46.42048" lon="5.37768">
        <ele>614.59997558594</ele>
        <time>2016-02-28T07:36:18Z</time>
      </trkpt>
      <trkpt lat="46.42052" lon="5.37759">
        <ele>613.80004882812</ele>
        <time>2016-02-28T07:36:21Z</time>
      </trkpt>
      <trkpt lat="46.42054" lon="5.3775">
        <ele>613.19995117188</ele>
        <time>2016-02-28T07:36:24Z</time>
      </trkpt>
      <trkpt lat="46.42057" lon="5.37737">
        <ele>612.80004882812</ele>
        <time>2016-02-28T07:36:28Z</time>
      </trkpt>
      <trkpt lat="46.42061" lon="5.37727">
        <ele>612.19995117188</ele>
        <time>2016-02-28T07:36:31Z</time>
      </trkpt>
      <trkpt lat="46.42068" lon="5.37714">
        <ele>610.80004882812</ele>
        <time>2016-02-28T07:36:34Z</time>
      </trkpt>
      <trkpt lat="46.42074" lon="5.37696">
        <ele>609.40002441406</ele>
        <time>2016-02-28T07:36:40Z</time>
      </trkpt>
      <trkpt lat="46.42077" lon="5.37688">
        <ele>608.80004882812</ele>
        <time>2016-02-28T07:36:42Z</time>
      </trkpt>
      <trkpt lat="46.4208" lon="5.37681">
        <ele>608.19995117188</ele>
        <time>2016-02-28T07:36:44Z</time>
      </trkpt>
      <trkpt lat="46.42091" lon="5.37669">
        <ele>607.19995117188</ele>
        <time>2016-02-28T07:36:48Z</time>
      </trkpt>
      <trkpt lat="46.42094" lon="5.37666">
        <ele>607</ele>
        <time>2016-02-28T07:36:49Z</time>
      </trkpt>
      <trkpt lat="46.42103" lon="5.37647">
        <ele>605.80004882812</ele>
        <time>2016-02-28T07:36:55Z</time>
      </trkpt>
      <trkpt lat="46.42108" lon="5.37636">
        <ele>604.40002441406</ele>
        <time>2016-02-28T07:36:58Z</time>
      </trkpt>
      <trkpt lat="46.42114" lon="5.37635">
        <ele>603</ele>
        <time>2016-02-28T07:37:00Z</time>
      </trkpt>
      <trkpt lat="46.42118" lon="5.3763">
        <ele>602.59997558594</ele>
        <time>2016-02-28T07:37:02Z</time>
      </trkpt>
      <trkpt lat="46.4212" lon="5.37625">
        <ele>601.80004882812</ele>
        <time>2016-02-28T07:37:04Z</time>
      </trkpt>
      <trkpt lat="46.42124" lon="5.37617">
        <ele>600.40002441406</ele>
        <time>2016-02-28T07:37:07Z</time>
      </trkpt>
      <trkpt lat="46.42125" lon="5.37614">
        <ele>600</ele>
        <time>2016-02-28T07:37:08Z</time>
      </trkpt>
      <trkpt lat="46.42126" lon="5.37607">
        <ele>599.19995117188</ele>
        <time>2016-02-28T07:37:10Z</time>
      </trkpt>
      <trkpt lat="46.42128" lon="5.37596">
        <ele>597.80004882812</ele>
        <time>2016-02-28T07:37:14Z</time>
      </trkpt>
      <trkpt lat="46.42128" lon="5.37593">
        <ele>597.19995117188</ele>
        <time>2016-02-28T07:37:15Z</time>
      </trkpt>
      <trkpt lat="46.42129" lon="5.37588">
        <ele>596.40002441406</ele>
        <time>2016-02-28T07:37:17Z</time>
      </trkpt>
      <trkpt lat="46.42128" lon="5.37574">
        <ele>595.19995117188</ele>
        <time>2016-02-28T07:37:21Z</time>
      </trkpt>
      <trkpt lat="46.42126" lon="5.37561">
        <ele>594</ele>
        <time>2016-02-28T07:37:26Z</time>
      </trkpt>
      <trkpt lat="46.42125" lon="5.37559">
        <ele>593.59997558594</ele>
        <time>2016-02-28T07:37:27Z</time>
      </trkpt>
      <trkpt lat="46.4212" lon="5.37542">
        <ele>593.19995117188</ele>
        <time>2016-02-28T07:37:33Z</time>
      </trkpt>
      <trkpt lat="46.42115" lon="5.3753">
        <ele>593</ele>
        <time>2016-02-28T07:37:37Z</time>
      </trkpt>
      <trkpt lat="46.42114" lon="5.37527">
        <ele>592.80004882812</ele>
        <time>2016-02-28T07:37:38Z</time>
      </trkpt>
      <trkpt lat="46.421" lon="5.37504">
        <ele>590.59997558594</ele>
        <time>2016-02-28T07:37:59Z</time>
      </trkpt>
      <trkpt lat="46.42096" lon="5.37495">
        <ele>590</ele>
        <time>2016-02-28T07:38:02Z</time>
      </trkpt>
      <trkpt lat="46.42089" lon="5.37478">
        <ele>590.40002441406</ele>
        <time>2016-02-28T07:38:07Z</time>
      </trkpt>
      <trkpt lat="46.42086" lon="5.37461">
        <ele>591.40002441406</ele>
        <time>2016-02-28T07:38:12Z</time>
      </trkpt>
      <trkpt lat="46.42085" lon="5.37458">
        <ele>591.80004882812</ele>
        <time>2016-02-28T07:38:13Z</time>
      </trkpt>
      <trkpt lat="46.42083" lon="5.37449">
        <ele>593</ele>
        <time>2016-02-28T07:38:16Z</time>
      </trkpt>
      <trkpt lat="46.42082" lon="5.3744">
        <ele>594.40002441406</ele>
        <time>2016-02-28T07:38:19Z</time>
      </trkpt>
      <trkpt lat="46.42081" lon="5.37435">
        <ele>595.59997558594</ele>
        <time>2016-02-28T07:38:21Z</time>
      </trkpt>
      <trkpt lat="46.42079" lon="5.37431">
        <ele>596.59997558594</ele>
        <time>2016-02-28T07:38:23Z</time>
      </trkpt>
      <trkpt lat="46.42078" lon="5.3743">
        <ele>597</ele>
        <time>2016-02-28T07:38:24Z</time>
      </trkpt>
      <trkpt lat="46.42076" lon="5.37426">
        <ele>598</ele>
        <time>2016-02-28T07:38:26Z</time>
      </trkpt>
      <trkpt lat="46.42073" lon="5.37424">
        <ele>599.59997558594</ele>
        <time>2016-02-28T07:38:28Z</time>
      </trkpt>
      <trkpt lat="46.4207" lon="5.37422">
        <ele>600.80004882812</ele>
        <time>2016-02-28T07:38:30Z</time>
      </trkpt>
      <trkpt lat="46.42068" lon="5.37421">
        <ele>601.80004882812</ele>
        <time>2016-02-28T07:38:31Z</time>
      </trkpt>
      <trkpt lat="46.42066" lon="5.3742">
        <ele>602.59997558594</ele>
        <time>2016-02-28T07:38:32Z</time>
      </trkpt>
      <trkpt lat="46.42062" lon="5.37418">
        <ele>604</ele>
        <time>2016-02-28T07:38:34Z</time>
      </trkpt>
      <trkpt lat="46.4206" lon="5.37417">
        <ele>604.59997558594</ele>
        <time>2016-02-28T07:38:35Z</time>
      </trkpt>
      <trkpt lat="46.42058" lon="5.37416">
        <ele>604.80004882812</ele>
        <time>2016-02-28T07:38:36Z</time>
      </trkpt>
      <trkpt lat="46.42056" lon="5.37416">
        <ele>604.80004882812</ele>
        <time>2016-02-28T07:38:37Z</time>
      </trkpt>
      <trkpt lat="46.42043" lon="5.37414">
        <ele>605</ele>
        <time>2016-02-28T07:38:41Z</time>
      </trkpt>
      <trkpt lat="46.42034" lon="5.37411">
        <ele>605.80004882812</ele>
        <time>2016-02-28T07:38:44Z</time>
      </trkpt>
      <trkpt lat="46.4203" lon="5.3741">
        <ele>606.19995117188</ele>
        <time>2016-02-28T07:38:46Z</time>
      </trkpt>
      <trkpt lat="46.42018" lon="5.37408">
        <ele>607.40002441406</ele>
        <time>2016-02-28T07:38:51Z</time>
      </trkpt>
      <trkpt lat="46.42006" lon="5.37404">
        <ele>608.59997558594</ele>
        <time>2016-02-28T07:38:56Z</time>
      </trkpt>
      <trkpt lat="46.42002" lon="5.37403">
        <ele>609.59997558594</ele>
        <time>2016-02-28T07:38:58Z</time>
      </trkpt>
      <trkpt lat="46.42" lon="5.37402">
        <ele>610.19995117188</ele>
        <time>2016-02-28T07:38:59Z</time>
      </trkpt>
      <trkpt lat="46.41997" lon="5.37402">
        <ele>611.40002441406</ele>
        <time>2016-02-28T07:39:01Z</time>
      </trkpt>
      <trkpt lat="46.41975" lon="5.37378">
        <ele>623.40002441406</ele>
        <time>2016-02-28T07:39:17Z</time>
      </trkpt>
      <trkpt lat="46.41973" lon="5.37377">
        <ele>624.59997558594</ele>
        <time>2016-02-28T07:39:18Z</time>
      </trkpt>
      <trkpt lat="46.41971" lon="5.37377">
        <ele>626</ele>
        <time>2016-02-28T07:39:19Z</time>
      </trkpt>
      <trkpt lat="46.41967" lon="5.37371">
        <ele>627.40002441406</ele>
        <time>2016-02-28T07:39:21Z</time>
      </trkpt>
      <trkpt lat="46.41961" lon="5.37366">
        <ele>628.40002441406</ele>
        <time>2016-02-28T07:39:23Z</time>
      </trkpt>
      <trkpt lat="46.41958" lon="5.37365">
        <ele>629.59997558594</ele>
        <time>2016-02-28T07:39:24Z</time>
      </trkpt>
      <trkpt lat="46.41954" lon="5.37363">
        <ele>630.59997558594</ele>
        <time>2016-02-28T07:39:25Z</time>
      </trkpt>
      <trkpt lat="46.41951" lon="5.3736">
        <ele>631.40002441406</ele>
        <time>2016-02-28T07:39:26Z</time>
      </trkpt>
      <trkpt lat="46.41948" lon="5.37358">
        <ele>632</ele>
        <time>2016-02-28T07:39:27Z</time>
      </trkpt>
      <trkpt lat="46.41943" lon="5.37354">
        <ele>634.59997558594</ele>
        <time>2016-02-28T07:39:29Z</time>
      </trkpt>
      <trkpt lat="46.41942" lon="5.37352">
        <ele>636.40002441406</ele>
        <time>2016-02-28T07:39:30Z</time>
      </trkpt>
      <trkpt lat="46.41941" lon="5.37349">
        <ele>638.19995117188</ele>
        <time>2016-02-28T07:39:31Z</time>
      </trkpt>
      <trkpt lat="46.4194" lon="5.37347">
        <ele>640.19995117188</ele>
        <time>2016-02-28T07:39:32Z</time>
      </trkpt>
      <trkpt lat="46.4194" lon="5.37345">
        <ele>642</ele>
        <time>2016-02-28T07:39:33Z</time>
      </trkpt>
      <trkpt lat="46.41939" lon="5.37344">
        <ele>644</ele>
        <time>2016-02-28T07:39:34Z</time>
      </trkpt>
      <trkpt lat="46.41939" lon="5.37342">
        <ele>645.80004882812</ele>
        <time>2016-02-28T07:39:35Z</time>
      </trkpt>
      <trkpt lat="46.41938" lon="5.3734">
        <ele>647.80004882812</ele>
        <time>2016-02-28T07:39:36Z</time>
      </trkpt>
      <trkpt lat="46.41938" lon="5.37337">
        <ele>649.80004882812</ele>
        <time>2016-02-28T07:39:37Z</time>
      </trkpt>
      <trkpt lat="46.41934" lon="5.37325">
        <ele>651.19995117188</ele>
        <time>2016-02-28T07:39:40Z</time>
      </trkpt>
      <trkpt lat="46.41935" lon="5.37313">
        <ele>651.80004882812</ele>
        <time>2016-02-28T07:39:43Z</time>
      </trkpt>
      <trkpt lat="46.41934" lon="5.37309">
        <ele>651</ele>
        <time>2016-02-28T07:39:44Z</time>
      </trkpt>
      <trkpt lat="46.41932" lon="5.37293">
        <ele>650.19995117188</ele>
        <time>2016-02-28T07:39:49Z</time>
      </trkpt>
      <trkpt lat="46.41924" lon="5.37289">
        <ele>648.59997558594</ele>
        <time>2016-02-28T07:39:51Z</time>
      </trkpt>
      <trkpt lat="46.41921" lon="5.37287">
        <ele>647.80004882812</ele>
        <time>2016-02-28T07:39:52Z</time>
      </trkpt>
      <trkpt lat="46.41917" lon="5.37285">
        <ele>647</ele>
        <time>2016-02-28T07:39:53Z</time>
      </trkpt>
      <trkpt lat="46.41908" lon="5.37278">
        <ele>645</ele>
        <time>2016-02-28T07:39:56Z</time>
      </trkpt>
      <trkpt lat="46.41899" lon="5.37274">
        <ele>643.40002441406</ele>
        <time>2016-02-28T07:39:58Z</time>
      </trkpt>
      <trkpt lat="46.41896" lon="5.37272">
        <ele>642.40002441406</ele>
        <time>2016-02-28T07:39:59Z</time>
      </trkpt>
      <trkpt lat="46.41892" lon="5.37266">
        <ele>641.59997558594</ele>
        <time>2016-02-28T07:40:01Z</time>
      </trkpt>
      <trkpt lat="46.41887" lon="5.3726">
        <ele>640.40002441406</ele>
        <time>2016-02-28T07:40:03Z</time>
      </trkpt>
      <trkpt lat="46.4188" lon="5.37256">
        <ele>638.80004882812</ele>
        <time>2016-02-28T07:40:05Z</time>
      </trkpt>
      <trkpt lat="46.41872" lon="5.37252">
        <ele>637</ele>
        <time>2016-02-28T07:40:07Z</time>
      </trkpt>
      <trkpt lat="46.41865" lon="5.37246">
        <ele>635.19995117188</ele>
        <time>2016-02-28T07:40:09Z</time>
      </trkpt>
      <trkpt lat="46.41859" lon="5.37242">
        <ele>633.80004882812</ele>
        <time>2016-02-28T07:40:11Z</time>
      </trkpt>
      <trkpt lat="46.41854" lon="5.37237">
        <ele>632.40002441406</ele>
        <time>2016-02-28T07:40:13Z</time>
      </trkpt>
      <trkpt lat="46.4185" lon="5.37229">
        <ele>630.80004882812</ele>
        <time>2016-02-28T07:40:16Z</time>
      </trkpt>
      <trkpt lat="46.41846" lon="5.37223">
        <ele>629.19995117188</ele>
        <time>2016-02-28T07:40:18Z</time>
      </trkpt>
      <trkpt lat="46.41841" lon="5.37218">
        <ele>627.40002441406</ele>
        <time>2016-02-28T07:40:20Z</time>
      </trkpt>
      <trkpt lat="46.41835" lon="5.37213">
        <ele>625.80004882812</ele>
        <time>2016-02-28T07:40:22Z</time>
      </trkpt>
      <trkpt lat="46.41833" lon="5.37211">
        <ele>625</ele>
        <time>2016-02-28T07:40:23Z</time>
      </trkpt>
      <trkpt lat="46.4183" lon="5.37209">
        <ele>624.40002441406</ele>
        <time>2016-02-28T07:40:24Z</time>
      </trkpt>
      <trkpt lat="46.41825" lon="5.37204">
        <ele>622.80004882812</ele>
        <time>2016-02-28T07:40:26Z</time>
      </trkpt>
      <trkpt lat="46.4182" lon="5.372">
        <ele>621.19995117188</ele>
        <time>2016-02-28T07:40:28Z</time>
      </trkpt>
      <trkpt lat="46.41817" lon="5.37198">
        <ele>620.19995117188</ele>
        <time>2016-02-28T07:40:29Z</time>
      </trkpt>
      <trkpt lat="46.41814" lon="5.37197">
        <ele>619.40002441406</ele>
        <time>2016-02-28T07:40:30Z</time>
      </trkpt>
      <trkpt lat="46.41808" lon="5.37195">
        <ele>617.80004882812</ele>
        <time>2016-02-28T07:40:32Z</time>
      </trkpt>
      <trkpt lat="46.41802" lon="5.37194">
        <ele>616</ele>
        <time>2016-02-28T07:40:34Z</time>
      </trkpt>
      <trkpt lat="46.41799" lon="5.37192">
        <ele>614</ele>
        <time>2016-02-28T07:40:35Z</time>
      </trkpt>
      <trkpt lat="46.41794" lon="5.37191">
        <ele>611.80004882812</ele>
        <time>2016-02-28T07:40:37Z</time>
      </trkpt>
      <trkpt lat="46.41791" lon="5.3719">
        <ele>610.40002441406</ele>
        <time>2016-02-28T07:40:38Z</time>
      </trkpt>
      <trkpt lat="46.41788" lon="5.37187">
        <ele>608.59997558594</ele>
        <time>2016-02-28T07:40:40Z</time>
      </trkpt>
      <trkpt lat="46.41787" lon="5.37186">
        <ele>607.59997558594</ele>
        <time>2016-02-28T07:40:41Z</time>
      </trkpt>
      <trkpt lat="46.41785" lon="5.37184">
        <ele>607</ele>
        <time>2016-02-28T07:40:42Z</time>
      </trkpt>
      <trkpt lat="46.41781" lon="5.37183">
        <ele>605.19995117188</ele>
        <time>2016-02-28T07:40:44Z</time>
      </trkpt>
      <trkpt lat="46.41777" lon="5.37181">
        <ele>604.19995117188</ele>
        <time>2016-02-28T07:40:46Z</time>
      </trkpt>
      <trkpt lat="46.41774" lon="5.37179">
        <ele>603.19995117188</ele>
        <time>2016-02-28T07:40:48Z</time>
      </trkpt>
      <trkpt lat="46.41771" lon="5.37178">
        <ele>602.59997558594</ele>
        <time>2016-02-28T07:40:49Z</time>
      </trkpt>
      <trkpt lat="46.41757" lon="5.37178">
        <ele>602.59997558594</ele>
        <time>2016-02-28T07:40:55Z</time>
      </trkpt>
      <trkpt lat="46.41754" lon="5.37178">
        <ele>603.59997558594</ele>
        <time>2016-02-28T07:40:57Z</time>
      </trkpt>
      <trkpt lat="46.41749" lon="5.37175">
        <ele>604.80004882812</ele>
        <time>2016-02-28T07:41:00Z</time>
      </trkpt>
      <trkpt lat="46.41745" lon="5.37174">
        <ele>605</ele>
        <time>2016-02-28T07:41:02Z</time>
      </trkpt>
      <trkpt lat="46.41728" lon="5.37166">
        <ele>604.40002441406</ele>
        <time>2016-02-28T07:41:10Z</time>
      </trkpt>
      <trkpt lat="46.41714" lon="5.3716">
        <ele>603.80004882812</ele>
        <time>2016-02-28T07:41:16Z</time>
      </trkpt>
      <trkpt lat="46.41711" lon="5.37157">
        <ele>603.40002441406</ele>
        <time>2016-02-28T07:41:18Z</time>
      </trkpt>
      <trkpt lat="46.41707" lon="5.37156">
        <ele>602.59997558594</ele>
        <time>2016-02-28T07:41:19Z</time>
      </trkpt>
      <trkpt lat="46.41699" lon="5.37154">
        <ele>600.80004882812</ele>
        <time>2016-02-28T07:41:21Z</time>
      </trkpt>
      <trkpt lat="46.4169" lon="5.37151">
        <ele>598</ele>
        <time>2016-02-28T07:41:23Z</time>
      </trkpt>
      <trkpt lat="46.41684" lon="5.3715">
        <ele>595.80004882812</ele>
        <time>2016-02-28T07:41:24Z</time>
      </trkpt>
      <trkpt lat="46.41679" lon="5.37148">
        <ele>593.80004882812</ele>
        <time>2016-02-28T07:41:25Z</time>
      </trkpt>
      <trkpt lat="46.41675" lon="5.37146">
        <ele>592.40002441406</ele>
        <time>2016-02-28T07:41:26Z</time>
      </trkpt>
      <trkpt lat="46.4167" lon="5.37145">
        <ele>590.59997558594</ele>
        <time>2016-02-28T07:41:27Z</time>
      </trkpt>
      <trkpt lat="46.41666" lon="5.37144">
        <ele>589</ele>
        <time>2016-02-28T07:41:28Z</time>
      </trkpt>
      <trkpt lat="46.41661" lon="5.37142">
        <ele>587.40002441406</ele>
        <time>2016-02-28T07:41:29Z</time>
      </trkpt>
      <trkpt lat="46.41658" lon="5.37142">
        <ele>586.19995117188</ele>
        <time>2016-02-28T07:41:30Z</time>
      </trkpt>
      <trkpt lat="46.41654" lon="5.37141">
        <ele>585.19995117188</ele>
        <time>2016-02-28T07:41:31Z</time>
      </trkpt>
      <trkpt lat="46.41651" lon="5.3714">
        <ele>584.19995117188</ele>
        <time>2016-02-28T07:41:32Z</time>
      </trkpt>
      <trkpt lat="46.41645" lon="5.37138">
        <ele>582.40002441406</ele>
        <time>2016-02-28T07:41:34Z</time>
      </trkpt>
      <trkpt lat="46.41643" lon="5.37136">
        <ele>581.59997558594</ele>
        <time>2016-02-28T07:41:35Z</time>
      </trkpt>
      <trkpt lat="46.4164" lon="5.37134">
        <ele>581</ele>
        <time>2016-02-28T07:41:36Z</time>
      </trkpt>
      <trkpt lat="46.41635" lon="5.37132">
        <ele>579.80004882812</ele>
        <time>2016-02-28T07:41:38Z</time>
      </trkpt>
      <trkpt lat="46.41631" lon="5.37128">
        <ele>578.40002441406</ele>
        <time>2016-02-28T07:41:40Z</time>
      </trkpt>
      <trkpt lat="46.41623" lon="5.37125">
        <ele>576.80004882812</ele>
        <time>2016-02-28T07:41:42Z</time>
      </trkpt>
      <trkpt lat="46.41616" lon="5.37122">
        <ele>575</ele>
        <time>2016-02-28T07:41:44Z</time>
      </trkpt>
      <trkpt lat="46.41613" lon="5.3712">
        <ele>573.59997558594</ele>
        <time>2016-02-28T07:41:45Z</time>
      </trkpt>
      <trkpt lat="46.41609" lon="5.37118">
        <ele>572.59997558594</ele>
        <time>2016-02-28T07:41:46Z</time>
      </trkpt>
      <trkpt lat="46.41604" lon="5.37117">
        <ele>570.59997558594</ele>
        <time>2016-02-28T07:41:47Z</time>
      </trkpt>
      <trkpt lat="46.41597" lon="5.37114">
        <ele>569</ele>
        <time>2016-02-28T07:41:49Z</time>
      </trkpt>
      <trkpt lat="46.4159" lon="5.37113">
        <ele>567.59997558594</ele>
        <time>2016-02-28T07:41:51Z</time>
      </trkpt>
      <trkpt lat="46.41584" lon="5.3711">
        <ele>566.19995117188</ele>
        <time>2016-02-28T07:41:53Z</time>
      </trkpt>
      <trkpt lat="46.4158" lon="5.37105">
        <ele>565</ele>
        <time>2016-02-28T07:41:55Z</time>
      </trkpt>
      <trkpt lat="46.41567" lon="5.37091">
        <ele>564.40002441406</ele>
        <time>2016-02-28T07:42:03Z</time>
      </trkpt>
      <trkpt lat="46.41557" lon="5.37078">
        <ele>564.59997558594</ele>
        <time>2016-02-28T07:42:10Z</time>
      </trkpt>
      <trkpt lat="46.41557" lon="5.37077">
        <ele>564.59997558594</ele>
        <time>2016-02-28T07:42:11Z</time>
      </trkpt>
      <trkpt lat="46.41555" lon="5.3707">
        <ele>564.80004882812</ele>
        <time>2016-02-28T07:42:17Z</time>
      </trkpt>
      <trkpt lat="46.41549" lon="5.37064">
        <ele>565.59997558594</ele>
        <time>2016-02-28T07:42:21Z</time>
      </trkpt>
      <trkpt lat="46.41548" lon="5.37063">
        <ele>566.19995117188</ele>
        <time>2016-02-28T07:42:22Z</time>
      </trkpt>
      <trkpt lat="46.41541" lon="5.37056">
        <ele>566.59997558594</ele>
        <time>2016-02-28T07:42:26Z</time>
      </trkpt>
      <trkpt lat="46.41531" lon="5.37049">
        <ele>565</ele>
        <time>2016-02-28T07:42:30Z</time>
      </trkpt>
      <trkpt lat="46.41526" lon="5.37047">
        <ele>564</ele>
        <time>2016-02-28T07:42:32Z</time>
      </trkpt>
      <trkpt lat="46.41516" lon="5.37045">
        <ele>563.40002441406</ele>
        <time>2016-02-28T07:42:37Z</time>
      </trkpt>
      <trkpt lat="46.41501" lon="5.37048">
        <ele>564.80004882812</ele>
        <time>2016-02-28T07:42:45Z</time>
      </trkpt>
      <trkpt lat="46.41499" lon="5.37048">
        <ele>565.19995117188</ele>
        <time>2016-02-28T07:42:46Z</time>
      </trkpt>
      <trkpt lat="46.41492" lon="5.37049">
        <ele>566.40002441406</ele>
        <time>2016-02-28T07:42:50Z</time>
      </trkpt>
      <trkpt lat="46.41488" lon="5.37051">
        <ele>567.19995117188</ele>
        <time>2016-02-28T07:42:52Z</time>
      </trkpt>
      <trkpt lat="46.41487" lon="5.37052">
        <ele>567.80004882812</ele>
        <time>2016-02-28T07:42:53Z</time>
      </trkpt>
      <trkpt lat="46.41483" lon="5.37054">
        <ele>569</ele>
        <time>2016-02-28T07:42:56Z</time>
      </trkpt>
      <trkpt lat="46.41478" lon="5.37057">
        <ele>570.19995117188</ele>
        <time>2016-02-28T07:42:59Z</time>
      </trkpt>
      <trkpt lat="46.41476" lon="5.37059">
        <ele>570.80004882812</ele>
        <time>2016-02-28T07:43:00Z</time>
      </trkpt>
      <trkpt lat="46.41472" lon="5.37061">
        <ele>571.59997558594</ele>
        <time>2016-02-28T07:43:02Z</time>
      </trkpt>
      <trkpt lat="46.41448" lon="5.3707">
        <ele>571.80004882812</ele>
        <time>2016-02-28T07:43:07Z</time>
      </trkpt>
      <trkpt lat="46.4143" lon="5.37075">
        <ele>572</ele>
        <time>2016-02-28T07:43:13Z</time>
      </trkpt>
      <trkpt lat="46.41415" lon="5.3708">
        <ele>572.80004882812</ele>
        <time>2016-02-28T07:43:19Z</time>
      </trkpt>
      <trkpt lat="46.41412" lon="5.37081">
        <ele>572.80004882812</ele>
        <time>2016-02-28T07:43:20Z</time>
      </trkpt>
      <trkpt lat="46.41407" lon="5.37083">
        <ele>574</ele>
        <time>2016-02-28T07:43:22Z</time>
      </trkpt>
      <trkpt lat="46.41401" lon="5.37088">
        <ele>575.19995117188</ele>
        <time>2016-02-28T07:43:25Z</time>
      </trkpt>
      <trkpt lat="46.41396" lon="5.37089">
        <ele>575.40002441406</ele>
        <time>2016-02-28T07:43:27Z</time>
      </trkpt>
      <trkpt lat="46.4138" lon="5.37092">
        <ele>576.59997558594</ele>
        <time>2016-02-28T07:43:34Z</time>
      </trkpt>
      <trkpt lat="46.41378" lon="5.37093">
        <ele>577.19995117188</ele>
        <time>2016-02-28T07:43:35Z</time>
      </trkpt>
      <trkpt lat="46.41375" lon="5.37094">
        <ele>577.80004882812</ele>
        <time>2016-02-28T07:43:36Z</time>
      </trkpt>
      <trkpt lat="46.41366" lon="5.37097">
        <ele>576.59997558594</ele>
        <time>2016-02-28T07:43:40Z</time>
      </trkpt>
      <trkpt lat="46.41358" lon="5.371">
        <ele>575.59997558594</ele>
        <time>2016-02-28T07:43:44Z</time>
      </trkpt>
      <trkpt lat="46.41357" lon="5.37101">
        <ele>575.19995117188</ele>
        <time>2016-02-28T07:43:45Z</time>
      </trkpt>
      <trkpt lat="46.41353" lon="5.37103">
        <ele>574.40002441406</ele>
        <time>2016-02-28T07:43:47Z</time>
      </trkpt>
      <trkpt lat="46.4135" lon="5.37105">
        <ele>573.40002441406</ele>
        <time>2016-02-28T07:43:50Z</time>
      </trkpt>
      <trkpt lat="46.41349" lon="5.37104">
        <ele>573</ele>
        <time>2016-02-28T07:43:51Z</time>
      </trkpt>
      <trkpt lat="46.41336" lon="5.37106">
        <ele>572</ele>
        <time>2016-02-28T07:43:59Z</time>
      </trkpt>
      <trkpt lat="46.41329" lon="5.37109">
        <ele>572.59997558594</ele>
        <time>2016-02-28T07:44:02Z</time>
      </trkpt>
      <trkpt lat="46.41322" lon="5.37112">
        <ele>573</ele>
        <time>2016-02-28T07:44:06Z</time>
      </trkpt>
      <trkpt lat="46.41318" lon="5.37114">
        <ele>573.40002441406</ele>
        <time>2016-02-28T07:44:08Z</time>
      </trkpt>
      <trkpt lat="46.41307" lon="5.37119">
        <ele>574</ele>
        <time>2016-02-28T07:44:12Z</time>
      </trkpt>
      <trkpt lat="46.41303" lon="5.3712">
        <ele>574.19995117188</ele>
        <time>2016-02-28T07:44:14Z</time>
      </trkpt>
      <trkpt lat="46.41296" lon="5.37124">
        <ele>575</ele>
        <time>2016-02-28T07:44:18Z</time>
      </trkpt>
      <trkpt lat="46.41289" lon="5.37126">
        <ele>576.59997558594</ele>
        <time>2016-02-28T07:44:21Z</time>
      </trkpt>
      <trkpt lat="46.41284" lon="5.37128">
        <ele>577.80004882812</ele>
        <time>2016-02-28T07:44:23Z</time>
      </trkpt>
      <trkpt lat="46.41264" lon="5.3713">
        <ele>587.40002441406</ele>
        <time>2016-02-28T07:44:34Z</time>
      </trkpt>
      <trkpt lat="46.41258" lon="5.37129">
        <ele>589.19995117188</ele>
        <time>2016-02-28T07:44:36Z</time>
      </trkpt>
      <trkpt lat="46.41255" lon="5.37129">
        <ele>590.19995117188</ele>
        <time>2016-02-28T07:44:37Z</time>
      </trkpt>
      <trkpt lat="46.41253" lon="5.37129">
        <ele>591.40002441406</ele>
        <time>2016-02-28T07:44:38Z</time>
      </trkpt>
      <trkpt lat="46.4125" lon="5.37129">
        <ele>592.59997558594</ele>
        <time>2016-02-28T07:44:39Z</time>
      </trkpt>
      <trkpt lat="46.41247" lon="5.37129">
        <ele>593.59997558594</ele>
        <time>2016-02-28T07:44:40Z</time>
      </trkpt>
      <trkpt lat="46.41244" lon="5.37129">
        <ele>594.80004882812</ele>
        <time>2016-02-28T07:44:41Z</time>
      </trkpt>
      <trkpt lat="46.41239" lon="5.3713">
        <ele>596.80004882812</ele>
        <time>2016-02-28T07:44:43Z</time>
      </trkpt>
      <trkpt lat="46.41237" lon="5.37132">
        <ele>598</ele>
        <time>2016-02-28T07:44:44Z</time>
      </trkpt>
      <trkpt lat="46.41233" lon="5.37137">
        <ele>599</ele>
        <time>2016-02-28T07:44:46Z</time>
      </trkpt>
      <trkpt lat="46.41218" lon="5.37151">
        <ele>606.19995117188</ele>
        <time>2016-02-28T07:44:58Z</time>
      </trkpt>
      <trkpt lat="46.41193" lon="5.37153">
        <ele>609.59997558594</ele>
        <time>2016-02-28T07:45:10Z</time>
      </trkpt>
      <trkpt lat="46.41189" lon="5.37153">
        <ele>609.59997558594</ele>
        <time>2016-02-28T07:45:11Z</time>
      </trkpt>
      <trkpt lat="46.4118" lon="5.37156">
        <ele>611</ele>
        <time>2016-02-28T07:45:16Z</time>
      </trkpt>
      <trkpt lat="46.41162" lon="5.37152">
        <ele>615</ele>
        <time>2016-02-28T07:45:26Z</time>
      </trkpt>
      <trkpt lat="46.41155" lon="5.37151">
        <ele>615</ele>
        <time>2016-02-28T07:45:27Z</time>
      </trkpt>
      <trkpt lat="46.41136" lon="5.37148">
        <ele>616</ele>
        <time>2016-02-28T07:45:30Z</time>
      </trkpt>
      <trkpt lat="46.41122" lon="5.37146">
        <ele>617.59997558594</ele>
        <time>2016-02-28T07:45:33Z</time>
      </trkpt>
      <trkpt lat="46.41113" lon="5.37146">
        <ele>619</ele>
        <time>2016-02-28T07:45:35Z</time>
      </trkpt>
      <trkpt lat="46.41104" lon="5.37144">
        <ele>620.19995117188</ele>
        <time>2016-02-28T07:45:37Z</time>
      </trkpt>
      <trkpt lat="46.41089" lon="5.37142">
        <ele>621.59997558594</ele>
        <time>2016-02-28T07:45:40Z</time>
      </trkpt>
      <trkpt lat="46.41085" lon="5.37141">
        <ele>622</ele>
        <time>2016-02-28T07:45:41Z</time>
      </trkpt>
      <trkpt lat="46.41062" lon="5.37131">
        <ele>620.19995117188</ele>
        <time>2016-02-28T07:45:47Z</time>
      </trkpt>
      <trkpt lat="46.41053" lon="5.37126">
        <ele>618.80004882812</ele>
        <time>2016-02-28T07:45:50Z</time>
      </trkpt>
      <trkpt lat="46.41047" lon="5.37122">
        <ele>617.80004882812</ele>
        <time>2016-02-28T07:45:53Z</time>
      </trkpt>
      <trkpt lat="46.41046" lon="5.3712">
        <ele>615.40002441406</ele>
        <time>2016-02-28T07:45:55Z</time>
      </trkpt>
      <trkpt lat="46.41046" lon="5.37118">
        <ele>614</ele>
        <time>2016-02-28T07:45:56Z</time>
      </trkpt>
      <trkpt lat="46.41045" lon="5.37116">
        <ele>612.59997558594</ele>
        <time>2016-02-28T07:45:57Z</time>
      </trkpt>
      <trkpt lat="46.41044" lon="5.37113">
        <ele>610.80004882812</ele>
        <time>2016-02-28T07:45:58Z</time>
      </trkpt>
      <trkpt lat="46.41046" lon="5.37112">
        <ele>609.40002441406</ele>
        <time>2016-02-28T07:45:59Z</time>
      </trkpt>
      <trkpt lat="46.41045" lon="5.37109">
        <ele>607</ele>
        <time>2016-02-28T07:46:00Z</time>
      </trkpt>
      <trkpt lat="46.41043" lon="5.37107">
        <ele>604.80004882812</ele>
        <time>2016-02-28T07:46:01Z</time>
      </trkpt>
      <trkpt lat="46.41042" lon="5.37104">
        <ele>603.19995117188</ele>
        <time>2016-02-28T07:46:02Z</time>
      </trkpt>
      <trkpt lat="46.4104" lon="5.37101">
        <ele>601.80004882812</ele>
        <time>2016-02-28T07:46:03Z</time>
      </trkpt>
      <trkpt lat="46.41039" lon="5.37099">
        <ele>600.19995117188</ele>
        <time>2016-02-28T07:46:04Z</time>
      </trkpt>
      <trkpt lat="46.41036" lon="5.37096">
        <ele>598.59997558594</ele>
        <time>2016-02-28T07:46:05Z</time>
      </trkpt>
      <trkpt lat="46.41034" lon="5.37094">
        <ele>597</ele>
        <time>2016-02-28T07:46:06Z</time>
      </trkpt>
      <trkpt lat="46.41031" lon="5.37093">
        <ele>595.40002441406</ele>
        <time>2016-02-28T07:46:07Z</time>
      </trkpt>
      <trkpt lat="46.41027" lon="5.37091">
        <ele>593.59997558594</ele>
        <time>2016-02-28T07:46:08Z</time>
      </trkpt>
      <trkpt lat="46.41024" lon="5.37089">
        <ele>592</ele>
        <time>2016-02-28T07:46:09Z</time>
      </trkpt>
      <trkpt lat="46.41021" lon="5.37087">
        <ele>590.19995117188</ele>
        <time>2016-02-28T07:46:10Z</time>
      </trkpt>
      <trkpt lat="46.41018" lon="5.37085">
        <ele>588.80004882812</ele>
        <time>2016-02-28T07:46:11Z</time>
      </trkpt>
      <trkpt lat="46.41016" lon="5.37084">
        <ele>587</ele>
        <time>2016-02-28T07:46:12Z</time>
      </trkpt>
      <trkpt lat="46.41015" lon="5.37082">
        <ele>585.19995117188</ele>
        <time>2016-02-28T07:46:13Z</time>
      </trkpt>
      <trkpt lat="46.41012" lon="5.3708">
        <ele>583.40002441406</ele>
        <time>2016-02-28T07:46:14Z</time>
      </trkpt>
      <trkpt lat="46.4101" lon="5.37079">
        <ele>582.19995117188</ele>
        <time>2016-02-28T07:46:15Z</time>
      </trkpt>
      <trkpt lat="46.41007" lon="5.37078">
        <ele>581.19995117188</ele>
        <time>2016-02-28T07:46:16Z</time>
      </trkpt>
      <trkpt lat="46.41004" lon="5.37076">
        <ele>579.59997558594</ele>
        <time>2016-02-28T07:46:18Z</time>
      </trkpt>
      <trkpt lat="46.41002" lon="5.37074">
        <ele>578.59997558594</ele>
        <time>2016-02-28T07:46:19Z</time>
      </trkpt>
      <trkpt lat="46.40997" lon="5.37071">
        <ele>576.59997558594</ele>
        <time>2016-02-28T07:46:21Z</time>
      </trkpt>
      <trkpt lat="46.40994" lon="5.37069">
        <ele>575.80004882812</ele>
        <time>2016-02-28T07:46:22Z</time>
      </trkpt>
      <trkpt lat="46.40991" lon="5.37068">
        <ele>575</ele>
        <time>2016-02-28T07:46:23Z</time>
      </trkpt>
      <trkpt lat="46.40983" lon="5.37065">
        <ele>571.59997558594</ele>
        <time>2016-02-28T07:46:25Z</time>
      </trkpt>
      <trkpt lat="46.40979" lon="5.37063">
        <ele>569.19995117188</ele>
        <time>2016-02-28T07:46:26Z</time>
      </trkpt>
      <trkpt lat="46.40975" lon="5.37062">
        <ele>567.19995117188</ele>
        <time>2016-02-28T07:46:27Z</time>
      </trkpt>
      <trkpt lat="46.4097" lon="5.37061">
        <ele>565</ele>
        <time>2016-02-28T07:46:28Z</time>
      </trkpt>
      <trkpt lat="46.40967" lon="5.37059">
        <ele>563.40002441406</ele>
        <time>2016-02-28T07:46:29Z</time>
      </trkpt>
      <trkpt lat="46.40964" lon="5.37058">
        <ele>562.19995117188</ele>
        <time>2016-02-28T07:46:30Z</time>
      </trkpt>
      <trkpt lat="46.40959" lon="5.37055">
        <ele>560.80004882812</ele>
        <time>2016-02-28T07:46:32Z</time>
      </trkpt>
      <trkpt lat="46.40945" lon="5.37048">
        <ele>559.80004882812</ele>
        <time>2016-02-28T07:46:38Z</time>
      </trkpt>
      <trkpt lat="46.40943" lon="5.37047">
        <ele>559.80004882812</ele>
        <time>2016-02-28T07:46:39Z</time>
      </trkpt>
      <trkpt lat="46.40932" lon="5.37042">
        <ele>559.19995117188</ele>
        <time>2016-02-28T07:46:44Z</time>
      </trkpt>
      <trkpt lat="46.40915" lon="5.37035">
        <ele>559.40002441406</ele>
        <time>2016-02-28T07:46:51Z</time>
      </trkpt>
      <trkpt lat="46.40902" lon="5.37029">
        <ele>559.19995117188</ele>
        <time>2016-02-28T07:46:57Z</time>
      </trkpt>
      <trkpt lat="46.40891" lon="5.37024">
        <ele>558.40002441406</ele>
        <time>2016-02-28T07:47:01Z</time>
      </trkpt>
      <trkpt lat="46.40886" lon="5.37021">
        <ele>557.19995117188</ele>
        <time>2016-02-28T07:47:03Z</time>
      </trkpt>
      <trkpt lat="46.40883" lon="5.3702">
        <ele>557</ele>
        <time>2016-02-28T07:47:04Z</time>
      </trkpt>
      <trkpt lat="46.40876" lon="5.37016">
        <ele>556.19995117188</ele>
        <time>2016-02-28T07:47:07Z</time>
      </trkpt>
      <trkpt lat="46.40868" lon="5.37012">
        <ele>555</ele>
        <time>2016-02-28T07:47:10Z</time>
      </trkpt>
      <trkpt lat="46.40865" lon="5.3701">
        <ele>554.80004882812</ele>
        <time>2016-02-28T07:47:11Z</time>
      </trkpt>
      <trkpt lat="46.40851" lon="5.37001">
        <ele>554.19995117188</ele>
        <time>2016-02-28T07:47:17Z</time>
      </trkpt>
      <trkpt lat="46.40841" lon="5.36994">
        <ele>554</ele>
        <time>2016-02-28T07:47:21Z</time>
      </trkpt>
      <trkpt lat="46.40837" lon="5.3699">
        <ele>553.59997558594</ele>
        <time>2016-02-28T07:47:23Z</time>
      </trkpt>
      <trkpt lat="46.40828" lon="5.36983">
        <ele>552.80004882812</ele>
        <time>2016-02-28T07:47:27Z</time>
      </trkpt>
      <trkpt lat="46.40825" lon="5.36981">
        <ele>553</ele>
        <time>2016-02-28T07:47:28Z</time>
      </trkpt>
      <trkpt lat="46.4081" lon="5.3697">
        <ele>552.80004882812</ele>
        <time>2016-02-28T07:47:35Z</time>
      </trkpt>
      <trkpt lat="46.40793" lon="5.36961">
        <ele>553.59997558594</ele>
        <time>2016-02-28T07:47:42Z</time>
      </trkpt>
      <trkpt lat="46.40787" lon="5.36956">
        <ele>553.80004882812</ele>
        <time>2016-02-28T07:47:45Z</time>
      </trkpt>
      <trkpt lat="46.40783" lon="5.36948">
        <ele>554.59997558594</ele>
        <time>2016-02-28T07:47:48Z</time>
      </trkpt>
      <trkpt lat="46.40779" lon="5.36943">
        <ele>555</ele>
        <time>2016-02-28T07:47:50Z</time>
      </trkpt>
      <trkpt lat="46.40771" lon="5.36925">
        <ele>555.40002441406</ele>
        <time>2016-02-28T07:47:56Z</time>
      </trkpt>
      <trkpt lat="46.4076" lon="5.36902">
        <ele>554.80004882812</ele>
        <time>2016-02-28T07:48:03Z</time>
      </trkpt>
      <trkpt lat="46.40756" lon="5.36893">
        <ele>553.80004882812</ele>
        <time>2016-02-28T07:48:06Z</time>
      </trkpt>
      <trkpt lat="46.40749" lon="5.3688">
        <ele>553.40002441406</ele>
        <time>2016-02-28T07:48:10Z</time>
      </trkpt>
      <trkpt lat="46.40741" lon="5.36864">
        <ele>552.59997558594</ele>
        <time>2016-02-28T07:48:15Z</time>
      </trkpt>
      <trkpt lat="46.40739" lon="5.36857">
        <ele>552.19995117188</ele>
        <time>2016-02-28T07:48:17Z</time>
      </trkpt>
      <trkpt lat="46.40733" lon="5.36844">
        <ele>551.59997558594</ele>
        <time>2016-02-28T07:48:21Z</time>
      </trkpt>
      <trkpt lat="46.40729" lon="5.36838">
        <ele>551.80004882812</ele>
        <time>2016-02-28T07:48:23Z</time>
      </trkpt>
      <trkpt lat="46.40721" lon="5.36822">
        <ele>551.40002441406</ele>
        <time>2016-02-28T07:48:29Z</time>
      </trkpt>
      <trkpt lat="46.40712" lon="5.36804">
        <ele>552.59997558594</ele>
        <time>2016-02-28T07:48:35Z</time>
      </trkpt>
      <trkpt lat="46.40709" lon="5.36798">
        <ele>552.59997558594</ele>
        <time>2016-02-28T07:48:37Z</time>
      </trkpt>
      <trkpt lat="46.40696" lon="5.36771">
        <ele>553.19995117188</ele>
        <time>2016-02-28T07:48:46Z</time>
      </trkpt>
      <trkpt lat="46.40689" lon="5.36758">
        <ele>553.19995117188</ele>
        <time>2016-02-28T07:48:51Z</time>
      </trkpt>
      <trkpt lat="46.40675" lon="5.36742">
        <ele>553.40002441406</ele>
        <time>2016-02-28T07:48:58Z</time>
      </trkpt>
      <trkpt lat="46.40659" lon="5.36732">
        <ele>553.80004882812</ele>
        <time>2016-02-28T07:49:05Z</time>
      </trkpt>
      <trkpt lat="46.4064" lon="5.36725">
        <ele>554.80004882812</ele>
        <time>2016-02-28T07:49:13Z</time>
      </trkpt>
      <trkpt lat="46.40622" lon="5.36718">
        <ele>555.19995117188</ele>
        <time>2016-02-28T07:49:20Z</time>
      </trkpt>
      <trkpt lat="46.40605" lon="5.36709">
        <ele>555.80004882812</ele>
        <time>2016-02-28T07:49:28Z</time>
      </trkpt>
      <trkpt lat="46.40599" lon="5.36709">
        <ele>556.59997558594</ele>
        <time>2016-02-28T07:49:31Z</time>
      </trkpt>
      <trkpt lat="46.40598" lon="5.36714">
        <ele>557</ele>
        <time>2016-02-28T07:49:33Z</time>
      </trkpt>
      <trkpt lat="46.406" lon="5.36724">
        <ele>557.40002441406</ele>
        <time>2016-02-28T07:49:36Z</time>
      </trkpt>
      <trkpt lat="46.40603" lon="5.36734">
        <ele>557.80004882812</ele>
        <time>2016-02-28T07:49:39Z</time>
      </trkpt>
      <trkpt lat="46.40603" lon="5.36741">
        <ele>558</ele>
        <time>2016-02-28T07:49:41Z</time>
      </trkpt>
      <trkpt lat="46.40604" lon="5.36758">
        <ele>558.19995117188</ele>
        <time>2016-02-28T07:49:46Z</time>
      </trkpt>
      <trkpt lat="46.40604" lon="5.36778">
        <ele>559</ele>
        <time>2016-02-28T07:49:52Z</time>
      </trkpt>
      <trkpt lat="46.40604" lon="5.36785">
        <ele>559.59997558594</ele>
        <time>2016-02-28T07:49:54Z</time>
      </trkpt>
      <trkpt lat="46.40603" lon="5.36791">
        <ele>560</ele>
        <time>2016-02-28T07:49:56Z</time>
      </trkpt>
      <trkpt lat="46.40601" lon="5.36809">
        <ele>560.80004882812</ele>
        <time>2016-02-28T07:50:01Z</time>
      </trkpt>
      <trkpt lat="46.40598" lon="5.36817">
        <ele>561.59997558594</ele>
        <time>2016-02-28T07:50:03Z</time>
      </trkpt>
      <trkpt lat="46.40595" lon="5.36833">
        <ele>562.59997558594</ele>
        <time>2016-02-28T07:50:07Z</time>
      </trkpt>
      <trkpt lat="46.40594" lon="5.36837">
        <ele>562.80004882812</ele>
        <time>2016-02-28T07:50:08Z</time>
      </trkpt>
      <trkpt lat="46.40593" lon="5.3685">
        <ele>564</ele>
        <time>2016-02-28T07:50:12Z</time>
      </trkpt>
      <trkpt lat="46.40591" lon="5.36863">
        <ele>565.19995117188</ele>
        <time>2016-02-28T07:50:16Z</time>
      </trkpt>
      <trkpt lat="46.40588" lon="5.3688">
        <ele>566.40002441406</ele>
        <time>2016-02-28T07:50:21Z</time>
      </trkpt>
      <trkpt lat="46.40586" lon="5.36889">
        <ele>567.19995117188</ele>
        <time>2016-02-28T07:50:24Z</time>
      </trkpt>
      <trkpt lat="46.40585" lon="5.36892">
        <ele>567.40002441406</ele>
        <time>2016-02-28T07:50:25Z</time>
      </trkpt>
      <trkpt lat="46.40584" lon="5.36901">
        <ele>568.59997558594</ele>
        <time>2016-02-28T07:50:28Z</time>
      </trkpt>
      <trkpt lat="46.40583" lon="5.3691">
        <ele>569.19995117188</ele>
        <time>2016-02-28T07:50:31Z</time>
      </trkpt>
      <trkpt lat="46.40582" lon="5.36919">
        <ele>569.80004882812</ele>
        <time>2016-02-28T07:50:34Z</time>
      </trkpt>
      <trkpt lat="46.40583" lon="5.3693">
        <ele>570.80004882812</ele>
        <time>2016-02-28T07:50:38Z</time>
      </trkpt>
      <trkpt lat="46.40583" lon="5.36934">
        <ele>571.19995117188</ele>
        <time>2016-02-28T07:50:39Z</time>
      </trkpt>
      <trkpt lat="46.40585" lon="5.36939">
        <ele>572</ele>
        <time>2016-02-28T07:50:41Z</time>
      </trkpt>
      <trkpt lat="46.40586" lon="5.36952">
        <ele>573.19995117188</ele>
        <time>2016-02-28T07:50:45Z</time>
      </trkpt>
      <trkpt lat="46.40587" lon="5.36955">
        <ele>573.59997558594</ele>
        <time>2016-02-28T07:50:46Z</time>
      </trkpt>
      <trkpt lat="46.40589" lon="5.36963">
        <ele>574.59997558594</ele>
        <time>2016-02-28T07:50:49Z</time>
      </trkpt>
      <trkpt lat="46.4059" lon="5.36975">
        <ele>575.40002441406</ele>
        <time>2016-02-28T07:50:53Z</time>
      </trkpt>
      <trkpt lat="46.40591" lon="5.36977">
        <ele>575.59997558594</ele>
        <time>2016-02-28T07:50:54Z</time>
      </trkpt>
      <trkpt lat="46.40593" lon="5.36987">
        <ele>576.80004882812</ele>
        <time>2016-02-28T07:50:58Z</time>
      </trkpt>
      <trkpt lat="46.40594" lon="5.3699">
        <ele>577.40002441406</ele>
        <time>2016-02-28T07:50:59Z</time>
      </trkpt>
      <trkpt lat="46.40594" lon="5.36992">
        <ele>578</ele>
        <time>2016-02-28T07:51:00Z</time>
      </trkpt>
      <trkpt lat="46.40595" lon="5.36996">
        <ele>579.40002441406</ele>
        <time>2016-02-28T07:51:02Z</time>
      </trkpt>
      <trkpt lat="46.40597" lon="5.37001">
        <ele>580.59997558594</ele>
        <time>2016-02-28T07:51:04Z</time>
      </trkpt>
      <trkpt lat="46.40598" lon="5.37003">
        <ele>581.19995117188</ele>
        <time>2016-02-28T07:51:05Z</time>
      </trkpt>
      <trkpt lat="46.40599" lon="5.37007">
        <ele>582.19995117188</ele>
        <time>2016-02-28T07:51:07Z</time>
      </trkpt>
      <trkpt lat="46.40601" lon="5.37011">
        <ele>583.59997558594</ele>
        <time>2016-02-28T07:51:09Z</time>
      </trkpt>
      <trkpt lat="46.40602" lon="5.37015">
        <ele>585.19995117188</ele>
        <time>2016-02-28T07:51:11Z</time>
      </trkpt>
      <trkpt lat="46.40603" lon="5.37017">
        <ele>585.80004882812</ele>
        <time>2016-02-28T07:51:12Z</time>
      </trkpt>
      <trkpt lat="46.40604" lon="5.37019">
        <ele>586.59997558594</ele>
        <time>2016-02-28T07:51:13Z</time>
      </trkpt>
      <trkpt lat="46.40606" lon="5.37023">
        <ele>587.80004882812</ele>
        <time>2016-02-28T07:51:15Z</time>
      </trkpt>
      <trkpt lat="46.40608" lon="5.37027">
        <ele>588.80004882812</ele>
        <time>2016-02-28T07:51:17Z</time>
      </trkpt>
      <trkpt lat="46.4061" lon="5.37032">
        <ele>589.59997558594</ele>
        <time>2016-02-28T07:51:19Z</time>
      </trkpt>
      <trkpt lat="46.40611" lon="5.37035">
        <ele>590</ele>
        <time>2016-02-28T07:51:20Z</time>
      </trkpt>
      <trkpt lat="46.40614" lon="5.37042">
        <ele>591.40002441406</ele>
        <time>2016-02-28T07:51:23Z</time>
      </trkpt>
      <trkpt lat="46.40617" lon="5.37049">
        <ele>592.80004882812</ele>
        <time>2016-02-28T07:51:26Z</time>
      </trkpt>
      <trkpt lat="46.40618" lon="5.37051">
        <ele>593</ele>
        <time>2016-02-28T07:51:27Z</time>
      </trkpt>
      <trkpt lat="46.40618" lon="5.37054">
        <ele>593.19995117188</ele>
        <time>2016-02-28T07:51:28Z</time>
      </trkpt>
      <trkpt lat="46.40616" lon="5.37062">
        <ele>594.19995117188</ele>
        <time>2016-02-28T07:51:31Z</time>
      </trkpt>
      <trkpt lat="46.40615" lon="5.37064">
        <ele>594.59997558594</ele>
        <time>2016-02-28T07:51:32Z</time>
      </trkpt>
      <trkpt lat="46.40612" lon="5.37068">
        <ele>595.40002441406</ele>
        <time>2016-02-28T07:51:34Z</time>
      </trkpt>
      <trkpt lat="46.40609" lon="5.37071">
        <ele>596.19995117188</ele>
        <time>2016-02-28T07:51:36Z</time>
      </trkpt>
      <trkpt lat="46.40608" lon="5.37072">
        <ele>596.80004882812</ele>
        <time>2016-02-28T07:51:37Z</time>
      </trkpt>
      <trkpt lat="46.40607" lon="5.37074">
        <ele>597</ele>
        <time>2016-02-28T07:51:38Z</time>
      </trkpt>
      <trkpt lat="46.40604" lon="5.37076">
        <ele>598</ele>
        <time>2016-02-28T07:51:40Z</time>
      </trkpt>
      <trkpt lat="46.40601" lon="5.3708">
        <ele>599.19995117188</ele>
        <time>2016-02-28T07:51:43Z</time>
      </trkpt>
      <trkpt lat="46.40598" lon="5.37083">
        <ele>599.80004882812</ele>
        <time>2016-02-28T07:51:45Z</time>
      </trkpt>
      <trkpt lat="46.40596" lon="5.37085">
        <ele>600.59997558594</ele>
        <time>2016-02-28T07:51:47Z</time>
      </trkpt>
      <trkpt lat="46.40585" lon="5.37095">
        <ele>605.80004882812</ele>
        <time>2016-02-28T07:51:57Z</time>
      </trkpt>
      <trkpt lat="46.40582" lon="5.37095">
        <ele>606.19995117188</ele>
        <time>2016-02-28T07:51:58Z</time>
      </trkpt>
      <trkpt lat="46.40576" lon="5.37095">
        <ele>607.40002441406</ele>
        <time>2016-02-28T07:52:00Z</time>
      </trkpt>
      <trkpt lat="46.40571" lon="5.37095">
        <ele>608.40002441406</ele>
        <time>2016-02-28T07:52:02Z</time>
      </trkpt>
      <trkpt lat="46.40569" lon="5.37096">
        <ele>610</ele>
        <time>2016-02-28T07:52:04Z</time>
      </trkpt>
      <trkpt lat="46.40563" lon="5.37097">
        <ele>611.40002441406</ele>
        <time>2016-02-28T07:52:08Z</time>
      </trkpt>
      <trkpt lat="46.40561" lon="5.37098">
        <ele>612.40002441406</ele>
        <time>2016-02-28T07:52:10Z</time>
      </trkpt>
      <trkpt lat="46.40537" lon="5.37098">
        <ele>617.59997558594</ele>
        <time>2016-02-28T07:52:22Z</time>
      </trkpt>
      <trkpt lat="46.4053" lon="5.37097">
        <ele>618</ele>
        <time>2016-02-28T07:52:24Z</time>
      </trkpt>
      <trkpt lat="46.40513" lon="5.37099">
        <ele>619.19995117188</ele>
        <time>2016-02-28T07:52:30Z</time>
      </trkpt>
      <trkpt lat="46.40508" lon="5.371">
        <ele>620.59997558594</ele>
        <time>2016-02-28T07:52:32Z</time>
      </trkpt>
      <trkpt lat="46.40503" lon="5.37103">
        <ele>621.80004882812</ele>
        <time>2016-02-28T07:52:34Z</time>
      </trkpt>
      <trkpt lat="46.40498" lon="5.37105">
        <ele>623</ele>
        <time>2016-02-28T07:52:36Z</time>
      </trkpt>
      <trkpt lat="46.40494" lon="5.37109">
        <ele>623</ele>
        <time>2016-02-28T07:52:38Z</time>
      </trkpt>
      <trkpt lat="46.40493" lon="5.3711">
        <ele>622.40002441406</ele>
        <time>2016-02-28T07:52:39Z</time>
      </trkpt>
      <trkpt lat="46.40492" lon="5.37115">
        <ele>621.80004882812</ele>
        <time>2016-02-28T07:52:42Z</time>
      </trkpt>
      <trkpt lat="46.40495" lon="5.37123">
        <ele>622.40002441406</ele>
        <time>2016-02-28T07:52:47Z</time>
      </trkpt>
      <trkpt lat="46.40496" lon="5.37125">
        <ele>622.59997558594</ele>
        <time>2016-02-28T07:52:48Z</time>
      </trkpt>
      <trkpt lat="46.40502" lon="5.37137">
        <ele>622.80004882812</ele>
        <time>2016-02-28T07:52:54Z</time>
      </trkpt>
      <trkpt lat="46.40503" lon="5.3714">
        <ele>623</ele>
        <time>2016-02-28T07:52:55Z</time>
      </trkpt>
      <trkpt lat="46.40509" lon="5.37154">
        <ele>623.80004882812</ele>
        <time>2016-02-28T07:53:00Z</time>
      </trkpt>
      <trkpt lat="46.40514" lon="5.37162">
        <ele>620.59997558594</ele>
        <time>2016-02-28T07:53:03Z</time>
      </trkpt>
      <trkpt lat="46.40515" lon="5.37165">
        <ele>619.59997558594</ele>
        <time>2016-02-28T07:53:04Z</time>
      </trkpt>
      <trkpt lat="46.40516" lon="5.37168">
        <ele>618.19995117188</ele>
        <time>2016-02-28T07:53:05Z</time>
      </trkpt>
      <trkpt lat="46.40519" lon="5.37175">
        <ele>616.80004882812</ele>
        <time>2016-02-28T07:53:07Z</time>
      </trkpt>
      <trkpt lat="46.40525" lon="5.37188">
        <ele>615.59997558594</ele>
        <time>2016-02-28T07:53:12Z</time>
      </trkpt>
      <trkpt lat="46.40527" lon="5.3719">
        <ele>615.19995117188</ele>
        <time>2016-02-28T07:53:13Z</time>
      </trkpt>
      <trkpt lat="46.40533" lon="5.37201">
        <ele>614.59997558594</ele>
        <time>2016-02-28T07:53:17Z</time>
      </trkpt>
      <trkpt lat="46.40539" lon="5.37209">
        <ele>613.80004882812</ele>
        <time>2016-02-28T07:53:20Z</time>
      </trkpt>
      <trkpt lat="46.4054" lon="5.37212">
        <ele>613.59997558594</ele>
        <time>2016-02-28T07:53:21Z</time>
      </trkpt>
      <trkpt lat="46.40546" lon="5.3722">
        <ele>612.19995117188</ele>
        <time>2016-02-28T07:53:24Z</time>
      </trkpt>
      <trkpt lat="46.40551" lon="5.37228">
        <ele>611</ele>
        <time>2016-02-28T07:53:27Z</time>
      </trkpt>
      <trkpt lat="46.40556" lon="5.37238">
        <ele>611</ele>
        <time>2016-02-28T07:53:32Z</time>
      </trkpt>
      <trkpt lat="46.40557" lon="5.37249">
        <ele>604</ele>
        <time>2016-02-28T07:55:32Z</time>
      </trkpt>
      <trkpt lat="46.40566" lon="5.3726">
        <ele>605</ele>
        <time>2016-02-28T07:55:37Z</time>
      </trkpt>
      <trkpt lat="46.40579" lon="5.37279">
        <ele>605</ele>
        <time>2016-02-28T07:55:44Z</time>
      </trkpt>
      <trkpt lat="46.40581" lon="5.37281">
        <ele>605.19995117188</ele>
        <time>2016-02-28T07:55:45Z</time>
      </trkpt>
      <trkpt lat="46.40591" lon="5.37299">
        <ele>605.80004882812</ele>
        <time>2016-02-28T07:55:51Z</time>
      </trkpt>
      <trkpt lat="46.40604" lon="5.37318">
        <ele>604.80004882812</ele>
        <time>2016-02-28T07:55:57Z</time>
      </trkpt>
      <trkpt lat="46.40615" lon="5.37334">
        <ele>606.19995117188</ele>
        <time>2016-02-28T07:56:03Z</time>
      </trkpt>
      <trkpt lat="46.40616" lon="5.37336">
        <ele>606.40002441406</ele>
        <time>2016-02-28T07:56:04Z</time>
      </trkpt>
      <trkpt lat="46.40624" lon="5.37348">
        <ele>607.59997558594</ele>
        <time>2016-02-28T07:56:09Z</time>
      </trkpt>
      <trkpt lat="46.4063" lon="5.37356">
        <ele>608.19995117188</ele>
        <time>2016-02-28T07:56:12Z</time>
      </trkpt>
      <trkpt lat="46.40632" lon="5.37359">
        <ele>608.80004882812</ele>
        <time>2016-02-28T07:56:13Z</time>
      </trkpt>
      <trkpt lat="46.40639" lon="5.37371">
        <ele>608.80004882812</ele>
        <time>2016-02-28T07:56:18Z</time>
      </trkpt>
      <trkpt lat="46.40646" lon="5.37386">
        <ele>610</ele>
        <time>2016-02-28T07:56:23Z</time>
      </trkpt>
      <trkpt lat="46.40654" lon="5.37407">
        <ele>610.59997558594</ele>
        <time>2016-02-28T07:56:29Z</time>
      </trkpt>
      <trkpt lat="46.40656" lon="5.37413">
        <ele>611.40002441406</ele>
        <time>2016-02-28T07:56:31Z</time>
      </trkpt>
      <trkpt lat="46.4066" lon="5.37424">
        <ele>612.19995117188</ele>
        <time>2016-02-28T07:56:34Z</time>
      </trkpt>
      <trkpt lat="46.40661" lon="5.37428">
        <ele>612.59997558594</ele>
        <time>2016-02-28T07:56:35Z</time>
      </trkpt>
      <trkpt lat="46.40666" lon="5.37446">
        <ele>613.59997558594</ele>
        <time>2016-02-28T07:56:40Z</time>
      </trkpt>
      <trkpt lat="46.40672" lon="5.37469">
        <ele>613.40002441406</ele>
        <time>2016-02-28T07:56:46Z</time>
      </trkpt>
      <trkpt lat="46.40676" lon="5.37483">
        <ele>612.59997558594</ele>
        <time>2016-02-28T07:56:50Z</time>
      </trkpt>
      <trkpt lat="46.40676" lon="5.37486">
        <ele>612.40002441406</ele>
        <time>2016-02-28T07:56:51Z</time>
      </trkpt>
      <trkpt lat="46.40681" lon="5.37508">
        <ele>611.59997558594</ele>
        <time>2016-02-28T07:56:57Z</time>
      </trkpt>
      <trkpt lat="46.40686" lon="5.37523">
        <ele>611.59997558594</ele>
        <time>2016-02-28T07:57:01Z</time>
      </trkpt>
      <trkpt lat="46.40687" lon="5.37527">
        <ele>611.19995117188</ele>
        <time>2016-02-28T07:57:02Z</time>
      </trkpt>
      <trkpt lat="46.40688" lon="5.37532">
        <ele>611</ele>
        <time>2016-02-28T07:57:03Z</time>
      </trkpt>
      <trkpt lat="46.40698" lon="5.37556">
        <ele>610.40002441406</ele>
        <time>2016-02-28T07:57:10Z</time>
      </trkpt>
      <trkpt lat="46.40707" lon="5.37572">
        <ele>610.40002441406</ele>
        <time>2016-02-28T07:57:16Z</time>
      </trkpt>
      <trkpt lat="46.40714" lon="5.37584">
        <ele>611.40002441406</ele>
        <time>2016-02-28T07:57:21Z</time>
      </trkpt>
      <trkpt lat="46.40716" lon="5.37597">
        <ele>611.40002441406</ele>
        <time>2016-02-28T07:57:24Z</time>
      </trkpt>
      <trkpt lat="46.40715" lon="5.37601">
        <ele>611.59997558594</ele>
        <time>2016-02-28T07:57:25Z</time>
      </trkpt>
      <trkpt lat="46.40708" lon="5.37614">
        <ele>611.80004882812</ele>
        <time>2016-02-28T07:57:29Z</time>
      </trkpt>
      <trkpt lat="46.407" lon="5.37619">
        <ele>612.40002441406</ele>
        <time>2016-02-28T07:57:32Z</time>
      </trkpt>
      <trkpt lat="46.40698" lon="5.37621">
        <ele>612.59997558594</ele>
        <time>2016-02-28T07:57:33Z</time>
      </trkpt>
      <trkpt lat="46.40696" lon="5.37622">
        <ele>612.59997558594</ele>
        <time>2016-02-28T07:57:34Z</time>
      </trkpt>
      <trkpt lat="46.40688" lon="5.37627">
        <ele>613</ele>
        <time>2016-02-28T07:57:38Z</time>
      </trkpt>
      <trkpt lat="46.40683" lon="5.37631">
        <ele>613.59997558594</ele>
        <time>2016-02-28T07:57:41Z</time>
      </trkpt>
      <trkpt lat="46.40677" lon="5.37635">
        <ele>614.19995117188</ele>
        <time>2016-02-28T07:57:44Z</time>
      </trkpt>
      <trkpt lat="46.40672" lon="5.37637">
        <ele>615</ele>
        <time>2016-02-28T07:57:46Z</time>
      </trkpt>
      <trkpt lat="46.40668" lon="5.37638">
        <ele>616.40002441406</ele>
        <time>2016-02-28T07:57:48Z</time>
      </trkpt>
      <trkpt lat="46.40664" lon="5.37639">
        <ele>617.80004882812</ele>
        <time>2016-02-28T07:57:50Z</time>
      </trkpt>
      <trkpt lat="46.4066" lon="5.3764">
        <ele>619</ele>
        <time>2016-02-28T07:57:52Z</time>
      </trkpt>
      <trkpt lat="46.40653" lon="5.37639">
        <ele>620.19995117188</ele>
        <time>2016-02-28T07:57:55Z</time>
      </trkpt>
      <trkpt lat="46.40649" lon="5.37639">
        <ele>620.80004882812</ele>
        <time>2016-02-28T07:57:57Z</time>
      </trkpt>
      <trkpt lat="46.40639" lon="5.37638">
        <ele>621.40002441406</ele>
        <time>2016-02-28T07:58:01Z</time>
      </trkpt>
      <trkpt lat="46.40632" lon="5.37637">
        <ele>621</ele>
        <time>2016-02-28T07:58:04Z</time>
      </trkpt>
      <trkpt lat="46.40619" lon="5.37635">
        <ele>621.40002441406</ele>
        <time>2016-02-28T07:58:10Z</time>
      </trkpt>
      <trkpt lat="46.40607" lon="5.37634">
        <ele>622.59997558594</ele>
        <time>2016-02-28T07:58:14Z</time>
      </trkpt>
      <trkpt lat="46.40602" lon="5.37633">
        <ele>624</ele>
        <time>2016-02-28T07:58:16Z</time>
      </trkpt>
      <trkpt lat="46.40588" lon="5.3763">
        <ele>624.59997558594</ele>
        <time>2016-02-28T07:58:21Z</time>
      </trkpt>
      <trkpt lat="46.40567" lon="5.37628">
        <ele>625.19995117188</ele>
        <time>2016-02-28T07:58:27Z</time>
      </trkpt>
      <trkpt lat="46.40565" lon="5.37628">
        <ele>625.80004882812</ele>
        <time>2016-02-28T07:58:28Z</time>
      </trkpt>
      <trkpt lat="46.40561" lon="5.37627">
        <ele>626.40002441406</ele>
        <time>2016-02-28T07:58:30Z</time>
      </trkpt>
      <trkpt lat="46.40555" lon="5.37629">
        <ele>626.80004882812</ele>
        <time>2016-02-28T07:58:33Z</time>
      </trkpt>
      <trkpt lat="46.40543" lon="5.37631">
        <ele>625.80004882812</ele>
        <time>2016-02-28T07:58:38Z</time>
      </trkpt>
      <trkpt lat="46.40539" lon="5.3763">
        <ele>624.59997558594</ele>
        <time>2016-02-28T07:58:39Z</time>
      </trkpt>
      <trkpt lat="46.40527" lon="5.37632">
        <ele>624.19995117188</ele>
        <time>2016-02-28T07:58:43Z</time>
      </trkpt>
      <trkpt lat="46.40513" lon="5.37643">
        <ele>624.19995117188</ele>
        <time>2016-02-28T07:58:49Z</time>
      </trkpt>
      <trkpt lat="46.4051" lon="5.37644">
        <ele>623.59997558594</ele>
        <time>2016-02-28T07:58:50Z</time>
      </trkpt>
      <trkpt lat="46.40503" lon="5.37648">
        <ele>622.40002441406</ele>
        <time>2016-02-28T07:58:53Z</time>
      </trkpt>
      <trkpt lat="46.40501" lon="5.37651">
        <ele>622</ele>
        <time>2016-02-28T07:58:54Z</time>
      </trkpt>
      <trkpt lat="46.40499" lon="5.37653">
        <ele>621.19995117188</ele>
        <time>2016-02-28T07:58:55Z</time>
      </trkpt>
      <trkpt lat="46.40497" lon="5.37656">
        <ele>620.40002441406</ele>
        <time>2016-02-28T07:58:56Z</time>
      </trkpt>
      <trkpt lat="46.40496" lon="5.37659">
        <ele>619.80004882812</ele>
        <time>2016-02-28T07:58:57Z</time>
      </trkpt>
      <trkpt lat="46.40496" lon="5.37661">
        <ele>618.40002441406</ele>
        <time>2016-02-28T07:58:58Z</time>
      </trkpt>
      <trkpt lat="46.40495" lon="5.37662">
        <ele>616.59997558594</ele>
        <time>2016-02-28T07:58:59Z</time>
      </trkpt>
      <trkpt lat="46.40495" lon="5.37663">
        <ele>613.59997558594</ele>
        <time>2016-02-28T07:59:00Z</time>
      </trkpt>
      <trkpt lat="46.40494" lon="5.37664">
        <ele>610.40002441406</ele>
        <time>2016-02-28T07:59:01Z</time>
      </trkpt>
      <trkpt lat="46.40494" lon="5.37665">
        <ele>608.19995117188</ele>
        <time>2016-02-28T07:59:02Z</time>
      </trkpt>
      <trkpt lat="46.40493" lon="5.37666">
        <ele>605.80004882812</ele>
        <time>2016-02-28T07:59:03Z</time>
      </trkpt>
      <trkpt lat="46.40493" lon="5.37668">
        <ele>603.80004882812</ele>
        <time>2016-02-28T07:59:04Z</time>
      </trkpt>
      <trkpt lat="46.40493" lon="5.3767">
        <ele>601.59997558594</ele>
        <time>2016-02-28T07:59:05Z</time>
      </trkpt>
      <trkpt lat="46.40494" lon="5.37672">
        <ele>600.40002441406</ele>
        <time>2016-02-28T07:59:06Z</time>
      </trkpt>
      <trkpt lat="46.40494" lon="5.37674">
        <ele>599.19995117188</ele>
        <time>2016-02-28T07:59:07Z</time>
      </trkpt>
      <trkpt lat="46.40494" lon="5.37677">
        <ele>598</ele>
        <time>2016-02-28T07:59:08Z</time>
      </trkpt>
      <trkpt lat="46.40495" lon="5.3768">
        <ele>596.40002441406</ele>
        <time>2016-02-28T07:59:09Z</time>
      </trkpt>
      <trkpt lat="46.40496" lon="5.37684">
        <ele>595.19995117188</ele>
        <time>2016-02-28T07:59:10Z</time>
      </trkpt>
      <trkpt lat="46.40497" lon="5.37687">
        <ele>594.19995117188</ele>
        <time>2016-02-28T07:59:11Z</time>
      </trkpt>
      <trkpt lat="46.40497" lon="5.3769">
        <ele>593</ele>
        <time>2016-02-28T07:59:12Z</time>
      </trkpt>
      <trkpt lat="46.40499" lon="5.37696">
        <ele>591.19995117188</ele>
        <time>2016-02-28T07:59:14Z</time>
      </trkpt>
      <trkpt lat="46.40502" lon="5.37702">
        <ele>589.40002441406</ele>
        <time>2016-02-28T07:59:16Z</time>
      </trkpt>
      <trkpt lat="46.40504" lon="5.37704">
        <ele>588.40002441406</ele>
        <time>2016-02-28T07:59:17Z</time>
      </trkpt>
      <trkpt lat="46.40505" lon="5.37707">
        <ele>587.80004882812</ele>
        <time>2016-02-28T07:59:18Z</time>
      </trkpt>
      <trkpt lat="46.4051" lon="5.37714">
        <ele>586.59997558594</ele>
        <time>2016-02-28T07:59:21Z</time>
      </trkpt>
      <trkpt lat="46.40512" lon="5.37716">
        <ele>586</ele>
        <time>2016-02-28T07:59:22Z</time>
      </trkpt>
      <trkpt lat="46.40515" lon="5.37722">
        <ele>585</ele>
        <time>2016-02-28T07:59:24Z</time>
      </trkpt>
      <trkpt lat="46.4052" lon="5.37731">
        <ele>584.19995117188</ele>
        <time>2016-02-28T07:59:27Z</time>
      </trkpt>
      <trkpt lat="46.40522" lon="5.37735">
        <ele>584</ele>
        <time>2016-02-28T07:59:28Z</time>
      </trkpt>
      <trkpt lat="46.40529" lon="5.3775">
        <ele>583.80004882812</ele>
        <time>2016-02-28T07:59:33Z</time>
      </trkpt>
      <trkpt lat="46.4054" lon="5.37773">
        <ele>582.80004882812</ele>
        <time>2016-02-28T07:59:40Z</time>
      </trkpt>
      <trkpt lat="46.40547" lon="5.37786">
        <ele>581.59997558594</ele>
        <time>2016-02-28T07:59:44Z</time>
      </trkpt>
      <trkpt lat="46.40554" lon="5.37795">
        <ele>581.40002441406</ele>
        <time>2016-02-28T07:59:47Z</time>
      </trkpt>
      <trkpt lat="46.40567" lon="5.37811">
        <ele>580.19995117188</ele>
        <time>2016-02-28T07:59:53Z</time>
      </trkpt>
      <trkpt lat="46.40574" lon="5.37822">
        <ele>578.80004882812</ele>
        <time>2016-02-28T07:59:57Z</time>
      </trkpt>
      <trkpt lat="46.40578" lon="5.37828">
        <ele>578.40002441406</ele>
        <time>2016-02-28T07:59:59Z</time>
      </trkpt>
      <trkpt lat="46.40584" lon="5.37841">
        <ele>577.40002441406</ele>
        <time>2016-02-28T08:00:03Z</time>
      </trkpt>
      <trkpt lat="46.40589" lon="5.3785">
        <ele>576.59997558594</ele>
        <time>2016-02-28T08:00:06Z</time>
      </trkpt>
      <trkpt lat="46.40591" lon="5.37852">
        <ele>576.40002441406</ele>
        <time>2016-02-28T08:00:07Z</time>
      </trkpt>
      <trkpt lat="46.40602" lon="5.37868">
        <ele>575.19995117188</ele>
        <time>2016-02-28T08:00:13Z</time>
      </trkpt>
      <trkpt lat="46.40611" lon="5.37876">
        <ele>574.19995117188</ele>
        <time>2016-02-28T08:00:17Z</time>
      </trkpt>
      <trkpt lat="46.40617" lon="5.37886">
        <ele>574</ele>
        <time>2016-02-28T08:00:21Z</time>
      </trkpt>
      <trkpt lat="46.4063" lon="5.37907">
        <ele>573.40002441406</ele>
        <time>2016-02-28T08:00:28Z</time>
      </trkpt>
      <trkpt lat="46.40632" lon="5.37909">
        <ele>573.19995117188</ele>
        <time>2016-02-28T08:00:29Z</time>
      </trkpt>
      <trkpt lat="46.40644" lon="5.37928">
        <ele>573.40002441406</ele>
        <time>2016-02-28T08:00:35Z</time>
      </trkpt>
      <trkpt lat="46.40654" lon="5.37945">
        <ele>571.80004882812</ele>
        <time>2016-02-28T08:00:40Z</time>
      </trkpt>
      <trkpt lat="46.40657" lon="5.37948">
        <ele>571.19995117188</ele>
        <time>2016-02-28T08:00:41Z</time>
      </trkpt>
      <trkpt lat="46.40662" lon="5.37952">
        <ele>570.59997558594</ele>
        <time>2016-02-28T08:00:43Z</time>
      </trkpt>
      <trkpt lat="46.40667" lon="5.37958">
        <ele>569.40002441406</ele>
        <time>2016-02-28T08:00:46Z</time>
      </trkpt>
      <trkpt lat="46.40674" lon="5.37966">
        <ele>568</ele>
        <time>2016-02-28T08:00:49Z</time>
      </trkpt>
      <trkpt lat="46.40681" lon="5.37972">
        <ele>566.80004882812</ele>
        <time>2016-02-28T08:00:52Z</time>
      </trkpt>
      <trkpt lat="46.40683" lon="5.37975">
        <ele>566.19995117188</ele>
        <time>2016-02-28T08:00:53Z</time>
      </trkpt>
      <trkpt lat="46.40688" lon="5.3798">
        <ele>565.59997558594</ele>
        <time>2016-02-28T08:00:55Z</time>
      </trkpt>
      <trkpt lat="46.407" lon="5.3799">
        <ele>564.80004882812</ele>
        <time>2016-02-28T08:01:00Z</time>
      </trkpt>
      <trkpt lat="46.40701" lon="5.37993">
        <ele>564.40002441406</ele>
        <time>2016-02-28T08:01:01Z</time>
      </trkpt>
      <trkpt lat="46.40704" lon="5.38003">
        <ele>563.40002441406</ele>
        <time>2016-02-28T08:01:04Z</time>
      </trkpt>
      <trkpt lat="46.4071" lon="5.38014">
        <ele>562.19995117188</ele>
        <time>2016-02-28T08:01:07Z</time>
      </trkpt>
      <trkpt lat="46.4072" lon="5.38025">
        <ele>560.80004882812</ele>
        <time>2016-02-28T08:01:11Z</time>
      </trkpt>
      <trkpt lat="46.40725" lon="5.3803">
        <ele>560</ele>
        <time>2016-02-28T08:01:13Z</time>
      </trkpt>
      <trkpt lat="46.40728" lon="5.38033">
        <ele>559.59997558594</ele>
        <time>2016-02-28T08:01:14Z</time>
      </trkpt>
      <trkpt lat="46.40738" lon="5.38044">
        <ele>558.59997558594</ele>
        <time>2016-02-28T08:01:18Z</time>
      </trkpt>
      <trkpt lat="46.40742" lon="5.38049">
        <ele>558.40002441406</ele>
        <time>2016-02-28T08:01:20Z</time>
      </trkpt>
      <trkpt lat="46.40751" lon="5.3806">
        <ele>557.40002441406</ele>
        <time>2016-02-28T08:01:24Z</time>
      </trkpt>
      <trkpt lat="46.40756" lon="5.38068">
        <ele>556.19995117188</ele>
        <time>2016-02-28T08:01:27Z</time>
      </trkpt>
      <trkpt lat="46.40763" lon="5.38077">
        <ele>555.19995117188</ele>
        <time>2016-02-28T08:01:30Z</time>
      </trkpt>
      <trkpt lat="46.4077" lon="5.38088">
        <ele>554.59997558594</ele>
        <time>2016-02-28T08:01:33Z</time>
      </trkpt>
      <trkpt lat="46.40777" lon="5.38096">
        <ele>553.80004882812</ele>
        <time>2016-02-28T08:01:36Z</time>
      </trkpt>
      <trkpt lat="46.4078" lon="5.38101">
        <ele>553.40002441406</ele>
        <time>2016-02-28T08:01:38Z</time>
      </trkpt>
      <trkpt lat="46.40782" lon="5.38106">
        <ele>552.40002441406</ele>
        <time>2016-02-28T08:01:39Z</time>
      </trkpt>
      <trkpt lat="46.40786" lon="5.38118">
        <ele>551.19995117188</ele>
        <time>2016-02-28T08:01:42Z</time>
      </trkpt>
      <trkpt lat="46.40794" lon="5.38132">
        <ele>550</ele>
        <time>2016-02-28T08:01:46Z</time>
      </trkpt>
      <trkpt lat="46.408" lon="5.38144">
        <ele>548.59997558594</ele>
        <time>2016-02-28T08:01:49Z</time>
      </trkpt>
      <trkpt lat="46.40817" lon="5.38166">
        <ele>547.40002441406</ele>
        <time>2016-02-28T08:01:56Z</time>
      </trkpt>
      <trkpt lat="46.40829" lon="5.38179">
        <ele>546.19995117188</ele>
        <time>2016-02-28T08:02:01Z</time>
      </trkpt>
      <trkpt lat="46.40834" lon="5.38185">
        <ele>545.40002441406</ele>
        <time>2016-02-28T08:02:03Z</time>
      </trkpt>
      <trkpt lat="46.40836" lon="5.38187">
        <ele>545</ele>
        <time>2016-02-28T08:02:04Z</time>
      </trkpt>
      <trkpt lat="46.40847" lon="5.38203">
        <ele>544.40002441406</ele>
        <time>2016-02-28T08:02:10Z</time>
      </trkpt>
      <trkpt lat="46.40859" lon="5.38213">
        <ele>544</ele>
        <time>2016-02-28T08:02:15Z</time>
      </trkpt>
      <trkpt lat="46.40871" lon="5.38223">
        <ele>543.80004882812</ele>
        <time>2016-02-28T08:02:20Z</time>
      </trkpt>
      <trkpt lat="46.4089" lon="5.38237">
        <ele>544.19995117188</ele>
        <time>2016-02-28T08:02:28Z</time>
      </trkpt>
      <trkpt lat="46.40906" lon="5.38249">
        <ele>544.80004882812</ele>
        <time>2016-02-28T08:02:34Z</time>
      </trkpt>
      <trkpt lat="46.40908" lon="5.38251">
        <ele>545</ele>
        <time>2016-02-28T08:02:35Z</time>
      </trkpt>
      <trkpt lat="46.40918" lon="5.38258">
        <ele>546.40002441406</ele>
        <time>2016-02-28T08:02:40Z</time>
      </trkpt>
      <trkpt lat="46.40929" lon="5.38262">
        <ele>547.40002441406</ele>
        <time>2016-02-28T08:02:45Z</time>
      </trkpt>
      <trkpt lat="46.40937" lon="5.38267">
        <ele>548.80004882812</ele>
        <time>2016-02-28T08:02:49Z</time>
      </trkpt>
      <trkpt lat="46.40943" lon="5.38271">
        <ele>549</ele>
        <time>2016-02-28T08:02:52Z</time>
      </trkpt>
      <trkpt lat="46.40956" lon="5.38271">
        <ele>548.59997558594</ele>
        <time>2016-02-28T08:02:58Z</time>
      </trkpt>
      <trkpt lat="46.40972" lon="5.38272">
        <ele>547.59997558594</ele>
        <time>2016-02-28T08:03:03Z</time>
      </trkpt>
      <trkpt lat="46.40978" lon="5.38275">
        <ele>546.59997558594</ele>
        <time>2016-02-28T08:03:05Z</time>
      </trkpt>
      <trkpt lat="46.40987" lon="5.3828">
        <ele>545</ele>
        <time>2016-02-28T08:03:08Z</time>
      </trkpt>
      <trkpt lat="46.40993" lon="5.38287">
        <ele>544.59997558594</ele>
        <time>2016-02-28T08:03:11Z</time>
      </trkpt>
      <trkpt lat="46.41003" lon="5.38306">
        <ele>546</ele>
        <time>2016-02-28T08:03:18Z</time>
      </trkpt>
      <trkpt lat="46.41006" lon="5.38313">
        <ele>546.40002441406</ele>
        <time>2016-02-28T08:03:20Z</time>
      </trkpt>
      <trkpt lat="46.41007" lon="5.38321">
        <ele>546.40002441406</ele>
        <time>2016-02-28T08:03:22Z</time>
      </trkpt>
      <trkpt lat="46.41008" lon="5.38328">
        <ele>546</ele>
        <time>2016-02-28T08:03:24Z</time>
      </trkpt>
      <trkpt lat="46.4101" lon="5.38342">
        <ele>545.19995117188</ele>
        <time>2016-02-28T08:03:28Z</time>
      </trkpt>
      <trkpt lat="46.41009" lon="5.38354">
        <ele>544.40002441406</ele>
        <time>2016-02-28T08:03:31Z</time>
      </trkpt>
      <trkpt lat="46.41009" lon="5.38358">
        <ele>544</ele>
        <time>2016-02-28T08:03:32Z</time>
      </trkpt>
      <trkpt lat="46.41008" lon="5.38366">
        <ele>542.19995117188</ele>
        <time>2016-02-28T08:03:34Z</time>
      </trkpt>
      <trkpt lat="46.41006" lon="5.38378">
        <ele>541.80004882812</ele>
        <time>2016-02-28T08:03:37Z</time>
      </trkpt>
      <trkpt lat="46.41004" lon="5.38385">
        <ele>541.19995117188</ele>
        <time>2016-02-28T08:03:39Z</time>
      </trkpt>
      <trkpt lat="46.41001" lon="5.38398">
        <ele>539.80004882812</ele>
        <time>2016-02-28T08:03:42Z</time>
      </trkpt>
      <trkpt lat="46.40999" lon="5.38402">
        <ele>538.40002441406</ele>
        <time>2016-02-28T08:03:43Z</time>
      </trkpt>
      <trkpt lat="46.40997" lon="5.38407">
        <ele>536.59997558594</ele>
        <time>2016-02-28T08:03:44Z</time>
      </trkpt>
      <trkpt lat="46.40995" lon="5.38412">
        <ele>534.80004882812</ele>
        <time>2016-02-28T08:03:45Z</time>
      </trkpt>
      <trkpt lat="46.40994" lon="5.38417">
        <ele>533.59997558594</ele>
        <time>2016-02-28T08:03:46Z</time>
      </trkpt>
      <trkpt lat="46.40991" lon="5.38426">
        <ele>531.80004882812</ele>
        <time>2016-02-28T08:03:48Z</time>
      </trkpt>
      <trkpt lat="46.4099" lon="5.38429">
        <ele>530.59997558594</ele>
        <time>2016-02-28T08:03:49Z</time>
      </trkpt>
      <trkpt lat="46.40988" lon="5.38437">
        <ele>527.80004882812</ele>
        <time>2016-02-28T08:03:51Z</time>
      </trkpt>
      <trkpt lat="46.40988" lon="5.38441">
        <ele>526.19995117188</ele>
        <time>2016-02-28T08:03:52Z</time>
      </trkpt>
      <trkpt lat="46.40989" lon="5.38446">
        <ele>524.80004882812</ele>
        <time>2016-02-28T08:03:53Z</time>
      </trkpt>
      <trkpt lat="46.40989" lon="5.3845">
        <ele>523.79998779297</ele>
        <time>2016-02-28T08:03:54Z</time>
      </trkpt>
      <trkpt lat="46.40991" lon="5.38457">
        <ele>522</ele>
        <time>2016-02-28T08:03:56Z</time>
      </trkpt>
      <trkpt lat="46.40992" lon="5.38465">
        <ele>520.59997558594</ele>
        <time>2016-02-28T08:03:58Z</time>
      </trkpt>
      <trkpt lat="46.40992" lon="5.38469">
        <ele>520</ele>
        <time>2016-02-28T08:03:59Z</time>
      </trkpt>
      <trkpt lat="46.40992" lon="5.38473">
        <ele>519</ele>
        <time>2016-02-28T08:04:00Z</time>
      </trkpt>
      <trkpt lat="46.40992" lon="5.38477">
        <ele>518</ele>
        <time>2016-02-28T08:04:01Z</time>
      </trkpt>
      <trkpt lat="46.40992" lon="5.38481">
        <ele>517</ele>
        <time>2016-02-28T08:04:02Z</time>
      </trkpt>
      <trkpt lat="46.40991" lon="5.38486">
        <ele>515.59997558594</ele>
        <time>2016-02-28T08:04:03Z</time>
      </trkpt>
      <trkpt lat="46.40991" lon="5.38492">
        <ele>514</ele>
        <time>2016-02-28T08:04:04Z</time>
      </trkpt>
      <trkpt lat="46.4099" lon="5.38498">
        <ele>513</ele>
        <time>2016-02-28T08:04:05Z</time>
      </trkpt>
      <trkpt lat="46.40989" lon="5.38503">
        <ele>512.40002441406</ele>
        <time>2016-02-28T08:04:06Z</time>
      </trkpt>
      <trkpt lat="46.40987" lon="5.38512">
        <ele>511</ele>
        <time>2016-02-28T08:04:08Z</time>
      </trkpt>
      <trkpt lat="46.40982" lon="5.38522">
        <ele>510.20001220703</ele>
        <time>2016-02-28T08:04:11Z</time>
      </trkpt>
      <trkpt lat="46.40968" lon="5.3854">
        <ele>510.79998779297</ele>
        <time>2016-02-28T08:04:18Z</time>
      </trkpt>
      <trkpt lat="46.40957" lon="5.38549">
        <ele>511.59997558594</ele>
        <time>2016-02-28T08:04:23Z</time>
      </trkpt>
      <trkpt lat="46.4094" lon="5.38565">
        <ele>510.40002441406</ele>
        <time>2016-02-28T08:04:31Z</time>
      </trkpt>
      <trkpt lat="46.40925" lon="5.38575">
        <ele>510.40002441406</ele>
        <time>2016-02-28T08:04:37Z</time>
      </trkpt>
      <trkpt lat="46.40909" lon="5.38583">
        <ele>510.59997558594</ele>
        <time>2016-02-28T08:04:43Z</time>
      </trkpt>
      <trkpt lat="46.40893" lon="5.38592">
        <ele>511.59997558594</ele>
        <time>2016-02-28T08:04:50Z</time>
      </trkpt>
      <trkpt lat="46.40876" lon="5.38606">
        <ele>512.20001220703</ele>
        <time>2016-02-28T08:04:57Z</time>
      </trkpt>
      <trkpt lat="46.4086" lon="5.38619">
        <ele>511.40002441406</ele>
        <time>2016-02-28T08:05:04Z</time>
      </trkpt>
      <trkpt lat="46.40848" lon="5.38626">
        <ele>512</ele>
        <time>2016-02-28T08:05:09Z</time>
      </trkpt>
      <trkpt lat="46.4084" lon="5.38635">
        <ele>511</ele>
        <time>2016-02-28T08:05:13Z</time>
      </trkpt>
      <trkpt lat="46.40837" lon="5.38637">
        <ele>511</ele>
        <time>2016-02-28T08:05:14Z</time>
      </trkpt>
      <trkpt lat="46.40826" lon="5.38657">
        <ele>510</ele>
        <time>2016-02-28T08:05:19Z</time>
      </trkpt>
      <trkpt lat="46.40819" lon="5.38668">
        <ele>508.79998779297</ele>
        <time>2016-02-28T08:05:22Z</time>
      </trkpt>
      <trkpt lat="46.40814" lon="5.38673">
        <ele>508.40002441406</ele>
        <time>2016-02-28T08:05:24Z</time>
      </trkpt>
      <trkpt lat="46.40806" lon="5.38688">
        <ele>508.59997558594</ele>
        <time>2016-02-28T08:05:29Z</time>
      </trkpt>
      <trkpt lat="46.40804" lon="5.38705">
        <ele>509</ele>
        <time>2016-02-28T08:05:35Z</time>
      </trkpt>
      <trkpt lat="46.40804" lon="5.38707">
        <ele>508.79998779297</ele>
        <time>2016-02-28T08:05:36Z</time>
      </trkpt>
      <trkpt lat="46.40804" lon="5.38722">
        <ele>507.79998779297</ele>
        <time>2016-02-28T08:05:42Z</time>
      </trkpt>
      <trkpt lat="46.40804" lon="5.38724">
        <ele>507.40002441406</ele>
        <time>2016-02-28T08:05:43Z</time>
      </trkpt>
      <trkpt lat="46.40806" lon="5.38734">
        <ele>505.79998779297</ele>
        <time>2016-02-28T08:05:46Z</time>
      </trkpt>
      <trkpt lat="46.40807" lon="5.38741">
        <ele>504.59997558594</ele>
        <time>2016-02-28T08:05:48Z</time>
      </trkpt>
      <trkpt lat="46.40807" lon="5.38745">
        <ele>504.20001220703</ele>
        <time>2016-02-28T08:05:49Z</time>
      </trkpt>
      <trkpt lat="46.40808" lon="5.38752">
        <ele>503.40002441406</ele>
        <time>2016-02-28T08:05:51Z</time>
      </trkpt>
      <trkpt lat="46.4081" lon="5.38767">
        <ele>502.20001220703</ele>
        <time>2016-02-28T08:05:55Z</time>
      </trkpt>
      <trkpt lat="46.4081" lon="5.3877">
        <ele>501.40002441406</ele>
        <time>2016-02-28T08:05:56Z</time>
      </trkpt>
      <trkpt lat="46.40811" lon="5.38775">
        <ele>500.79998779297</ele>
        <time>2016-02-28T08:05:57Z</time>
      </trkpt>
      <trkpt lat="46.40814" lon="5.38796">
        <ele>500.40002441406</ele>
        <time>2016-02-28T08:06:03Z</time>
      </trkpt>
      <trkpt lat="46.40815" lon="5.388">
        <ele>500.40002441406</ele>
        <time>2016-02-28T08:06:04Z</time>
      </trkpt>
      <trkpt lat="46.40818" lon="5.38814">
        <ele>499.40002441406</ele>
        <time>2016-02-28T08:06:08Z</time>
      </trkpt>
      <trkpt lat="46.40819" lon="5.38818">
        <ele>499.40002441406</ele>
        <time>2016-02-28T08:06:09Z</time>
      </trkpt>
      <trkpt lat="46.4082" lon="5.38821">
        <ele>499.79998779297</ele>
        <time>2016-02-28T08:06:10Z</time>
      </trkpt>
      <trkpt lat="46.40821" lon="5.38826">
        <ele>500.40002441406</ele>
        <time>2016-02-28T08:06:12Z</time>
      </trkpt>
      <trkpt lat="46.40826" lon="5.38842">
        <ele>500.79998779297</ele>
        <time>2016-02-28T08:06:17Z</time>
      </trkpt>
      <trkpt lat="46.40838" lon="5.3887">
        <ele>499</ele>
        <time>2016-02-28T08:06:25Z</time>
      </trkpt>
      <trkpt lat="46.40842" lon="5.38883">
        <ele>497.40002441406</ele>
        <time>2016-02-28T08:06:28Z</time>
      </trkpt>
      <trkpt lat="46.40845" lon="5.38892">
        <ele>495.59997558594</ele>
        <time>2016-02-28T08:06:30Z</time>
      </trkpt>
      <trkpt lat="46.40847" lon="5.38901">
        <ele>494.79998779297</ele>
        <time>2016-02-28T08:06:32Z</time>
      </trkpt>
      <trkpt lat="46.40848" lon="5.38905">
        <ele>494</ele>
        <time>2016-02-28T08:06:33Z</time>
      </trkpt>
      <trkpt lat="46.40851" lon="5.38913">
        <ele>493</ele>
        <time>2016-02-28T08:06:35Z</time>
      </trkpt>
      <trkpt lat="46.40853" lon="5.38926">
        <ele>492.20001220703</ele>
        <time>2016-02-28T08:06:38Z</time>
      </trkpt>
      <trkpt lat="46.40854" lon="5.38937">
        <ele>491.79998779297</ele>
        <time>2016-02-28T08:06:41Z</time>
      </trkpt>
      <trkpt lat="46.40855" lon="5.38945">
        <ele>490.79998779297</ele>
        <time>2016-02-28T08:06:43Z</time>
      </trkpt>
      <trkpt lat="46.40857" lon="5.38958">
        <ele>490.59997558594</ele>
        <time>2016-02-28T08:06:46Z</time>
      </trkpt>
      <trkpt lat="46.40861" lon="5.38978">
        <ele>489.79998779297</ele>
        <time>2016-02-28T08:06:52Z</time>
      </trkpt>
      <trkpt lat="46.40862" lon="5.38983">
        <ele>489.40002441406</ele>
        <time>2016-02-28T08:06:53Z</time>
      </trkpt>
      <trkpt lat="46.40865" lon="5.39003">
        <ele>488.79998779297</ele>
        <time>2016-02-28T08:06:58Z</time>
      </trkpt>
      <trkpt lat="46.40865" lon="5.39031">
        <ele>488.40002441406</ele>
        <time>2016-02-28T08:07:04Z</time>
      </trkpt>
      <trkpt lat="46.40865" lon="5.39036">
        <ele>488</ele>
        <time>2016-02-28T08:07:05Z</time>
      </trkpt>
      <trkpt lat="46.40864" lon="5.39046">
        <ele>487.20001220703</ele>
        <time>2016-02-28T08:07:07Z</time>
      </trkpt>
      <trkpt lat="46.40858" lon="5.39068">
        <ele>486.40002441406</ele>
        <time>2016-02-28T08:07:12Z</time>
      </trkpt>
      <trkpt lat="46.40855" lon="5.39076">
        <ele>486.20001220703</ele>
        <time>2016-02-28T08:07:14Z</time>
      </trkpt>
      <trkpt lat="46.4085" lon="5.39089">
        <ele>484.79998779297</ele>
        <time>2016-02-28T08:07:18Z</time>
      </trkpt>
      <trkpt lat="46.40847" lon="5.39096">
        <ele>484.40002441406</ele>
        <time>2016-02-28T08:07:20Z</time>
      </trkpt>
      <trkpt lat="46.40842" lon="5.39107">
        <ele>483.79998779297</ele>
        <time>2016-02-28T08:07:23Z</time>
      </trkpt>
      <trkpt lat="46.40836" lon="5.39118">
        <ele>482.79998779297</ele>
        <time>2016-02-28T08:07:26Z</time>
      </trkpt>
      <trkpt lat="46.40833" lon="5.39121">
        <ele>482.59997558594</ele>
        <time>2016-02-28T08:07:27Z</time>
      </trkpt>
      <trkpt lat="46.40823" lon="5.39134">
        <ele>481.79998779297</ele>
        <time>2016-02-28T08:07:32Z</time>
      </trkpt>
      <trkpt lat="46.40813" lon="5.39141">
        <ele>481.40002441406</ele>
        <time>2016-02-28T08:07:36Z</time>
      </trkpt>
      <trkpt lat="46.40811" lon="5.39144">
        <ele>481</ele>
        <time>2016-02-28T08:07:37Z</time>
      </trkpt>
      <trkpt lat="46.40805" lon="5.39148">
        <ele>480.20001220703</ele>
        <time>2016-02-28T08:07:39Z</time>
      </trkpt>
      <trkpt lat="46.40799" lon="5.39152">
        <ele>478.79998779297</ele>
        <time>2016-02-28T08:07:41Z</time>
      </trkpt>
      <trkpt lat="46.40794" lon="5.39156">
        <ele>477.40002441406</ele>
        <time>2016-02-28T08:07:43Z</time>
      </trkpt>
      <trkpt lat="46.40789" lon="5.3916">
        <ele>476</ele>
        <time>2016-02-28T08:07:45Z</time>
      </trkpt>
      <trkpt lat="46.4078" lon="5.39165">
        <ele>474.79998779297</ele>
        <time>2016-02-28T08:07:48Z</time>
      </trkpt>
      <trkpt lat="46.40778" lon="5.39167">
        <ele>474.20001220703</ele>
        <time>2016-02-28T08:07:49Z</time>
      </trkpt>
      <trkpt lat="46.40775" lon="5.39168">
        <ele>473.59997558594</ele>
        <time>2016-02-28T08:07:50Z</time>
      </trkpt>
      <trkpt lat="46.40766" lon="5.39173">
        <ele>472.40002441406</ele>
        <time>2016-02-28T08:07:53Z</time>
      </trkpt>
      <trkpt lat="46.40762" lon="5.39176">
        <ele>472</ele>
        <time>2016-02-28T08:07:55Z</time>
      </trkpt>
      <trkpt lat="46.40747" lon="5.39185">
        <ele>471.20001220703</ele>
        <time>2016-02-28T08:08:01Z</time>
      </trkpt>
      <trkpt lat="46.40738" lon="5.39192">
        <ele>470</ele>
        <time>2016-02-28T08:08:05Z</time>
      </trkpt>
      <trkpt lat="46.40734" lon="5.39196">
        <ele>469.40002441406</ele>
        <time>2016-02-28T08:08:07Z</time>
      </trkpt>
      <trkpt lat="46.40732" lon="5.39197">
        <ele>468.79998779297</ele>
        <time>2016-02-28T08:08:08Z</time>
      </trkpt>
      <trkpt lat="46.40722" lon="5.39206">
        <ele>467.59997558594</ele>
        <time>2016-02-28T08:08:12Z</time>
      </trkpt>
      <trkpt lat="46.4072" lon="5.39208">
        <ele>467.20001220703</ele>
        <time>2016-02-28T08:08:13Z</time>
      </trkpt>
      <trkpt lat="46.40716" lon="5.39213">
        <ele>466.40002441406</ele>
        <time>2016-02-28T08:08:15Z</time>
      </trkpt>
      <trkpt lat="46.40705" lon="5.39224">
        <ele>465.59997558594</ele>
        <time>2016-02-28T08:08:20Z</time>
      </trkpt>
      <trkpt lat="46.40698" lon="5.39231">
        <ele>465.40002441406</ele>
        <time>2016-02-28T08:08:23Z</time>
      </trkpt>
      <trkpt lat="46.40692" lon="5.39238">
        <ele>465.20001220703</ele>
        <time>2016-02-28T08:08:26Z</time>
      </trkpt>
      <trkpt lat="46.40683" lon="5.39251">
        <ele>465.20001220703</ele>
        <time>2016-02-28T08:08:31Z</time>
      </trkpt>
      <trkpt lat="46.40673" lon="5.39268">
        <ele>465.20001220703</ele>
        <time>2016-02-28T08:08:37Z</time>
      </trkpt>
      <trkpt lat="46.40666" lon="5.39287">
        <ele>464.59997558594</ele>
        <time>2016-02-28T08:08:43Z</time>
      </trkpt>
      <trkpt lat="46.40665" lon="5.39294">
        <ele>464</ele>
        <time>2016-02-28T08:08:45Z</time>
      </trkpt>
      <trkpt lat="46.40664" lon="5.39304">
        <ele>462.59997558594</ele>
        <time>2016-02-28T08:08:48Z</time>
      </trkpt>
      <trkpt lat="46.40664" lon="5.39311">
        <ele>461.59997558594</ele>
        <time>2016-02-28T08:08:50Z</time>
      </trkpt>
      <trkpt lat="46.40663" lon="5.39325">
        <ele>460.40002441406</ele>
        <time>2016-02-28T08:08:54Z</time>
      </trkpt>
      <trkpt lat="46.40664" lon="5.39333">
        <ele>459.79998779297</ele>
        <time>2016-02-28T08:08:56Z</time>
      </trkpt>
      <trkpt lat="46.40664" lon="5.3934">
        <ele>459.20001220703</ele>
        <time>2016-02-28T08:08:58Z</time>
      </trkpt>
      <trkpt lat="46.40662" lon="5.39355">
        <ele>458.20001220703</ele>
        <time>2016-02-28T08:09:02Z</time>
      </trkpt>
      <trkpt lat="46.40662" lon="5.39359">
        <ele>458</ele>
        <time>2016-02-28T08:09:03Z</time>
      </trkpt>
      <trkpt lat="46.40656" lon="5.39376">
        <ele>456.79998779297</ele>
        <time>2016-02-28T08:09:08Z</time>
      </trkpt>
      <trkpt lat="46.40652" lon="5.39392">
        <ele>455.40002441406</ele>
        <time>2016-02-28T08:09:12Z</time>
      </trkpt>
      <trkpt lat="46.40652" lon="5.39396">
        <ele>455</ele>
        <time>2016-02-28T08:09:13Z</time>
      </trkpt>
      <trkpt lat="46.4065" lon="5.39409">
        <ele>454.20001220703</ele>
        <time>2016-02-28T08:09:16Z</time>
      </trkpt>
      <trkpt lat="46.40651" lon="5.39426">
        <ele>452.59997558594</ele>
        <time>2016-02-28T08:09:20Z</time>
      </trkpt>
      <trkpt lat="46.40655" lon="5.39453">
        <ele>452.20001220703</ele>
        <time>2016-02-28T08:09:27Z</time>
      </trkpt>
      <trkpt lat="46.40662" lon="5.39478">
        <ele>452.59997558594</ele>
        <time>2016-02-28T08:09:34Z</time>
      </trkpt>
      <trkpt lat="46.40669" lon="5.39505">
        <ele>452</ele>
        <time>2016-02-28T08:09:41Z</time>
      </trkpt>
      <trkpt lat="46.40671" lon="5.39512">
        <ele>451.40002441406</ele>
        <time>2016-02-28T08:09:43Z</time>
      </trkpt>
      <trkpt lat="46.40675" lon="5.3953">
        <ele>451.20001220703</ele>
        <time>2016-02-28T08:09:48Z</time>
      </trkpt>
      <trkpt lat="46.4068" lon="5.39552">
        <ele>451</ele>
        <time>2016-02-28T08:09:54Z</time>
      </trkpt>
      <trkpt lat="46.40682" lon="5.39574">
        <ele>450.40002441406</ele>
        <time>2016-02-28T08:10:00Z</time>
      </trkpt>
      <trkpt lat="46.40681" lon="5.39584">
        <ele>450.40002441406</ele>
        <time>2016-02-28T08:10:03Z</time>
      </trkpt>
      <trkpt lat="46.40682" lon="5.39587">
        <ele>450.20001220703</ele>
        <time>2016-02-28T08:10:04Z</time>
      </trkpt>
      <trkpt lat="46.40682" lon="5.39591">
        <ele>450</ele>
        <time>2016-02-28T08:10:05Z</time>
      </trkpt>
      <trkpt lat="46.40684" lon="5.39599">
        <ele>449</ele>
        <time>2016-02-28T08:10:07Z</time>
      </trkpt>
      <trkpt lat="46.40684" lon="5.39606">
        <ele>447.79998779297</ele>
        <time>2016-02-28T08:10:09Z</time>
      </trkpt>
      <trkpt lat="46.40685" lon="5.39614">
        <ele>446.59997558594</ele>
        <time>2016-02-28T08:10:11Z</time>
      </trkpt>
      <trkpt lat="46.40686" lon="5.39626">
        <ele>445.59997558594</ele>
        <time>2016-02-28T08:10:14Z</time>
      </trkpt>
      <trkpt lat="46.40688" lon="5.39634">
        <ele>444.40002441406</ele>
        <time>2016-02-28T08:10:16Z</time>
      </trkpt>
      <trkpt lat="46.40689" lon="5.39641">
        <ele>443.20001220703</ele>
        <time>2016-02-28T08:10:18Z</time>
      </trkpt>
      <trkpt lat="46.40691" lon="5.3965">
        <ele>441.59997558594</ele>
        <time>2016-02-28T08:10:21Z</time>
      </trkpt>
      <trkpt lat="46.40694" lon="5.39657">
        <ele>440.79998779297</ele>
        <time>2016-02-28T08:10:23Z</time>
      </trkpt>
      <trkpt lat="46.40694" lon="5.39662">
        <ele>440.40002441406</ele>
        <time>2016-02-28T08:10:24Z</time>
      </trkpt>
      <trkpt lat="46.40699" lon="5.39673">
        <ele>439.20001220703</ele>
        <time>2016-02-28T08:10:28Z</time>
      </trkpt>
      <trkpt lat="46.40707" lon="5.39691">
        <ele>438.59997558594</ele>
        <time>2016-02-28T08:10:34Z</time>
      </trkpt>
      <trkpt lat="46.40718" lon="5.39709">
        <ele>438.59997558594</ele>
        <time>2016-02-28T08:10:40Z</time>
      </trkpt>
      <trkpt lat="46.40725" lon="5.39718">
        <ele>438</ele>
        <time>2016-02-28T08:10:43Z</time>
      </trkpt>
      <trkpt lat="46.40731" lon="5.39725">
        <ele>438.79998779297</ele>
        <time>2016-02-28T08:10:46Z</time>
      </trkpt>
      <trkpt lat="46.40743" lon="5.39737">
        <ele>438.79998779297</ele>
        <time>2016-02-28T08:10:52Z</time>
      </trkpt>
      <trkpt lat="46.40746" lon="5.39738">
        <ele>438.79998779297</ele>
        <time>2016-02-28T08:10:53Z</time>
      </trkpt>
      <trkpt lat="46.40752" lon="5.39744">
        <ele>438.59997558594</ele>
        <time>2016-02-28T08:10:56Z</time>
      </trkpt>
      <trkpt lat="46.40754" lon="5.39747">
        <ele>438.59997558594</ele>
        <time>2016-02-28T08:10:57Z</time>
      </trkpt>
      <trkpt lat="46.40759" lon="5.3975">
        <ele>439.20001220703</ele>
        <time>2016-02-28T08:10:59Z</time>
      </trkpt>
      <trkpt lat="46.40767" lon="5.39758">
        <ele>439.40002441406</ele>
        <time>2016-02-28T08:11:03Z</time>
      </trkpt>
      <trkpt lat="46.40786" lon="5.39773">
        <ele>439</ele>
        <time>2016-02-28T08:11:11Z</time>
      </trkpt>
      <trkpt lat="46.40793" lon="5.39779">
        <ele>440.20001220703</ele>
        <time>2016-02-28T08:11:15Z</time>
      </trkpt>
      <trkpt lat="46.40801" lon="5.39784">
        <ele>441</ele>
        <time>2016-02-28T08:11:18Z</time>
      </trkpt>
      <trkpt lat="46.40806" lon="5.39787">
        <ele>441.40002441406</ele>
        <time>2016-02-28T08:11:20Z</time>
      </trkpt>
      <trkpt lat="46.40816" lon="5.39797">
        <ele>441.20001220703</ele>
        <time>2016-02-28T08:11:25Z</time>
      </trkpt>
      <trkpt lat="46.4083" lon="5.39813">
        <ele>442</ele>
        <time>2016-02-28T08:11:32Z</time>
      </trkpt>
      <trkpt lat="46.40843" lon="5.39824">
        <ele>439.79998779297</ele>
        <time>2016-02-28T08:11:37Z</time>
      </trkpt>
      <trkpt lat="46.40849" lon="5.39829">
        <ele>439.20001220703</ele>
        <time>2016-02-28T08:11:39Z</time>
      </trkpt>
      <trkpt lat="46.40852" lon="5.39831">
        <ele>438.59997558594</ele>
        <time>2016-02-28T08:11:40Z</time>
      </trkpt>
      <trkpt lat="46.40866" lon="5.39845">
        <ele>437.40002441406</ele>
        <time>2016-02-28T08:11:46Z</time>
      </trkpt>
      <trkpt lat="46.40869" lon="5.39851">
        <ele>437</ele>
        <time>2016-02-28T08:11:48Z</time>
      </trkpt>
      <trkpt lat="46.40869" lon="5.39854">
        <ele>437</ele>
        <time>2016-02-28T08:11:49Z</time>
      </trkpt>
      <trkpt lat="46.4087" lon="5.39864">
        <ele>437.40002441406</ele>
        <time>2016-02-28T08:11:52Z</time>
      </trkpt>
      <trkpt lat="46.40869" lon="5.39868">
        <ele>437.40002441406</ele>
        <time>2016-02-28T08:11:53Z</time>
      </trkpt>
      <trkpt lat="46.40866" lon="5.39884">
        <ele>437.20001220703</ele>
        <time>2016-02-28T08:11:58Z</time>
      </trkpt>
      <trkpt lat="46.4086" lon="5.399">
        <ele>436.40002441406</ele>
        <time>2016-02-28T08:12:03Z</time>
      </trkpt>
      <trkpt lat="46.40857" lon="5.3991">
        <ele>436</ele>
        <time>2016-02-28T08:12:06Z</time>
      </trkpt>
      <trkpt lat="46.40859" lon="5.39916">
        <ele>435.79998779297</ele>
        <time>2016-02-28T08:12:08Z</time>
      </trkpt>
      <trkpt lat="46.4086" lon="5.39922">
        <ele>435.20001220703</ele>
        <time>2016-02-28T08:12:10Z</time>
      </trkpt>
      <trkpt lat="46.40862" lon="5.39937">
        <ele>435</ele>
        <time>2016-02-28T08:12:15Z</time>
      </trkpt>
      <trkpt lat="46.40866" lon="5.39957">
        <ele>433.79998779297</ele>
        <time>2016-02-28T08:12:20Z</time>
      </trkpt>
      <trkpt lat="46.40867" lon="5.39961">
        <ele>433</ele>
        <time>2016-02-28T08:12:21Z</time>
      </trkpt>
      <trkpt lat="46.40869" lon="5.39965">
        <ele>432</ele>
        <time>2016-02-28T08:12:22Z</time>
      </trkpt>
      <trkpt lat="46.40872" lon="5.39968">
        <ele>430.79998779297</ele>
        <time>2016-02-28T08:12:23Z</time>
      </trkpt>
      <trkpt lat="46.40875" lon="5.39976">
        <ele>429.40002441406</ele>
        <time>2016-02-28T08:12:25Z</time>
      </trkpt>
      <trkpt lat="46.40878" lon="5.39984">
        <ele>428.40002441406</ele>
        <time>2016-02-28T08:12:27Z</time>
      </trkpt>
      <trkpt lat="46.40884" lon="5.40003">
        <ele>426.59997558594</ele>
        <time>2016-02-28T08:12:32Z</time>
      </trkpt>
      <trkpt lat="46.40885" lon="5.40006">
        <ele>426.20001220703</ele>
        <time>2016-02-28T08:12:33Z</time>
      </trkpt>
      <trkpt lat="46.40892" lon="5.40031">
        <ele>425.59997558594</ele>
        <time>2016-02-28T08:12:40Z</time>
      </trkpt>
      <trkpt lat="46.40897" lon="5.40046">
        <ele>424.40002441406</ele>
        <time>2016-02-28T08:12:44Z</time>
      </trkpt>
      <trkpt lat="46.40901" lon="5.40057">
        <ele>423.59997558594</ele>
        <time>2016-02-28T08:12:47Z</time>
      </trkpt>
      <trkpt lat="46.40902" lon="5.40061">
        <ele>423.40002441406</ele>
        <time>2016-02-28T08:12:48Z</time>
      </trkpt>
      <trkpt lat="46.40906" lon="5.4008">
        <ele>422.40002441406</ele>
        <time>2016-02-28T08:12:53Z</time>
      </trkpt>
      <trkpt lat="46.40907" lon="5.40085">
        <ele>422.20001220703</ele>
        <time>2016-02-28T08:12:54Z</time>
      </trkpt>
      <trkpt lat="46.4091" lon="5.40097">
        <ele>421.20001220703</ele>
        <time>2016-02-28T08:12:57Z</time>
      </trkpt>
      <trkpt lat="46.40912" lon="5.40104">
        <ele>421</ele>
        <time>2016-02-28T08:12:59Z</time>
      </trkpt>
      <trkpt lat="46.4092" lon="5.40124">
        <ele>420.40002441406</ele>
        <time>2016-02-28T08:13:05Z</time>
      </trkpt>
      <trkpt lat="46.40923" lon="5.40127">
        <ele>420.20001220703</ele>
        <time>2016-02-28T08:13:06Z</time>
      </trkpt>
      <trkpt lat="46.40931" lon="5.40136">
        <ele>419.40002441406</ele>
        <time>2016-02-28T08:13:10Z</time>
      </trkpt>
      <trkpt lat="46.40933" lon="5.40138">
        <ele>419</ele>
        <time>2016-02-28T08:13:11Z</time>
      </trkpt>
      <trkpt lat="46.40947" lon="5.40148">
        <ele>418.59997558594</ele>
        <time>2016-02-28T08:13:17Z</time>
      </trkpt>
      <trkpt lat="46.40955" lon="5.40165">
        <ele>418.79998779297</ele>
        <time>2016-02-28T08:13:23Z</time>
      </trkpt>
      <trkpt lat="46.40955" lon="5.40186">
        <ele>419.59997558594</ele>
        <time>2016-02-28T08:13:29Z</time>
      </trkpt>
      <trkpt lat="46.40958" lon="5.40209">
        <ele>420.20001220703</ele>
        <time>2016-02-28T08:13:36Z</time>
      </trkpt>
      <trkpt lat="46.40965" lon="5.40229">
        <ele>420.40002441406</ele>
        <time>2016-02-28T08:13:42Z</time>
      </trkpt>
      <trkpt lat="46.40972" lon="5.40241">
        <ele>421.40002441406</ele>
        <time>2016-02-28T08:13:47Z</time>
      </trkpt>
      <trkpt lat="46.40975" lon="5.40246">
        <ele>421.79998779297</ele>
        <time>2016-02-28T08:13:49Z</time>
      </trkpt>
      <trkpt lat="46.40981" lon="5.40257">
        <ele>422.40002441406</ele>
        <time>2016-02-28T08:13:53Z</time>
      </trkpt>
      <trkpt lat="46.40984" lon="5.40262">
        <ele>423</ele>
        <time>2016-02-28T08:13:56Z</time>
      </trkpt>
      <trkpt lat="46.40987" lon="5.40264">
        <ele>423.59997558594</ele>
        <time>2016-02-28T08:13:58Z</time>
      </trkpt>
      <trkpt lat="46.4099" lon="5.40267">
        <ele>424.79998779297</ele>
        <time>2016-02-28T08:14:00Z</time>
      </trkpt>
      <trkpt lat="46.40993" lon="5.40272">
        <ele>426.20001220703</ele>
        <time>2016-02-28T08:14:03Z</time>
      </trkpt>
      <trkpt lat="46.40997" lon="5.40275">
        <ele>427.59997558594</ele>
        <time>2016-02-28T08:14:05Z</time>
      </trkpt>
      <trkpt lat="46.41" lon="5.40279">
        <ele>428.79998779297</ele>
        <time>2016-02-28T08:14:07Z</time>
      </trkpt>
      <trkpt lat="46.41003" lon="5.40282">
        <ele>430.20001220703</ele>
        <time>2016-02-28T08:14:09Z</time>
      </trkpt>
      <trkpt lat="46.41006" lon="5.40287">
        <ele>431.79998779297</ele>
        <time>2016-02-28T08:14:11Z</time>
      </trkpt>
      <trkpt lat="46.41009" lon="5.40291">
        <ele>433</ele>
        <time>2016-02-28T08:14:13Z</time>
      </trkpt>
      <trkpt lat="46.41012" lon="5.40294">
        <ele>433.59997558594</ele>
        <time>2016-02-28T08:14:15Z</time>
      </trkpt>
      <trkpt lat="46.41014" lon="5.40295">
        <ele>434</ele>
        <time>2016-02-28T08:14:16Z</time>
      </trkpt>
      <trkpt lat="46.41016" lon="5.403">
        <ele>435.20001220703</ele>
        <time>2016-02-28T08:14:19Z</time>
      </trkpt>
      <trkpt lat="46.41018" lon="5.40301">
        <ele>435.59997558594</ele>
        <time>2016-02-28T08:14:20Z</time>
      </trkpt>
      <trkpt lat="46.4102" lon="5.40305">
        <ele>436.59997558594</ele>
        <time>2016-02-28T08:14:22Z</time>
      </trkpt>
      <trkpt lat="46.41025" lon="5.4031">
        <ele>437.79998779297</ele>
        <time>2016-02-28T08:14:25Z</time>
      </trkpt>
      <trkpt lat="46.41028" lon="5.40314">
        <ele>438.40002441406</ele>
        <time>2016-02-28T08:14:27Z</time>
      </trkpt>
      <trkpt lat="46.41029" lon="5.40315">
        <ele>438.79998779297</ele>
        <time>2016-02-28T08:14:28Z</time>
      </trkpt>
      <trkpt lat="46.41033" lon="5.40319">
        <ele>440.20001220703</ele>
        <time>2016-02-28T08:14:30Z</time>
      </trkpt>
      <trkpt lat="46.41036" lon="5.40321">
        <ele>441.59997558594</ele>
        <time>2016-02-28T08:14:32Z</time>
      </trkpt>
      <trkpt lat="46.4104" lon="5.40325">
        <ele>442.59997558594</ele>
        <time>2016-02-28T08:14:34Z</time>
      </trkpt>
      <trkpt lat="46.41048" lon="5.40333">
        <ele>442.59997558594</ele>
        <time>2016-02-28T08:14:39Z</time>
      </trkpt>
      <trkpt lat="46.41052" lon="5.40341">
        <ele>443.79998779297</ele>
        <time>2016-02-28T08:14:43Z</time>
      </trkpt>
      <trkpt lat="46.41055" lon="5.40348">
        <ele>445.20001220703</ele>
        <time>2016-02-28T08:14:46Z</time>
      </trkpt>
      <trkpt lat="46.4106" lon="5.40355">
        <ele>446.40002441406</ele>
        <time>2016-02-28T08:14:50Z</time>
      </trkpt>
      <trkpt lat="46.41065" lon="5.40361">
        <ele>447.59997558594</ele>
        <time>2016-02-28T08:14:53Z</time>
      </trkpt>
      <trkpt lat="46.41068" lon="5.40367">
        <ele>448</ele>
        <time>2016-02-28T08:14:56Z</time>
      </trkpt>
      <trkpt lat="46.41073" lon="5.40372">
        <ele>448.59997558594</ele>
        <time>2016-02-28T08:14:59Z</time>
      </trkpt>
      <trkpt lat="46.41079" lon="5.40379">
        <ele>449.79998779297</ele>
        <time>2016-02-28T08:15:03Z</time>
      </trkpt>
      <trkpt lat="46.41082" lon="5.40382">
        <ele>450.59997558594</ele>
        <time>2016-02-28T08:15:05Z</time>
      </trkpt>
      <trkpt lat="46.41083" lon="5.40383">
        <ele>451.20001220703</ele>
        <time>2016-02-28T08:15:06Z</time>
      </trkpt>
      <trkpt lat="46.41087" lon="5.40385">
        <ele>452.20001220703</ele>
        <time>2016-02-28T08:15:08Z</time>
      </trkpt>
      <trkpt lat="46.41092" lon="5.40389">
        <ele>453.40002441406</ele>
        <time>2016-02-28T08:15:11Z</time>
      </trkpt>
      <trkpt lat="46.41095" lon="5.40391">
        <ele>453.79998779297</ele>
        <time>2016-02-28T08:15:12Z</time>
      </trkpt>
      <trkpt lat="46.41096" lon="5.40393">
        <ele>454</ele>
        <time>2016-02-28T08:15:13Z</time>
      </trkpt>
      <trkpt lat="46.41097" lon="5.40394">
        <ele>454.40002441406</ele>
        <time>2016-02-28T08:15:14Z</time>
      </trkpt>
      <trkpt lat="46.41103" lon="5.404">
        <ele>455</ele>
        <time>2016-02-28T08:15:17Z</time>
      </trkpt>
      <trkpt lat="46.41106" lon="5.40402">
        <ele>455.59997558594</ele>
        <time>2016-02-28T08:15:19Z</time>
      </trkpt>
      <trkpt lat="46.41111" lon="5.40406">
        <ele>456.79998779297</ele>
        <time>2016-02-28T08:15:22Z</time>
      </trkpt>
      <trkpt lat="46.41115" lon="5.40408">
        <ele>457.40002441406</ele>
        <time>2016-02-28T08:15:24Z</time>
      </trkpt>
      <trkpt lat="46.41117" lon="5.40409">
        <ele>457.79998779297</ele>
        <time>2016-02-28T08:15:25Z</time>
      </trkpt>
      <trkpt lat="46.41122" lon="5.40413">
        <ele>459.20001220703</ele>
        <time>2016-02-28T08:15:28Z</time>
      </trkpt>
      <trkpt lat="46.41124" lon="5.40413">
        <ele>460</ele>
        <time>2016-02-28T08:15:29Z</time>
      </trkpt>
      <trkpt lat="46.41125" lon="5.40414">
        <ele>460.59997558594</ele>
        <time>2016-02-28T08:15:30Z</time>
      </trkpt>
      <trkpt lat="46.41128" lon="5.40416">
        <ele>461.59997558594</ele>
        <time>2016-02-28T08:15:32Z</time>
      </trkpt>
      <trkpt lat="46.41132" lon="5.40419">
        <ele>463</ele>
        <time>2016-02-28T08:15:35Z</time>
      </trkpt>
      <trkpt lat="46.41134" lon="5.4042">
        <ele>463.20001220703</ele>
        <time>2016-02-28T08:15:36Z</time>
      </trkpt>
      <trkpt lat="46.41136" lon="5.40423">
        <ele>464</ele>
        <time>2016-02-28T08:15:38Z</time>
      </trkpt>
      <trkpt lat="46.41141" lon="5.40427">
        <ele>465.20001220703</ele>
        <time>2016-02-28T08:15:41Z</time>
      </trkpt>
      <trkpt lat="46.41144" lon="5.40428">
        <ele>466.20001220703</ele>
        <time>2016-02-28T08:15:43Z</time>
      </trkpt>
      <trkpt lat="46.41146" lon="5.40429">
        <ele>466.59997558594</ele>
        <time>2016-02-28T08:15:44Z</time>
      </trkpt>
      <trkpt lat="46.41152" lon="5.40432">
        <ele>467.20001220703</ele>
        <time>2016-02-28T08:15:47Z</time>
      </trkpt>
      <trkpt lat="46.41158" lon="5.40435">
        <ele>468.40002441406</ele>
        <time>2016-02-28T08:15:50Z</time>
      </trkpt>
      <trkpt lat="46.41159" lon="5.40436">
        <ele>469.20001220703</ele>
        <time>2016-02-28T08:15:51Z</time>
      </trkpt>
      <trkpt lat="46.41161" lon="5.40437">
        <ele>469.59997558594</ele>
        <time>2016-02-28T08:15:52Z</time>
      </trkpt>
      <trkpt lat="46.41165" lon="5.40441">
        <ele>470.79998779297</ele>
        <time>2016-02-28T08:15:55Z</time>
      </trkpt>
      <trkpt lat="46.41172" lon="5.40447">
        <ele>471.59997558594</ele>
        <time>2016-02-28T08:15:59Z</time>
      </trkpt>
      <trkpt lat="46.41173" lon="5.40449">
        <ele>472</ele>
        <time>2016-02-28T08:16:00Z</time>
      </trkpt>
      <trkpt lat="46.41181" lon="5.40453">
        <ele>473.40002441406</ele>
        <time>2016-02-28T08:16:05Z</time>
      </trkpt>
      <trkpt lat="46.41182" lon="5.40454">
        <ele>473.79998779297</ele>
        <time>2016-02-28T08:16:06Z</time>
      </trkpt>
      <trkpt lat="46.41185" lon="5.40457">
        <ele>474.40002441406</ele>
        <time>2016-02-28T08:16:08Z</time>
      </trkpt>
      <trkpt lat="46.41192" lon="5.40463">
        <ele>475.40002441406</ele>
        <time>2016-02-28T08:16:12Z</time>
      </trkpt>
      <trkpt lat="46.41197" lon="5.40468">
        <ele>476.79998779297</ele>
        <time>2016-02-28T08:16:16Z</time>
      </trkpt>
      <trkpt lat="46.41201" lon="5.40473">
        <ele>477.79998779297</ele>
        <time>2016-02-28T08:16:19Z</time>
      </trkpt>
      <trkpt lat="46.41202" lon="5.40475">
        <ele>478.20001220703</ele>
        <time>2016-02-28T08:16:20Z</time>
      </trkpt>
      <trkpt lat="46.41208" lon="5.4048">
        <ele>479</ele>
        <time>2016-02-28T08:16:24Z</time>
      </trkpt>
      <trkpt lat="46.41211" lon="5.40482">
        <ele>479.40002441406</ele>
        <time>2016-02-28T08:16:26Z</time>
      </trkpt>
      <trkpt lat="46.41212" lon="5.40483">
        <ele>480</ele>
        <time>2016-02-28T08:16:27Z</time>
      </trkpt>
      <trkpt lat="46.41214" lon="5.40488">
        <ele>481.40002441406</ele>
        <time>2016-02-28T08:16:29Z</time>
      </trkpt>
      <trkpt lat="46.41217" lon="5.40493">
        <ele>482</ele>
        <time>2016-02-28T08:16:32Z</time>
      </trkpt>
      <trkpt lat="46.41226" lon="5.40502">
        <ele>484.59997558594</ele>
        <time>2016-02-28T08:16:38Z</time>
      </trkpt>
      <trkpt lat="46.4123" lon="5.40505">
        <ele>485.20001220703</ele>
        <time>2016-02-28T08:16:40Z</time>
      </trkpt>
      <trkpt lat="46.41232" lon="5.40507">
        <ele>485.59997558594</ele>
        <time>2016-02-28T08:16:41Z</time>
      </trkpt>
      <trkpt lat="46.41234" lon="5.40508">
        <ele>485.79998779297</ele>
        <time>2016-02-28T08:16:42Z</time>
      </trkpt>
      <trkpt lat="46.41242" lon="5.40514">
        <ele>487.20001220703</ele>
        <time>2016-02-28T08:16:46Z</time>
      </trkpt>
      <trkpt lat="46.41268" lon="5.4056">
        <ele>484</ele>
        <time>2016-02-28T08:19:02Z</time>
      </trkpt>
      <trkpt lat="46.41269" lon="5.40561">
        <ele>483.79998779297</ele>
        <time>2016-02-28T08:19:03Z</time>
      </trkpt>
      <trkpt lat="46.41281" lon="5.40566">
        <ele>484.59997558594</ele>
        <time>2016-02-28T08:19:10Z</time>
      </trkpt>
      <trkpt lat="46.41282" lon="5.40567">
        <ele>485</ele>
        <time>2016-02-28T08:19:11Z</time>
      </trkpt>
      <trkpt lat="46.41285" lon="5.40567">
        <ele>486.40002441406</ele>
        <time>2016-02-28T08:19:13Z</time>
      </trkpt>
      <trkpt lat="46.41289" lon="5.40568">
        <ele>488.40002441406</ele>
        <time>2016-02-28T08:19:16Z</time>
      </trkpt>
      <trkpt lat="46.41291" lon="5.40569">
        <ele>489</ele>
        <time>2016-02-28T08:19:17Z</time>
      </trkpt>
      <trkpt lat="46.41293" lon="5.4057">
        <ele>489.40002441406</ele>
        <time>2016-02-28T08:19:18Z</time>
      </trkpt>
      <trkpt lat="46.41299" lon="5.40573">
        <ele>490.40002441406</ele>
        <time>2016-02-28T08:19:21Z</time>
      </trkpt>
      <trkpt lat="46.41303" lon="5.40577">
        <ele>491.59997558594</ele>
        <time>2016-02-28T08:19:23Z</time>
      </trkpt>
      <trkpt lat="46.41304" lon="5.40578">
        <ele>492.20001220703</ele>
        <time>2016-02-28T08:19:24Z</time>
      </trkpt>
      <trkpt lat="46.41305" lon="5.4058">
        <ele>493</ele>
        <time>2016-02-28T08:19:25Z</time>
      </trkpt>
      <trkpt lat="46.41308" lon="5.40582">
        <ele>494.20001220703</ele>
        <time>2016-02-28T08:19:27Z</time>
      </trkpt>
      <trkpt lat="46.41318" lon="5.40584">
        <ele>495.59997558594</ele>
        <time>2016-02-28T08:19:32Z</time>
      </trkpt>
      <trkpt lat="46.41324" lon="5.40585">
        <ele>496.79998779297</ele>
        <time>2016-02-28T08:19:35Z</time>
      </trkpt>
      <trkpt lat="46.4133" lon="5.40585">
        <ele>498.20001220703</ele>
        <time>2016-02-28T08:19:38Z</time>
      </trkpt>
      <trkpt lat="46.41332" lon="5.40585">
        <ele>498.59997558594</ele>
        <time>2016-02-28T08:19:39Z</time>
      </trkpt>
      <trkpt lat="46.41335" lon="5.40585">
        <ele>499.59997558594</ele>
        <time>2016-02-28T08:19:41Z</time>
      </trkpt>
      <trkpt lat="46.4134" lon="5.40585">
        <ele>500.59997558594</ele>
        <time>2016-02-28T08:19:43Z</time>
      </trkpt>
      <trkpt lat="46.41346" lon="5.40583">
        <ele>502.20001220703</ele>
        <time>2016-02-28T08:19:46Z</time>
      </trkpt>
      <trkpt lat="46.41354" lon="5.40582">
        <ele>503.40002441406</ele>
        <time>2016-02-28T08:19:50Z</time>
      </trkpt>
      <trkpt lat="46.41358" lon="5.40581">
        <ele>504</ele>
        <time>2016-02-28T08:19:52Z</time>
      </trkpt>
      <trkpt lat="46.41366" lon="5.40578">
        <ele>504.79998779297</ele>
        <time>2016-02-28T08:19:55Z</time>
      </trkpt>
      <trkpt lat="46.41373" lon="5.40576">
        <ele>505.79998779297</ele>
        <time>2016-02-28T08:19:59Z</time>
      </trkpt>
      <trkpt lat="46.41381" lon="5.40574">
        <ele>507</ele>
        <time>2016-02-28T08:20:03Z</time>
      </trkpt>
      <trkpt lat="46.41388" lon="5.40573">
        <ele>507.59997558594</ele>
        <time>2016-02-28T08:20:06Z</time>
      </trkpt>
      <trkpt lat="46.41395" lon="5.40572">
        <ele>508.20001220703</ele>
        <time>2016-02-28T08:20:09Z</time>
      </trkpt>
      <trkpt lat="46.41404" lon="5.40569">
        <ele>509</ele>
        <time>2016-02-28T08:20:13Z</time>
      </trkpt>
      <trkpt lat="46.41406" lon="5.40568">
        <ele>509.20001220703</ele>
        <time>2016-02-28T08:20:14Z</time>
      </trkpt>
      <trkpt lat="46.41419" lon="5.40562">
        <ele>509.59997558594</ele>
        <time>2016-02-28T08:20:20Z</time>
      </trkpt>
      <trkpt lat="46.41434" lon="5.40556">
        <ele>510.20001220703</ele>
        <time>2016-02-28T08:20:26Z</time>
      </trkpt>
      <trkpt lat="46.41471" lon="5.40543">
        <ele>509.59997558594</ele>
        <time>2016-02-28T08:20:41Z</time>
      </trkpt>
      <trkpt lat="46.41476" lon="5.40542">
        <ele>510.20001220703</ele>
        <time>2016-02-28T08:20:44Z</time>
      </trkpt>
      <trkpt lat="46.41491" lon="5.40541">
        <ele>510.40002441406</ele>
        <time>2016-02-28T08:20:51Z</time>
      </trkpt>
      <trkpt lat="46.4151" lon="5.40539">
        <ele>511.79998779297</ele>
        <time>2016-02-28T08:20:58Z</time>
      </trkpt>
      <trkpt lat="46.41517" lon="5.40537">
        <ele>511.79998779297</ele>
        <time>2016-02-28T08:21:00Z</time>
      </trkpt>
      <trkpt lat="46.41524" lon="5.40537">
        <ele>513.20001220703</ele>
        <time>2016-02-28T08:21:03Z</time>
      </trkpt>
      <trkpt lat="46.41528" lon="5.40539">
        <ele>514.59997558594</ele>
        <time>2016-02-28T08:21:06Z</time>
      </trkpt>
      <trkpt lat="46.4154" lon="5.4054">
        <ele>515.40002441406</ele>
        <time>2016-02-28T08:21:11Z</time>
      </trkpt>
      <trkpt lat="46.41541" lon="5.4054">
        <ele>515.59997558594</ele>
        <time>2016-02-28T08:21:12Z</time>
      </trkpt>
      <trkpt lat="46.4155" lon="5.40541">
        <ele>516.59997558594</ele>
        <time>2016-02-28T08:21:16Z</time>
      </trkpt>
      <trkpt lat="46.41552" lon="5.40542">
        <ele>516.79998779297</ele>
        <time>2016-02-28T08:21:17Z</time>
      </trkpt>
      <trkpt lat="46.41563" lon="5.40542">
        <ele>518</ele>
        <time>2016-02-28T08:21:22Z</time>
      </trkpt>
      <trkpt lat="46.41569" lon="5.40543">
        <ele>519.20001220703</ele>
        <time>2016-02-28T08:21:25Z</time>
      </trkpt>
      <trkpt lat="46.41572" lon="5.40544">
        <ele>520.40002441406</ele>
        <time>2016-02-28T08:21:27Z</time>
      </trkpt>
      <trkpt lat="46.41576" lon="5.40544">
        <ele>521.59997558594</ele>
        <time>2016-02-28T08:21:29Z</time>
      </trkpt>
      <trkpt lat="46.41589" lon="5.40545">
        <ele>523.20001220703</ele>
        <time>2016-02-28T08:21:34Z</time>
      </trkpt>
      <trkpt lat="46.41601" lon="5.40544">
        <ele>523.79998779297</ele>
        <time>2016-02-28T08:21:38Z</time>
      </trkpt>
      <trkpt lat="46.41607" lon="5.40543">
        <ele>524</ele>
        <time>2016-02-28T08:21:40Z</time>
      </trkpt>
      <trkpt lat="46.41609" lon="5.40543">
        <ele>524.40002441406</ele>
        <time>2016-02-28T08:21:41Z</time>
      </trkpt>
      <trkpt lat="46.41618" lon="5.40544">
        <ele>525</ele>
        <time>2016-02-28T08:21:46Z</time>
      </trkpt>
      <trkpt lat="46.4162" lon="5.40544">
        <ele>525.40002441406</ele>
        <time>2016-02-28T08:21:47Z</time>
      </trkpt>
      <trkpt lat="46.41625" lon="5.40545">
        <ele>526.59997558594</ele>
        <time>2016-02-28T08:21:50Z</time>
      </trkpt>
      <trkpt lat="46.4163" lon="5.40545">
        <ele>527.59997558594</ele>
        <time>2016-02-28T08:21:53Z</time>
      </trkpt>
      <trkpt lat="46.41643" lon="5.40546">
        <ele>528</ele>
        <time>2016-02-28T08:21:58Z</time>
      </trkpt>
      <trkpt lat="46.41659" lon="5.40552">
        <ele>527</ele>
        <time>2016-02-28T08:22:04Z</time>
      </trkpt>
      <trkpt lat="46.41661" lon="5.40553">
        <ele>526.40002441406</ele>
        <time>2016-02-28T08:22:05Z</time>
      </trkpt>
      <trkpt lat="46.41674" lon="5.40556">
        <ele>525.80004882812</ele>
        <time>2016-02-28T08:22:10Z</time>
      </trkpt>
      <trkpt lat="46.4169" lon="5.40563">
        <ele>526.80004882812</ele>
        <time>2016-02-28T08:22:17Z</time>
      </trkpt>
      <trkpt lat="46.41704" lon="5.40568">
        <ele>526.40002441406</ele>
        <time>2016-02-28T08:22:22Z</time>
      </trkpt>
      <trkpt lat="46.41722" lon="5.40574">
        <ele>525.80004882812</ele>
        <time>2016-02-28T08:22:28Z</time>
      </trkpt>
      <trkpt lat="46.41726" lon="5.40576">
        <ele>525.19995117188</ele>
        <time>2016-02-28T08:22:29Z</time>
      </trkpt>
      <trkpt lat="46.41735" lon="5.4058">
        <ele>524.19995117188</ele>
        <time>2016-02-28T08:22:32Z</time>
      </trkpt>
      <trkpt lat="46.41737" lon="5.40581">
        <ele>524</ele>
        <time>2016-02-28T08:22:33Z</time>
      </trkpt>
      <trkpt lat="46.41748" lon="5.40588">
        <ele>522.59997558594</ele>
        <time>2016-02-28T08:22:38Z</time>
      </trkpt>
      <trkpt lat="46.41751" lon="5.40589">
        <ele>521.79998779297</ele>
        <time>2016-02-28T08:22:39Z</time>
      </trkpt>
      <trkpt lat="46.41753" lon="5.4059">
        <ele>521.20001220703</ele>
        <time>2016-02-28T08:22:40Z</time>
      </trkpt>
      <trkpt lat="46.41758" lon="5.40593">
        <ele>519.79998779297</ele>
        <time>2016-02-28T08:22:42Z</time>
      </trkpt>
      <trkpt lat="46.41765" lon="5.40598">
        <ele>518.40002441406</ele>
        <time>2016-02-28T08:22:45Z</time>
      </trkpt>
      <trkpt lat="46.41776" lon="5.40604">
        <ele>517.40002441406</ele>
        <time>2016-02-28T08:22:50Z</time>
      </trkpt>
      <trkpt lat="46.4178" lon="5.40606">
        <ele>517</ele>
        <time>2016-02-28T08:22:52Z</time>
      </trkpt>
      <trkpt lat="46.41793" lon="5.40612">
        <ele>516.40002441406</ele>
        <time>2016-02-28T08:22:58Z</time>
      </trkpt>
      <trkpt lat="46.41808" lon="5.40619">
        <ele>516.79998779297</ele>
        <time>2016-02-28T08:23:05Z</time>
      </trkpt>
      <trkpt lat="46.41824" lon="5.40629">
        <ele>517</ele>
        <time>2016-02-28T08:23:11Z</time>
      </trkpt>
      <trkpt lat="46.41844" lon="5.40635">
        <ele>516.79998779297</ele>
        <time>2016-02-28T08:23:18Z</time>
      </trkpt>
      <trkpt lat="46.41857" lon="5.40638">
        <ele>518.40002441406</ele>
        <time>2016-02-28T08:23:24Z</time>
      </trkpt>
      <trkpt lat="46.41859" lon="5.40639">
        <ele>518.40002441406</ele>
        <time>2016-02-28T08:23:25Z</time>
      </trkpt>
      <trkpt lat="46.41873" lon="5.40645">
        <ele>519.59997558594</ele>
        <time>2016-02-28T08:23:30Z</time>
      </trkpt>
      <trkpt lat="46.41879" lon="5.40647">
        <ele>520.20001220703</ele>
        <time>2016-02-28T08:23:32Z</time>
      </trkpt>
      <trkpt lat="46.41898" lon="5.40651">
        <ele>520.20001220703</ele>
        <time>2016-02-28T08:23:39Z</time>
      </trkpt>
      <trkpt lat="46.41908" lon="5.4065">
        <ele>520.79998779297</ele>
        <time>2016-02-28T08:23:43Z</time>
      </trkpt>
      <trkpt lat="46.41912" lon="5.4065">
        <ele>521.20001220703</ele>
        <time>2016-02-28T08:23:45Z</time>
      </trkpt>
      <trkpt lat="46.41919" lon="5.40652">
        <ele>522</ele>
        <time>2016-02-28T08:23:49Z</time>
      </trkpt>
      <trkpt lat="46.41927" lon="5.40652">
        <ele>522.79998779297</ele>
        <time>2016-02-28T08:23:53Z</time>
      </trkpt>
      <trkpt lat="46.4193" lon="5.40652">
        <ele>523</ele>
        <time>2016-02-28T08:23:54Z</time>
      </trkpt>
      <trkpt lat="46.41944" lon="5.40652">
        <ele>522</ele>
        <time>2016-02-28T08:23:59Z</time>
      </trkpt>
      <trkpt lat="46.41949" lon="5.40652">
        <ele>521.79998779297</ele>
        <time>2016-02-28T08:24:01Z</time>
      </trkpt>
      <trkpt lat="46.41964" lon="5.40655">
        <ele>521</ele>
        <time>2016-02-28T08:24:07Z</time>
      </trkpt>
      <trkpt lat="46.41967" lon="5.40656">
        <ele>520.79998779297</ele>
        <time>2016-02-28T08:24:08Z</time>
      </trkpt>
      <trkpt lat="46.41976" lon="5.4066">
        <ele>519.79998779297</ele>
        <time>2016-02-28T08:24:12Z</time>
      </trkpt>
      <trkpt lat="46.41981" lon="5.40662">
        <ele>519.59997558594</ele>
        <time>2016-02-28T08:24:14Z</time>
      </trkpt>
      <trkpt lat="46.41995" lon="5.40667">
        <ele>518.79998779297</ele>
        <time>2016-02-28T08:24:20Z</time>
      </trkpt>
      <trkpt lat="46.42002" lon="5.40672">
        <ele>517.59997558594</ele>
        <time>2016-02-28T08:24:23Z</time>
      </trkpt>
      <trkpt lat="46.42012" lon="5.40679">
        <ele>516.59997558594</ele>
        <time>2016-02-28T08:24:27Z</time>
      </trkpt>
      <trkpt lat="46.42014" lon="5.4068">
        <ele>516.40002441406</ele>
        <time>2016-02-28T08:24:28Z</time>
      </trkpt>
      <trkpt lat="46.42025" lon="5.40688">
        <ele>515.59997558594</ele>
        <time>2016-02-28T08:24:33Z</time>
      </trkpt>
      <trkpt lat="46.42028" lon="5.40691">
        <ele>515.79998779297</ele>
        <time>2016-02-28T08:24:35Z</time>
      </trkpt>
      <trkpt lat="46.42032" lon="5.40693">
        <ele>516</ele>
        <time>2016-02-28T08:24:37Z</time>
      </trkpt>
      <trkpt lat="46.42044" lon="5.40701">
        <ele>517</ele>
        <time>2016-02-28T08:24:43Z</time>
      </trkpt>
      <trkpt lat="46.42052" lon="5.40707">
        <ele>517.59997558594</ele>
        <time>2016-02-28T08:24:47Z</time>
      </trkpt>
      <trkpt lat="46.42058" lon="5.40712">
        <ele>518.40002441406</ele>
        <time>2016-02-28T08:24:50Z</time>
      </trkpt>
      <trkpt lat="46.4206" lon="5.40713">
        <ele>518.59997558594</ele>
        <time>2016-02-28T08:24:51Z</time>
      </trkpt>
      <trkpt lat="46.42065" lon="5.40716">
        <ele>518.79998779297</ele>
        <time>2016-02-28T08:24:53Z</time>
      </trkpt>
      <trkpt lat="46.42069" lon="5.40718">
        <ele>519</ele>
        <time>2016-02-28T08:24:55Z</time>
      </trkpt>
      <trkpt lat="46.42078" lon="5.40727">
        <ele>518.79998779297</ele>
        <time>2016-02-28T08:25:00Z</time>
      </trkpt>
      <trkpt lat="46.4208" lon="5.40728">
        <ele>518.79998779297</ele>
        <time>2016-02-28T08:25:01Z</time>
      </trkpt>
      <trkpt lat="46.42085" lon="5.40736">
        <ele>519</ele>
        <time>2016-02-28T08:25:05Z</time>
      </trkpt>
      <trkpt lat="46.42089" lon="5.40741">
        <ele>520</ele>
        <time>2016-02-28T08:25:08Z</time>
      </trkpt>
      <trkpt lat="46.42092" lon="5.40747">
        <ele>521</ele>
        <time>2016-02-28T08:25:11Z</time>
      </trkpt>
      <trkpt lat="46.42094" lon="5.40752">
        <ele>522</ele>
        <time>2016-02-28T08:25:13Z</time>
      </trkpt>
      <trkpt lat="46.42101" lon="5.40756">
        <ele>522.79998779297</ele>
        <time>2016-02-28T08:25:16Z</time>
      </trkpt>
      <trkpt lat="46.42104" lon="5.40757">
        <ele>523</ele>
        <time>2016-02-28T08:25:18Z</time>
      </trkpt>
      <trkpt lat="46.42108" lon="5.40759">
        <ele>523.79998779297</ele>
        <time>2016-02-28T08:25:20Z</time>
      </trkpt>
      <trkpt lat="46.4211" lon="5.40761">
        <ele>524.19995117188</ele>
        <time>2016-02-28T08:25:21Z</time>
      </trkpt>
      <trkpt lat="46.42116" lon="5.40766">
        <ele>525.40002441406</ele>
        <time>2016-02-28T08:25:24Z</time>
      </trkpt>
      <trkpt lat="46.42125" lon="5.40772">
        <ele>526.59997558594</ele>
        <time>2016-02-28T08:25:28Z</time>
      </trkpt>
      <trkpt lat="46.42131" lon="5.40772">
        <ele>526.80004882812</ele>
        <time>2016-02-28T08:25:31Z</time>
      </trkpt>
      <trkpt lat="46.42135" lon="5.40774">
        <ele>528</ele>
        <time>2016-02-28T08:25:34Z</time>
      </trkpt>
      <trkpt lat="46.42139" lon="5.40774">
        <ele>529.40002441406</ele>
        <time>2016-02-28T08:25:38Z</time>
      </trkpt>
      <trkpt lat="46.42145" lon="5.40771">
        <ele>530.40002441406</ele>
        <time>2016-02-28T08:25:42Z</time>
      </trkpt>
      <trkpt lat="46.4215" lon="5.40769">
        <ele>531.40002441406</ele>
        <time>2016-02-28T08:25:45Z</time>
      </trkpt>
      <trkpt lat="46.42152" lon="5.40767">
        <ele>531.80004882812</ele>
        <time>2016-02-28T08:25:46Z</time>
      </trkpt>
      <trkpt lat="46.42156" lon="5.40762">
        <ele>532.80004882812</ele>
        <time>2016-02-28T08:25:49Z</time>
      </trkpt>
      <trkpt lat="46.42162" lon="5.40754">
        <ele>533.80004882812</ele>
        <time>2016-02-28T08:25:53Z</time>
      </trkpt>
      <trkpt lat="46.42167" lon="5.40748">
        <ele>534.19995117188</ele>
        <time>2016-02-28T08:25:55Z</time>
      </trkpt>
      <trkpt lat="46.42174" lon="5.40742">
        <ele>535.19995117188</ele>
        <time>2016-02-28T08:25:58Z</time>
      </trkpt>
      <trkpt lat="46.42176" lon="5.4074">
        <ele>535.80004882812</ele>
        <time>2016-02-28T08:25:59Z</time>
      </trkpt>
      <trkpt lat="46.42178" lon="5.40739">
        <ele>536.19995117188</ele>
        <time>2016-02-28T08:26:00Z</time>
      </trkpt>
      <trkpt lat="46.42191" lon="5.40728">
        <ele>536.59997558594</ele>
        <time>2016-02-28T08:26:05Z</time>
      </trkpt>
      <trkpt lat="46.42203" lon="5.40718">
        <ele>535.19995117188</ele>
        <time>2016-02-28T08:26:09Z</time>
      </trkpt>
      <trkpt lat="46.42209" lon="5.40711">
        <ele>534</ele>
        <time>2016-02-28T08:26:12Z</time>
      </trkpt>
      <trkpt lat="46.42216" lon="5.40706">
        <ele>532.80004882812</ele>
        <time>2016-02-28T08:26:14Z</time>
      </trkpt>
      <trkpt lat="46.42225" lon="5.40699">
        <ele>531.40002441406</ele>
        <time>2016-02-28T08:26:17Z</time>
      </trkpt>
      <trkpt lat="46.42237" lon="5.4069">
        <ele>530.19995117188</ele>
        <time>2016-02-28T08:26:22Z</time>
      </trkpt>
      <trkpt lat="46.42243" lon="5.40684">
        <ele>529</ele>
        <time>2016-02-28T08:26:24Z</time>
      </trkpt>
      <trkpt lat="46.42253" lon="5.40676">
        <ele>528.40002441406</ele>
        <time>2016-02-28T08:26:28Z</time>
      </trkpt>
      <trkpt lat="46.42262" lon="5.40668">
        <ele>527.80004882812</ele>
        <time>2016-02-28T08:26:33Z</time>
      </trkpt>
      <trkpt lat="46.42265" lon="5.40666">
        <ele>527.40002441406</ele>
        <time>2016-02-28T08:26:34Z</time>
      </trkpt>
      <trkpt lat="46.42267" lon="5.40664">
        <ele>526.80004882812</ele>
        <time>2016-02-28T08:26:35Z</time>
      </trkpt>
      <trkpt lat="46.42271" lon="5.40661">
        <ele>525.80004882812</ele>
        <time>2016-02-28T08:26:37Z</time>
      </trkpt>
      <trkpt lat="46.42275" lon="5.40654">
        <ele>525.19995117188</ele>
        <time>2016-02-28T08:26:40Z</time>
      </trkpt>
      <trkpt lat="46.42283" lon="5.40642">
        <ele>524.40002441406</ele>
        <time>2016-02-28T08:26:45Z</time>
      </trkpt>
      <trkpt lat="46.42286" lon="5.40639">
        <ele>523.79998779297</ele>
        <time>2016-02-28T08:26:46Z</time>
      </trkpt>
      <trkpt lat="46.42288" lon="5.40636">
        <ele>523.40002441406</ele>
        <time>2016-02-28T08:26:47Z</time>
      </trkpt>
      <trkpt lat="46.42293" lon="5.40631">
        <ele>522.40002441406</ele>
        <time>2016-02-28T08:26:49Z</time>
      </trkpt>
      <trkpt lat="46.42301" lon="5.40623">
        <ele>521.20001220703</ele>
        <time>2016-02-28T08:26:52Z</time>
      </trkpt>
      <trkpt lat="46.42309" lon="5.40616">
        <ele>519.79998779297</ele>
        <time>2016-02-28T08:26:55Z</time>
      </trkpt>
      <trkpt lat="46.42316" lon="5.40612">
        <ele>518.40002441406</ele>
        <time>2016-02-28T08:26:57Z</time>
      </trkpt>
      <trkpt lat="46.42323" lon="5.40608">
        <ele>517.20001220703</ele>
        <time>2016-02-28T08:26:59Z</time>
      </trkpt>
      <trkpt lat="46.42326" lon="5.40605">
        <ele>516.59997558594</ele>
        <time>2016-02-28T08:27:00Z</time>
      </trkpt>
      <trkpt lat="46.42329" lon="5.40602">
        <ele>516.20001220703</ele>
        <time>2016-02-28T08:27:01Z</time>
      </trkpt>
      <trkpt lat="46.42344" lon="5.40591">
        <ele>516.40002441406</ele>
        <time>2016-02-28T08:27:07Z</time>
      </trkpt>
      <trkpt lat="46.42356" lon="5.40582">
        <ele>514.79998779297</ele>
        <time>2016-02-28T08:27:11Z</time>
      </trkpt>
      <trkpt lat="46.42362" lon="5.40576">
        <ele>514.20001220703</ele>
        <time>2016-02-28T08:27:13Z</time>
      </trkpt>
      <trkpt lat="46.42376" lon="5.40564">
        <ele>514.59997558594</ele>
        <time>2016-02-28T08:27:19Z</time>
      </trkpt>
      <trkpt lat="46.4239" lon="5.40552">
        <ele>514.40002441406</ele>
        <time>2016-02-28T08:27:25Z</time>
      </trkpt>
      <trkpt lat="46.42403" lon="5.4054">
        <ele>515</ele>
        <time>2016-02-28T08:27:32Z</time>
      </trkpt>
      <trkpt lat="46.42418" lon="5.40524">
        <ele>515.59997558594</ele>
        <time>2016-02-28T08:27:39Z</time>
      </trkpt>
      <trkpt lat="46.42433" lon="5.40507">
        <ele>514.20001220703</ele>
        <time>2016-02-28T08:27:45Z</time>
      </trkpt>
      <trkpt lat="46.42438" lon="5.40499">
        <ele>513.79998779297</ele>
        <time>2016-02-28T08:27:48Z</time>
      </trkpt>
      <trkpt lat="46.42441" lon="5.40495">
        <ele>514.40002441406</ele>
        <time>2016-02-28T08:27:50Z</time>
      </trkpt>
      <trkpt lat="46.42445" lon="5.40487">
        <ele>515</ele>
        <time>2016-02-28T08:27:53Z</time>
      </trkpt>
      <trkpt lat="46.4245" lon="5.40476">
        <ele>515.59997558594</ele>
        <time>2016-02-28T08:27:57Z</time>
      </trkpt>
      <trkpt lat="46.42459" lon="5.40455">
        <ele>515</ele>
        <time>2016-02-28T08:28:03Z</time>
      </trkpt>
      <trkpt lat="46.42461" lon="5.40435">
        <ele>514.59997558594</ele>
        <time>2016-02-28T08:28:09Z</time>
      </trkpt>
      <trkpt lat="46.42458" lon="5.40415">
        <ele>515.59997558594</ele>
        <time>2016-02-28T08:28:15Z</time>
      </trkpt>
      <trkpt lat="46.4245" lon="5.40396">
        <ele>515.40002441406</ele>
        <time>2016-02-28T08:28:21Z</time>
      </trkpt>
      <trkpt lat="46.42446" lon="5.40387">
        <ele>513.59997558594</ele>
        <time>2016-02-28T08:28:24Z</time>
      </trkpt>
      <trkpt lat="46.42439" lon="5.40379">
        <ele>512.79998779297</ele>
        <time>2016-02-28T08:28:28Z</time>
      </trkpt>
      <trkpt lat="46.42437" lon="5.40377">
        <ele>512.59997558594</ele>
        <time>2016-02-28T08:28:29Z</time>
      </trkpt>
      <trkpt lat="46.42427" lon="5.40365">
        <ele>511.59997558594</ele>
        <time>2016-02-28T08:28:35Z</time>
      </trkpt>
      <trkpt lat="46.42425" lon="5.40363">
        <ele>511.40002441406</ele>
        <time>2016-02-28T08:28:36Z</time>
      </trkpt>
      <trkpt lat="46.42415" lon="5.40353">
        <ele>510</ele>
        <time>2016-02-28T08:28:41Z</time>
      </trkpt>
      <trkpt lat="46.42413" lon="5.40351">
        <ele>509.40002441406</ele>
        <time>2016-02-28T08:28:42Z</time>
      </trkpt>
      <trkpt lat="46.42411" lon="5.40349">
        <ele>508.79998779297</ele>
        <time>2016-02-28T08:28:43Z</time>
      </trkpt>
      <trkpt lat="46.42406" lon="5.40341">
        <ele>507.59997558594</ele>
        <time>2016-02-28T08:28:46Z</time>
      </trkpt>
      <trkpt lat="46.42404" lon="5.40339">
        <ele>507.40002441406</ele>
        <time>2016-02-28T08:28:47Z</time>
      </trkpt>
      <trkpt lat="46.42394" lon="5.40328">
        <ele>506.59997558594</ele>
        <time>2016-02-28T08:28:52Z</time>
      </trkpt>
      <trkpt lat="46.42392" lon="5.40325">
        <ele>506.40002441406</ele>
        <time>2016-02-28T08:28:53Z</time>
      </trkpt>
      <trkpt lat="46.42386" lon="5.40316">
        <ele>505.40002441406</ele>
        <time>2016-02-28T08:28:57Z</time>
      </trkpt>
      <trkpt lat="46.42385" lon="5.40314">
        <ele>505</ele>
        <time>2016-02-28T08:28:58Z</time>
      </trkpt>
      <trkpt lat="46.42381" lon="5.40307">
        <ele>504.20001220703</ele>
        <time>2016-02-28T08:29:00Z</time>
      </trkpt>
      <trkpt lat="46.42374" lon="5.40292">
        <ele>503</ele>
        <time>2016-02-28T08:29:04Z</time>
      </trkpt>
      <trkpt lat="46.42369" lon="5.40272">
        <ele>501.40002441406</ele>
        <time>2016-02-28T08:29:09Z</time>
      </trkpt>
      <trkpt lat="46.42367" lon="5.40268">
        <ele>501</ele>
        <time>2016-02-28T08:29:10Z</time>
      </trkpt>
      <trkpt lat="46.42365" lon="5.40259">
        <ele>499.79998779297</ele>
        <time>2016-02-28T08:29:12Z</time>
      </trkpt>
      <trkpt lat="46.42363" lon="5.40254">
        <ele>498.59997558594</ele>
        <time>2016-02-28T08:29:13Z</time>
      </trkpt>
      <trkpt lat="46.42362" lon="5.40248">
        <ele>497.40002441406</ele>
        <time>2016-02-28T08:29:14Z</time>
      </trkpt>
      <trkpt lat="46.42362" lon="5.40243">
        <ele>495.79998779297</ele>
        <time>2016-02-28T08:29:15Z</time>
      </trkpt>
      <trkpt lat="46.42362" lon="5.40238">
        <ele>493.79998779297</ele>
        <time>2016-02-28T08:29:16Z</time>
      </trkpt>
      <trkpt lat="46.42362" lon="5.40232">
        <ele>491.79998779297</ele>
        <time>2016-02-28T08:29:17Z</time>
      </trkpt>
      <trkpt lat="46.42363" lon="5.40227">
        <ele>490.20001220703</ele>
        <time>2016-02-28T08:29:18Z</time>
      </trkpt>
      <trkpt lat="46.42363" lon="5.40222">
        <ele>488.59997558594</ele>
        <time>2016-02-28T08:29:19Z</time>
      </trkpt>
      <trkpt lat="46.42364" lon="5.40217">
        <ele>487.59997558594</ele>
        <time>2016-02-28T08:29:20Z</time>
      </trkpt>
      <trkpt lat="46.42365" lon="5.40208">
        <ele>485.79998779297</ele>
        <time>2016-02-28T08:29:22Z</time>
      </trkpt>
      <trkpt lat="46.42365" lon="5.40204">
        <ele>485</ele>
        <time>2016-02-28T08:29:23Z</time>
      </trkpt>
      <trkpt lat="46.42365" lon="5.402">
        <ele>484.20001220703</ele>
        <time>2016-02-28T08:29:24Z</time>
      </trkpt>
      <trkpt lat="46.42366" lon="5.40188">
        <ele>483.20001220703</ele>
        <time>2016-02-28T08:29:27Z</time>
      </trkpt>
      <trkpt lat="46.42366" lon="5.4018">
        <ele>482.59997558594</ele>
        <time>2016-02-28T08:29:29Z</time>
      </trkpt>
      <trkpt lat="46.42366" lon="5.40176">
        <ele>482.20001220703</ele>
        <time>2016-02-28T08:29:30Z</time>
      </trkpt>
      <trkpt lat="46.42366" lon="5.40164">
        <ele>481</ele>
        <time>2016-02-28T08:29:33Z</time>
      </trkpt>
      <trkpt lat="46.42367" lon="5.40161">
        <ele>480.20001220703</ele>
        <time>2016-02-28T08:29:34Z</time>
      </trkpt>
      <trkpt lat="46.42369" lon="5.40157">
        <ele>479.40002441406</ele>
        <time>2016-02-28T08:29:35Z</time>
      </trkpt>
      <trkpt lat="46.4237" lon="5.40149">
        <ele>478.20001220703</ele>
        <time>2016-02-28T08:29:37Z</time>
      </trkpt>
      <trkpt lat="46.4237" lon="5.4014">
        <ele>477</ele>
        <time>2016-02-28T08:29:39Z</time>
      </trkpt>
      <trkpt lat="46.4237" lon="5.40136">
        <ele>476.40002441406</ele>
        <time>2016-02-28T08:29:40Z</time>
      </trkpt>
      <trkpt lat="46.4237" lon="5.40132">
        <ele>475.79998779297</ele>
        <time>2016-02-28T08:29:41Z</time>
      </trkpt>
      <trkpt lat="46.42372" lon="5.40121">
        <ele>474.20001220703</ele>
        <time>2016-02-28T08:29:44Z</time>
      </trkpt>
      <trkpt lat="46.42372" lon="5.40117">
        <ele>473.79998779297</ele>
        <time>2016-02-28T08:29:45Z</time>
      </trkpt>
      <trkpt lat="46.42372" lon="5.40114">
        <ele>473.20001220703</ele>
        <time>2016-02-28T08:29:46Z</time>
      </trkpt>
      <trkpt lat="46.42373" lon="5.40106">
        <ele>471.79998779297</ele>
        <time>2016-02-28T08:29:48Z</time>
      </trkpt>
      <trkpt lat="46.42375" lon="5.40094">
        <ele>471</ele>
        <time>2016-02-28T08:29:51Z</time>
      </trkpt>
      <trkpt lat="46.42376" lon="5.4009">
        <ele>470.59997558594</ele>
        <time>2016-02-28T08:29:52Z</time>
      </trkpt>
      <trkpt lat="46.42376" lon="5.40078">
        <ele>469.59997558594</ele>
        <time>2016-02-28T08:29:55Z</time>
      </trkpt>
      <trkpt lat="46.42377" lon="5.4007">
        <ele>468.59997558594</ele>
        <time>2016-02-28T08:29:57Z</time>
      </trkpt>
      <trkpt lat="46.42377" lon="5.40066">
        <ele>468</ele>
        <time>2016-02-28T08:29:58Z</time>
      </trkpt>
      <trkpt lat="46.42377" lon="5.40054">
        <ele>466.79998779297</ele>
        <time>2016-02-28T08:30:01Z</time>
      </trkpt>
      <trkpt lat="46.42378" lon="5.40046">
        <ele>466.40002441406</ele>
        <time>2016-02-28T08:30:03Z</time>
      </trkpt>
      <trkpt lat="46.42378" lon="5.40034">
        <ele>465.79998779297</ele>
        <time>2016-02-28T08:30:06Z</time>
      </trkpt>
      <trkpt lat="46.42378" lon="5.40026">
        <ele>465.20001220703</ele>
        <time>2016-02-28T08:30:08Z</time>
      </trkpt>
      <trkpt lat="46.42379" lon="5.40022">
        <ele>464.79998779297</ele>
        <time>2016-02-28T08:30:09Z</time>
      </trkpt>
      <trkpt lat="46.42378" lon="5.40001">
        <ele>463.79998779297</ele>
        <time>2016-02-28T08:30:14Z</time>
      </trkpt>
      <trkpt lat="46.42379" lon="5.39997">
        <ele>463.59997558594</ele>
        <time>2016-02-28T08:30:15Z</time>
      </trkpt>
      <trkpt lat="46.4238" lon="5.39982">
        <ele>463.20001220703</ele>
        <time>2016-02-28T08:30:19Z</time>
      </trkpt>
      <trkpt lat="46.4238" lon="5.39966">
        <ele>462.40002441406</ele>
        <time>2016-02-28T08:30:23Z</time>
      </trkpt>
      <trkpt lat="46.42382" lon="5.3995">
        <ele>461.79998779297</ele>
        <time>2016-02-28T08:30:27Z</time>
      </trkpt>
      <trkpt lat="46.42384" lon="5.39923">
        <ele>461.79998779297</ele>
        <time>2016-02-28T08:30:34Z</time>
      </trkpt>
      <trkpt lat="46.42385" lon="5.39898">
        <ele>462.20001220703</ele>
        <time>2016-02-28T08:30:41Z</time>
      </trkpt>
      <trkpt lat="46.42386" lon="5.39869">
        <ele>462.79998779297</ele>
        <time>2016-02-28T08:30:49Z</time>
      </trkpt>
      <trkpt lat="46.42387" lon="5.39856">
        <ele>463.59997558594</ele>
        <time>2016-02-28T08:30:53Z</time>
      </trkpt>
      <trkpt lat="46.42387" lon="5.39849">
        <ele>463.40002441406</ele>
        <time>2016-02-28T08:30:55Z</time>
      </trkpt>
      <trkpt lat="46.4239" lon="5.39824">
        <ele>463.20001220703</ele>
        <time>2016-02-28T08:31:02Z</time>
      </trkpt>
      <trkpt lat="46.4239" lon="5.39803">
        <ele>463.79998779297</ele>
        <time>2016-02-28T08:31:09Z</time>
      </trkpt>
      <trkpt lat="46.42382" lon="5.398">
        <ele>463.59997558594</ele>
        <time>2016-02-28T08:31:13Z</time>
      </trkpt>
      <trkpt lat="46.42371" lon="5.39798">
        <ele>463.20001220703</ele>
        <time>2016-02-28T08:31:19Z</time>
      </trkpt>
      <trkpt lat="46.42363" lon="5.39793">
        <ele>465</ele>
        <time>2016-02-28T08:31:24Z</time>
      </trkpt>
      <trkpt lat="46.42359" lon="5.39789">
        <ele>465.40002441406</ele>
        <time>2016-02-28T08:31:26Z</time>
      </trkpt>
      <trkpt lat="46.42346" lon="5.39775">
        <ele>465.79998779297</ele>
        <time>2016-02-28T08:31:32Z</time>
      </trkpt>
      <trkpt lat="46.42344" lon="5.39774">
        <ele>466</ele>
        <time>2016-02-28T08:31:33Z</time>
      </trkpt>
      <trkpt lat="46.42338" lon="5.39767">
        <ele>467</ele>
        <time>2016-02-28T08:31:36Z</time>
      </trkpt>
      <trkpt lat="46.42334" lon="5.39762">
        <ele>467.20001220703</ele>
        <time>2016-02-28T08:31:38Z</time>
      </trkpt>
      <trkpt lat="46.42331" lon="5.39758">
        <ele>468.40002441406</ele>
        <time>2016-02-28T08:31:41Z</time>
      </trkpt>
      <trkpt lat="46.42306" lon="5.39706">
        <ele>479.20001220703</ele>
        <time>2016-02-28T08:33:47Z</time>
      </trkpt>
      <trkpt lat="46.42299" lon="5.39693">
        <ele>480</ele>
        <time>2016-02-28T08:33:52Z</time>
      </trkpt>
      <trkpt lat="46.42297" lon="5.39691">
        <ele>480.40002441406</ele>
        <time>2016-02-28T08:33:53Z</time>
      </trkpt>
      <trkpt lat="46.42293" lon="5.39684">
        <ele>481.79998779297</ele>
        <time>2016-02-28T08:33:56Z</time>
      </trkpt>
      <trkpt lat="46.42292" lon="5.39681">
        <ele>482.59997558594</ele>
        <time>2016-02-28T08:33:57Z</time>
      </trkpt>
      <trkpt lat="46.4229" lon="5.39679">
        <ele>483.40002441406</ele>
        <time>2016-02-28T08:33:58Z</time>
      </trkpt>
      <trkpt lat="46.42288" lon="5.39673">
        <ele>484.79998779297</ele>
        <time>2016-02-28T08:34:00Z</time>
      </trkpt>
      <trkpt lat="46.42285" lon="5.39668">
        <ele>486</ele>
        <time>2016-02-28T08:34:02Z</time>
      </trkpt>
      <trkpt lat="46.42284" lon="5.39666">
        <ele>486.79998779297</ele>
        <time>2016-02-28T08:34:03Z</time>
      </trkpt>
      <trkpt lat="46.42283" lon="5.39663">
        <ele>487.59997558594</ele>
        <time>2016-02-28T08:34:04Z</time>
      </trkpt>
      <trkpt lat="46.42281" lon="5.39658">
        <ele>489</ele>
        <time>2016-02-28T08:34:06Z</time>
      </trkpt>
      <trkpt lat="46.42279" lon="5.39653">
        <ele>490.40002441406</ele>
        <time>2016-02-28T08:34:08Z</time>
      </trkpt>
      <trkpt lat="46.42277" lon="5.39648">
        <ele>491.79998779297</ele>
        <time>2016-02-28T08:34:10Z</time>
      </trkpt>
      <trkpt lat="46.42276" lon="5.39642">
        <ele>493.20001220703</ele>
        <time>2016-02-28T08:34:12Z</time>
      </trkpt>
      <trkpt lat="46.42274" lon="5.39635">
        <ele>494.40002441406</ele>
        <time>2016-02-28T08:34:14Z</time>
      </trkpt>
      <trkpt lat="46.42274" lon="5.39631">
        <ele>494.79998779297</ele>
        <time>2016-02-28T08:34:15Z</time>
      </trkpt>
      <trkpt lat="46.42274" lon="5.39615">
        <ele>492.59997558594</ele>
        <time>2016-02-28T08:34:18Z</time>
      </trkpt>
      <trkpt lat="46.42275" lon="5.39606">
        <ele>491.20001220703</ele>
        <time>2016-02-28T08:34:20Z</time>
      </trkpt>
      <trkpt lat="46.42274" lon="5.39598">
        <ele>491.20001220703</ele>
        <time>2016-02-28T08:34:23Z</time>
      </trkpt>
    </trkseg>
  </trk>
</gpx>